Provisional Data: Little Mehoopany Creek near North Mehoopany, PA


Please select a monitoring station.
Please select start date.
Please select start date.

Toggle Unit: C/F Toggle Unit: C/F
Sample Time Temperature (C) Temperature (F) Specific Conductivity (mS/cm) pH   Turbidity (NTU+) DO (mg/L)
12/23/2021 12:00:00 AM 1.97 35.546 0.104 7.57 1.47 13.39
12/23/2021 12:15:00 AM 1.94 35.492 0.104 7.56 1.33 13.4
12/23/2021 12:30:00 AM 2.01 35.618 0.105 7.51 1.21 13.36
12/23/2021 12:45:00 AM 1.86 35.348 0.105 7.56 1.24 13.43
12/23/2021 1:00:00 AM 1.84 35.312 0.105 7.56 1.32 13.46
12/23/2021 1:15:00 AM 1.82 35.276 0.104 7.54 1.36 13.38
12/23/2021 1:30:00 AM 1.81 35.258 0.105 7.47 1.26 13.45
12/23/2021 1:45:00 AM 1.73 35.114 0.105 7.56 1.26 13.48
12/23/2021 2:00:00 AM 1.73 35.114 0.105 7.55 1.24 13.49
12/23/2021 2:15:00 AM 1.7 35.06 0.105 7.53 1.31 13.46
12/23/2021 2:30:00 AM 1.73 35.114 0.105 7.51 1.29 13.47
12/23/2021 2:45:00 AM 1.71 35.078 0.105 7.5 1.27 13.46
12/23/2021 3:00:00 AM 1.6 34.88 0.105 7.52 1.26 13.58
12/23/2021 3:15:00 AM 1.57 34.826 0.105 7.56 1.28 13.57
12/23/2021 3:30:00 AM 1.54 34.772 0.105 7.53 1.28 13.57
12/23/2021 3:45:00 AM 1.52 34.736 0.105 7.57 1.2 13.63
12/23/2021 4:00:00 AM 1.55 34.79 0.105 7.52 1.09 13.53
12/23/2021 4:15:00 AM 1.52 34.736 0.105 7.53 1.24 13.6
12/23/2021 4:30:00 AM 1.41 34.538 0.105 7.55 1.32 13.69
12/23/2021 4:45:00 AM 1.41 34.538 0.105 7.54 1.16 13.63
12/23/2021 5:00:00 AM 1.38 34.484 0.104 7.56 1.19 13.7
12/23/2021 5:15:00 AM 1.39 34.502 0.104 7.52 1.27 13.65
12/23/2021 5:30:00 AM 1.33 34.394 0.104 7.54 1.25 13.69
12/23/2021 5:45:00 AM 1.34 34.412 0.105 7.52 1.28 13.7
12/23/2021 6:00:00 AM 1.3 34.34 0.105 7.48 1.28 13.7
12/23/2021 6:15:00 AM 1.31 34.358 0.105 7.5 1.22 13.69
12/23/2021 6:30:00 AM 1.31 34.358 0.105 7.48 1.27 13.51
12/23/2021 6:45:00 AM 1.27 34.286 0.105 7.5 1.32 13.64
12/23/2021 7:00:00 AM 1.28 34.304 0.105 7.52 1.22 13.72
12/23/2021 7:15:00 AM 1.2 34.16 0.104 7.53 1.31 13.76
12/23/2021 7:30:00 AM 1.21 34.178 0.104 7.48 1.34 13.75
12/23/2021 7:45:00 AM 1.21 34.178 0.105 7.52 1.3 13.77
12/23/2021 8:00:00 AM 1.2 34.16 0.105 7.51 1.19 13.85
12/23/2021 8:15:00 AM 1.09 33.962 0.104 7.58 1.33 13.94
12/23/2021 8:30:00 AM 1.18 34.124 0.104 7.54 1.27 13.95
12/23/2021 8:45:00 AM 1.19 34.142 0.105 7.59 1.19 14.07
12/23/2021 9:00:00 AM 1.17 34.106 0.104 7.63 1.29 14.16
12/23/2021 9:15:00 AM 1.28 34.304 0.104 7.6 1.23 14.16
12/23/2021 9:30:00 AM 1.25 34.25 0.104 7.66 1.22 14.27
12/23/2021 9:45:00 AM 1.32 34.376 0.103 7.67 1.38 14.3
12/23/2021 10:00:00 AM 1.38 34.484 0.104 7.68 1.27 14.36
12/23/2021 10:15:00 AM 1.38 34.484 0.103 7.71 1.11 14.42
12/23/2021 10:30:00 AM 1.35 34.43 0.103 7.74 1.28 14.47
12/23/2021 10:45:00 AM 1.45 34.61 0.103 7.74 1.39 14.48
12/23/2021 11:00:00 AM 1.53 34.754 0.103 7.74 1.34 14.46
12/23/2021 11:15:00 AM 1.46 34.628 0.103 7.8 1.19 14.52
12/23/2021 11:30:00 AM 1.49 34.682 0.103 7.79 1.37 14.53
12/23/2021 11:45:00 AM 1.51 34.718 0.103 7.81 1.25 14.54
12/23/2021 12:00:00 PM 1.67 35.006 0.102 7.74 1.18 14.42
12/23/2021 12:15:00 PM 1.57 34.826 0.102 7.82 1.17 14.52
12/23/2021 12:30:00 PM 1.62 34.916 0.102 7.8 1.24 14.42
12/23/2021 12:45:00 PM 1.64 34.952 0.102 7.81 1.29 14.43
12/23/2021 1:00:00 PM 1.68 35.024 0.102 7.85 1.34 14.44
12/23/2021 1:15:00 PM 1.73 35.114 0.102 7.82 1.23 14.34
12/23/2021 1:30:00 PM 1.84 35.312 0.102 7.77 1.22 14.32
12/23/2021 1:45:00 PM 1.87 35.366 0.102 7.82 1.28 14.33
12/23/2021 2:00:00 PM 1.93 35.474 0.102 7.71 1.21 14.31
12/23/2021 2:15:00 PM 1.89 35.402 0.101 7.8 1.42 14.25
12/23/2021 2:30:00 PM 1.99 35.582 0.101 7.8 1.3 14.2
12/23/2021 2:45:00 PM 2.06 35.708 0.101 7.72 1.38 14.12
12/23/2021 3:00:00 PM 2.08 35.744 0.101 7.78 1.37 14.08
12/23/2021 3:15:00 PM 2.16 35.888 0.101 7.76 1.12 14.05
12/23/2021 3:30:00 PM 2.23 36.014 0.101 7.73 1.31 13.97
12/23/2021 3:45:00 PM 2.27 36.086 0.101 7.67 1.31 13.89
12/23/2021 4:00:00 PM 2.28 36.104 0.101 7.74 1.33 13.91
12/23/2021 4:15:00 PM 2.33 36.194 0.101 7.69 1.29 13.78
12/23/2021 4:30:00 PM 2.32 36.176 0.101 7.69 1.36 13.68
12/23/2021 4:45:00 PM 2.34 36.212 0.102 7.65 1.33 13.59
12/23/2021 5:00:00 PM 2.31 36.158 0.102 7.61 1.34 13.47
12/23/2021 5:15:00 PM 2.23 36.014 0.102 7.63 1.24 13.5
12/23/2021 5:30:00 PM 2.2 35.96 0.103 7.6 1.23 13.45
12/23/2021 5:45:00 PM 2.21 35.978 0.103 7.55 1.27 13.43
12/23/2021 6:00:00 PM 2.16 35.888 0.103 7.57 1.3 13.4
12/23/2021 6:15:00 PM 2.11 35.798 0.103 7.59 1.29 13.47
12/23/2021 6:30:00 PM 2.09 35.762 0.103 7.56 1.43 13.46
12/23/2021 6:45:00 PM 2.06 35.708 0.103 7.55 1.28 13.45
12/23/2021 7:00:00 PM 2.09 35.762 0.104 7.52 1.4 13.4
12/23/2021 7:15:00 PM 2.07 35.726 0.104 7.56 1.3 13.41
12/23/2021 7:30:00 PM 2.2 35.96 0.104 7.51 1.21 13.09
12/23/2021 7:45:00 PM 2.07 35.726 0.104 7.57 1.32 13.43
12/23/2021 8:00:00 PM 2.19 35.942 0.104 7.56 1.32 13.4
12/23/2021 8:15:00 PM 2.07 35.726 0.104 7.55 1.31 13.41
12/23/2021 8:30:00 PM 2.03 35.654 0.104 7.57 1.25 13.48
12/23/2021 8:45:00 PM 2.06 35.708 0.104 7.57 1.22 13.47
12/23/2021 9:00:00 PM 2.08 35.744 0.104 7.59 1.35 13.45
12/23/2021 9:15:00 PM 2.12 35.816 0.104 7.58 1.23 13.4
12/23/2021 9:30:00 PM 2.19 35.942 0.104 7.51 1.26 13.31
12/23/2021 9:45:00 PM 2.15 35.87 0.104 7.54 1.28 13.34
12/23/2021 10:00:00 PM 2.25 36.05 0.105 7.53 1.21 13.28
12/23/2021 10:15:00 PM 2.18 35.924 0.104 7.55 1.35 13.37
12/23/2021 10:30:00 PM 2.26 36.068 0.104 7.53 1.24 13.23
12/23/2021 10:45:00 PM 2.19 35.942 0.105 7.57 1.23 13.37
12/23/2021 11:00:00 PM 2.19 35.942 0.104 7.56 1.22 13.33
12/23/2021 11:15:00 PM 2.23 36.014 0.105 7.56 1.33 13.3
12/23/2021 11:30:00 PM 2.24 36.032 0.105 7.55 1.26 13.31
12/23/2021 11:45:00 PM 2.27 36.086 0.105 7.57 1.2 13.3
12/24/2021 12:00:00 AM 2.29 36.122 0.105 7.55 1.2 13.26
12/24/2021 12:15:00 AM 2.34 36.212 0.105 7.54 1.31 13.25
12/24/2021 12:30:00 AM 2.32 36.176 0.105 7.54 1.18 13.23
12/24/2021 12:45:00 AM 2.31 36.158 0.105 7.56 1.35 13.28
12/24/2021 1:00:00 AM 2.28 36.104 0.105 7.57 1.3 13.3
12/24/2021 1:15:00 AM 2.31 36.158 0.105 7.57 1.27 13.27
12/24/2021 1:30:00 AM 2.31 36.158 0.105 7.54 1.25 13.21
12/24/2021 1:45:00 AM 2.26 36.068 0.105 7.56 1.15 13.3
12/24/2021 2:00:00 AM 2.28 36.104 0.105 7.55 1.23 13.25
12/24/2021 2:15:00 AM 2.28 36.104 0.105 7.54 1.19 13.25
12/24/2021 2:30:00 AM 2.33 36.194 0.105 7.53 1.26 13.17
12/24/2021 2:45:00 AM 2.3 36.14 0.105 7.54 1.15 13.21
12/24/2021 3:00:00 AM 2.28 36.104 0.105 7.58 1.25 13.3
12/24/2021 3:15:00 AM 2.32 36.176 0.105 7.54 1.18 13.19
12/24/2021 3:30:00 AM 2.26 36.068 0.105 7.58 1.11 13.33
12/24/2021 3:45:00 AM 2.36 36.248 0.105 7.52 1.27 13.16
12/24/2021 4:00:00 AM 2.29 36.122 0.105 7.57 1.12 13.29
12/24/2021 4:15:00 AM 2.35 36.23 0.105 7.54 1.26 13.26
12/24/2021 4:30:00 AM 2.44 36.392 0.105 7.52 1.22 13.14
12/24/2021 4:45:00 AM 2.38 36.284 0.105 7.52 1.09 13.23
12/24/2021 5:00:00 AM 2.39 36.302 0.105 7.52 1.25 13.18
12/24/2021 5:15:00 AM 2.41 36.338 0.105 7.55 1.2 13.22
12/24/2021 5:30:00 AM 2.4 36.32 0.105 7.57 1.25 13.27
12/24/2021 5:45:00 AM 2.39 36.302 0.105 7.57 1.14 13.29
12/24/2021 6:00:00 AM 2.41 36.338 0.105 7.58 1.35 13.25
12/24/2021 6:15:00 AM 2.49 36.482 0.105 7.54 1.26 13.2
12/24/2021 6:30:00 AM 2.46 36.428 0.105 7.55 1.17 13.23
12/24/2021 6:45:00 AM 2.46 36.428 0.105 7.57 1.11 13.22
12/24/2021 7:00:00 AM 2.5 36.5 0.105 7.55 1.24 13.19
12/24/2021 7:15:00 AM 2.57 36.626 0.105 7.52 1.21 13.13
12/24/2021 7:30:00 AM 2.52 36.536 0.105 7.56 1.28 13.22
12/24/2021 7:45:00 AM 2.51 36.518 0.105 7.57 1.23 13.24
12/24/2021 8:00:00 AM 2.57 36.626 0.105 7.57 1.28 13.19
12/24/2021 8:15:00 AM 2.57 36.626 0.105 7.56 1.12 13.24
12/24/2021 8:30:00 AM 2.65 36.77 0.104 7.54 1.19 13.19
12/24/2021 8:45:00 AM 2.65 36.77 0.104 7.57 1.26 13.32
12/24/2021 9:00:00 AM 2.66 36.788 0.104 7.57 1.21 13.34
12/24/2021 9:15:00 AM 2.71 36.878 0.105 7.58 1.14 13.39
12/24/2021 9:30:00 AM 2.71 36.878 0.105 7.63 1.21 13.52
12/24/2021 9:45:00 AM 2.73 36.914 0.104 7.64 1.18 13.57
12/24/2021 10:00:00 AM 2.75 36.95 0.104 7.68 1.26 13.64
12/24/2021 10:15:00 AM 2.78 37.004 0.104 7.71 1.05 13.69
12/24/2021 10:30:00 AM 2.86 37.148 0.104 7.71 1.15 13.71
12/24/2021 10:45:00 AM 2.92 37.256 0.104 7.7 1.16 13.66
12/24/2021 11:00:00 AM 2.94 37.292 0.103 7.76 1.25 13.75
12/24/2021 11:15:00 AM 3.01 37.418 0.103 7.71 1.29 13.74
12/24/2021 11:30:00 AM 3.04 37.472 0.103 7.77 1.24 13.82
12/24/2021 11:45:00 AM 3.13 37.634 0.103 7.8 1.19 13.83
12/24/2021 12:00:00 PM 3.19 37.742 0.102 7.81 1.23 13.87
12/24/2021 12:15:00 PM 3.25 37.85 0.103 7.83 1.3 13.86
12/24/2021 12:30:00 PM 3.32 37.976 0.102 7.79 1.25 13.81
12/24/2021 12:45:00 PM 3.34 38.012 0.102 7.87 1.33 13.85
12/24/2021 1:00:00 PM 3.45 38.21 0.102 7.87 1.11 13.82
12/24/2021 1:15:00 PM 3.56 38.408 0.102 7.85 1.27 13.82
12/24/2021 1:30:00 PM 3.52 38.336 0.102 7.88 1.18 13.78
12/24/2021 1:45:00 PM 3.54 38.372 0.101 7.89 1.26 13.72
12/24/2021 2:00:00 PM 3.55 38.39 0.101 7.86 1.24 13.71
12/24/2021 2:15:00 PM 3.58 38.444 0.101 7.86 1.26 13.62
12/24/2021 2:30:00 PM 3.58 38.444 0.101 7.88 1.27 13.62
12/24/2021 2:45:00 PM 3.59 38.462 0.102 7.86 1.12 13.52
12/24/2021 3:00:00 PM 3.61 38.498 0.101 7.83 1.24 13.51
12/24/2021 3:15:00 PM 3.6 38.48 0.102 7.85 1.11 13.46
12/24/2021 3:30:00 PM 3.67 38.606 0.101 7.77 1.45 13.37
12/24/2021 3:45:00 PM 3.64 38.552 0.102 7.83 1.18 13.41
12/24/2021 4:00:00 PM 3.69 38.642 0.101 7.79 1.23 13.32
12/24/2021 4:15:00 PM 3.69 38.642 0.101 7.75 1.32 13.2
12/24/2021 4:30:00 PM 3.66 38.588 0.102 7.74 1.44 13.12
12/24/2021 4:45:00 PM 3.75 38.75 0.103 7.65 1.84 13.07
12/24/2021 5:00:00 PM 3.62 38.516 0.102 7.68 1.68 12.97
12/24/2021 5:15:00 PM 3.59 38.462 0.102 7.65 1.7 12.93
12/24/2021 5:30:00 PM 3.56 38.408 0.103 7.63 1.58 12.88
12/24/2021 5:45:00 PM 3.51 38.318 0.103 7.63 1.48 12.88
12/24/2021 6:00:00 PM 3.46 38.228 0.103 7.63 1.49 12.88
12/24/2021 6:15:00 PM 3.45 38.21 0.104 7.58 1.61 12.76
12/24/2021 6:30:00 PM 3.39 38.102 0.104 7.6 1.78 12.86
12/24/2021 6:45:00 PM 3.33 37.994 0.104 7.61 2.04 12.91
12/24/2021 7:00:00 PM 3.32 37.976 0.104 7.61 2.08 12.9
12/24/2021 7:15:00 PM 3.34 38.012 0.104 7.59 1.88 12.84
12/24/2021 7:30:00 PM 3.3 37.94 0.105 7.59 1.83 12.89
12/24/2021 7:45:00 PM 3.29 37.922 0.104 7.59 1.6 12.88
12/24/2021 8:00:00 PM 3.27 37.886 0.105 7.61 1.51 12.93
12/24/2021 8:15:00 PM 3.3 37.94 0.105 7.59 1.45 12.91
12/24/2021 8:30:00 PM 3.24 37.832 0.104 7.61 1.48 12.94
12/24/2021 8:45:00 PM 3.32 37.976 0.105 7.57 1.36 12.82
12/24/2021 9:00:00 PM 3.36 38.048 0.105 7.57 1.32 12.76
12/24/2021 9:15:00 PM 3.32 37.976 0.105 7.59 1.3 12.88
12/24/2021 9:30:00 PM 3.34 38.012 0.105 7.57 1.26 12.79
12/24/2021 9:45:00 PM 3.33 37.994 0.105 7.56 1.19 12.78
12/24/2021 10:00:00 PM 3.32 37.976 0.105 7.61 1.28 12.89
12/24/2021 10:15:00 PM 3.33 37.994 0.105 7.57 1.35 12.84
12/24/2021 10:30:00 PM 3.31 37.958 0.105 7.6 1.36 12.88
12/24/2021 10:45:00 PM 3.33 37.994 0.105 7.61 1.28 12.9
12/24/2021 11:00:00 PM 3.35 38.03 0.105 7.59 1.44 12.86
12/24/2021 11:15:00 PM 3.42 38.156 0.105 7.59 1.38 12.81
12/24/2021 11:30:00 PM 3.4 38.12 0.105 7.59 1.28 12.8
12/24/2021 11:45:00 PM 3.41 38.138 0.105 7.58 1.26 12.81
12/25/2021 12:00:00 AM 3.43 38.174 0.105 7.6 1.16 12.81
12/25/2021 12:15:00 AM 3.48 38.264 0.105 7.58 1.29 12.75
12/25/2021 12:30:00 AM 3.49 38.282 0.106 7.58 1.13 12.73
12/25/2021 12:45:00 AM 3.52 38.336 0.105 7.58 1.48 12.79
12/25/2021 1:00:00 AM 3.53 38.354 0.105 7.59 1.38 12.76
12/25/2021 1:15:00 AM 3.55 38.39 0.105 7.59 1.35 12.76
12/25/2021 1:30:00 AM 3.61 38.498 0.105 7.57 1.51 12.65
12/25/2021 1:45:00 AM 3.68 38.624 0.105 7.54 1.44 12.65
12/25/2021 2:00:00 AM 3.66 38.588 0.105 7.6 1.41 12.7
12/25/2021 2:15:00 AM 3.66 38.588 0.105 7.6 1.45 12.7
12/25/2021 2:30:00 AM 3.69 38.642 0.105 7.59 1.27 12.66
12/25/2021 2:45:00 AM 3.72 38.696 0.105 7.58 1.34 12.64
12/25/2021 3:00:00 AM 3.74 38.732 0.105 7.6 1.33 12.65
12/25/2021 3:15:00 AM 3.75 38.75 0.106 7.6 1.85 12.66
12/25/2021 3:30:00 AM 3.78 38.804 0.106 7.61 1.47 12.66
12/25/2021 3:45:00 AM 3.76 38.768 0.106 7.63 1.25 12.69
12/25/2021 4:00:00 AM 3.79 38.822 0.105 7.6 1.53 12.63
12/25/2021 4:15:00 AM 3.87 38.966 0.105 7.55 1.39 12.49
12/25/2021 4:30:00 AM 3.84 38.912 0.104 7.53 1.45 12.56
12/25/2021 4:45:00 AM 3.84 38.912 0.105 7.61 1.24 12.64
12/25/2021 5:00:00 AM 3.88 38.984 0.104 7.59 1.31 12.59
12/25/2021 5:15:00 AM 3.86 38.948 0.104 7.6 1.25 12.61
12/25/2021 5:30:00 AM 3.93 39.074 0.104 7.58 1.31 12.52
12/25/2021 5:45:00 AM 3.93 39.074 0.104 7.58 1.35 12.55
12/25/2021 6:00:00 AM 3.91 39.038 0.104 7.59 1.26 12.58
12/25/2021 6:15:00 AM 3.95 39.11 0.104 7.57 1.38 12.53
12/25/2021 6:30:00 AM 3.95 39.11 0.103 7.58 1.45 12.53
12/25/2021 6:45:00 AM 3.96 39.128 0.103 7.58 1.44 12.54
12/25/2021 7:00:00 AM 3.98 39.164 0.103 7.57 1.54 12.51
12/25/2021 7:15:00 AM 3.98 39.164 0.104 7.59 1.63 12.56
12/25/2021 7:30:00 AM 4.03 39.254 0.104 7.56 1.66 12.5
12/25/2021 7:45:00 AM 4.02 39.236 0.104 7.56 1.59 12.51
12/25/2021 8:00:00 AM 4.05 39.29 0.103 7.56 1.69 12.44
12/25/2021 8:15:00 AM 4.07 39.326 0.103 7.54 1.5 12.51
12/25/2021 8:30:00 AM 4.07 39.326 0.103 7.57 1.44 12.57
12/25/2021 8:45:00 AM 4.06 39.308 0.103 7.61 1.41 12.62
12/25/2021 9:00:00 AM 4.12 39.416 0.103 7.54 1.42 12.55
12/25/2021 9:15:00 AM 4.13 39.434 0.103 7.55 1.47 12.59
12/25/2021 9:30:00 AM 4.12 39.416 0.103 7.61 1.6 12.73
12/25/2021 9:45:00 AM 4.19 39.542 0.103 7.58 1.52 12.65
12/25/2021 10:00:00 AM 4.22 39.596 0.103 7.6 1.76 12.7
12/25/2021 10:15:00 AM 4.27 39.686 0.103 7.53 1.69 12.57
12/25/2021 10:30:00 AM 4.31 39.758 0.102 7.58 1.94 12.66
12/25/2021 10:45:00 AM 4.34 39.812 0.102 7.61 2.07 12.75
12/25/2021 11:00:00 AM 4.41 39.938 0.102 7.64 2.32 12.83
12/25/2021 11:15:00 AM 4.51 40.118 0.102 7.53 2.42 12.85
12/25/2021 11:30:00 AM 4.55 40.19 0.101 7.65 2.29 12.91
12/25/2021 11:45:00 AM 4.63 40.334 0.102 7.62 2.07 12.81
12/25/2021 12:00:00 PM 4.61 40.298 0.101 7.72 2.36 12.89
12/25/2021 12:15:00 PM 4.65 40.37 0.101 7.69 2.1 12.75
12/25/2021 12:30:00 PM 4.68 40.424 0.103 7.64 1.98 12.65
12/25/2021 12:45:00 PM 4.73 40.514 0.102 7.57 2.24 12.69
12/25/2021 1:00:00 PM 4.79 40.622 0.103 7.68 2.64 12.7
12/25/2021 1:15:00 PM 4.88 40.784 0.104 7.58 2.44 12.47
12/25/2021 1:30:00 PM 4.84 40.712 0.104 7.66 2.73 12.74
12/25/2021 1:45:00 PM 4.92 40.856 0.104 7.66 2.75 12.65
12/25/2021 2:00:00 PM 4.95 40.91 0.104 7.72 2.68 12.86
12/25/2021 2:15:00 PM 5.12 41.216 0.104 7.71 2.89 12.74
12/25/2021 2:30:00 PM 5.06 41.108 0.104 7.76 2.71 12.81
12/25/2021 2:45:00 PM 5.11 41.198 0.104 7.65 2.66 12.48
12/25/2021 3:00:00 PM 5.16 41.288 0.104 7.6 2.73 12.52
12/25/2021 3:15:00 PM 5.18 41.324 0.103 7.62 2.6 12.51
12/25/2021 3:30:00 PM 5.2 41.36 0.103 7.64 2.62 12.39
12/25/2021 3:45:00 PM 5.17 41.306 0.103 7.66 2.5 12.38
12/25/2021 4:00:00 PM 5.24 41.432 0.103 7.58 2.55 12.23
12/25/2021 4:15:00 PM 5.21 41.378 0.103 7.57 2.6 12.13
12/25/2021 4:30:00 PM 5.21 41.378 0.103 7.54 2.44 12.12
12/25/2021 4:45:00 PM 5.22 41.396 0.103 7.53 2.34 12.11
12/25/2021 5:00:00 PM 5.18 41.324 0.103 7.57 2.5 12.11
12/25/2021 5:15:00 PM 5.18 41.324 0.103 7.57 2.48 12.08
12/25/2021 5:30:00 PM 5.19 41.342 0.103 7.55 2.28 12.09
12/25/2021 5:45:00 PM 5.18 41.324 0.104 7.55 2.29 12.05
12/25/2021 6:00:00 PM 5.23 41.414 0.103 7.52 2.05 11.9
12/25/2021 6:15:00 PM 5.2 41.36 0.104 7.52 2.11 12
12/25/2021 6:30:00 PM 5.22 41.396 0.103 7.52 2.08 12
12/25/2021 6:45:00 PM 5.19 41.342 0.103 7.51 2.12 11.92
12/25/2021 7:00:00 PM 5.2 41.36 0.104 7.5 2.07 11.85
12/25/2021 7:15:00 PM 5.19 41.342 0.103 7.54 2.16 12.04
12/25/2021 7:30:00 PM 5.18 41.324 0.103 7.52 2.18 12.05
12/25/2021 7:45:00 PM 5.2 41.36 0.103 7.5 1.84 12.01
12/25/2021 8:00:00 PM 5.2 41.36 0.103 7.5 1.98 11.94
12/25/2021 8:15:00 PM 5.17 41.306 0.103 7.51 1.91 12.04
12/25/2021 8:30:00 PM 5.22 41.396 0.103 7.48 2.08 12
12/25/2021 8:45:00 PM 5.29 41.522 0.103 7.47 1.99 11.81
12/25/2021 9:00:00 PM 5.21 41.378 0.103 7.5 1.95 12.02
12/25/2021 9:15:00 PM 5.19 41.342 0.103 7.49 1.82 11.97
12/25/2021 9:30:00 PM 5.18 41.324 0.103 7.52 1.97 12.02
12/25/2021 9:45:00 PM 5.22 41.396 0.103 7.5 1.89 12.03
12/25/2021 10:00:00 PM 5.2 41.36 0.103 7.51 1.77 12.08
12/25/2021 10:15:00 PM 5.28 41.504 0.103 7.48 1.79 11.89
12/25/2021 10:30:00 PM 5.24 41.432 0.103 7.52 1.78 12.1
12/25/2021 10:45:00 PM 5.27 41.486 0.103 7.53 1.93 12.03
12/25/2021 11:00:00 PM 5.28 41.504 0.103 7.52 1.76 12.06
12/25/2021 11:15:00 PM 5.29 41.522 0.103 7.53 1.67 12.06
12/25/2021 11:30:00 PM 5.32 41.576 0.103 7.53 1.63 12.05
12/25/2021 11:45:00 PM 5.32 41.576 0.102 7.54 1.84 12.1
12/26/2021 12:00:00 AM 5.35 41.63 0.102 7.53 1.84 12.03
12/26/2021 12:15:00 AM 5.35 41.63 0.103 7.51 1.77 11.99
12/26/2021 12:30:00 AM 5.35 41.63 0.102 7.52 1.8 12.04
12/26/2021 12:45:00 AM 5.35 41.63 0.102 7.52 1.72 12.03
12/26/2021 1:00:00 AM 5.33 41.594 0.102 7.53 1.76 12.03
12/26/2021 1:15:00 AM 5.35 41.63 0.102 7.51 1.75 12.04
12/26/2021 1:30:00 AM 5.36 41.648 0.102 7.5 1.78 12
12/26/2021 1:45:00 AM 5.33 41.594 0.102 7.51 1.63 11.99
12/26/2021 2:00:00 AM 5.33 41.594 0.102 7.51 1.57 12.08
12/26/2021 2:15:00 AM 5.3 41.54 0.102 7.52 1.82 12.04
12/26/2021 2:30:00 AM 5.26 41.468 0.102 7.55 2.01 12.14
12/26/2021 2:45:00 AM 5.24 41.432 0.102 7.52 1.75 12.1
12/26/2021 3:00:00 AM 5.26 41.468 0.102 7.49 1.67 12.06
12/26/2021 3:15:00 AM 5.21 41.378 0.102 7.51 1.86 12.06
12/26/2021 3:30:00 AM 5.19 41.342 0.102 7.46 2.07 12.02
12/26/2021 3:45:00 AM 5.19 41.342 0.102 7.47 1.75 12.09
12/26/2021 4:00:00 AM 5.16 41.288 0.102 7.45 1.8 12.13
12/26/2021 4:15:00 AM 5.14 41.252 0.103 7.48 1.53 12.12
12/26/2021 4:30:00 AM 5.12 41.216 0.102 7.43 1.65 12.04
12/26/2021 4:45:00 AM 5.06 41.108 0.102 7.51 1.6 12.23
12/26/2021 5:00:00 AM 5.02 41.036 0.102 7.53 1.61 12.22
12/26/2021 5:15:00 AM 5.04 41.072 0.102 7.5 1.56 12.19
12/26/2021 5:30:00 AM 4.97 40.946 0.102 7.53 1.58 12.32
12/26/2021 5:45:00 AM 5.01 41.018 0.102 7.46 1.62 12.18
12/26/2021 6:00:00 AM 4.99 40.982 0.102 7.52 1.65 12.15
12/26/2021 6:15:00 AM 5.06 41.108 0.102 7.41 1.81 11.97
12/26/2021 6:30:00 AM 4.93 40.874 0.102 7.48 1.73 12.25
12/26/2021 6:45:00 AM 5.08 41.144 0.102 7.45 1.61 12.08
12/26/2021 7:00:00 AM 4.89 40.802 0.101 7.49 1.57 12.2
12/26/2021 7:15:00 AM 4.88 40.784 0.101 7.45 1.59 12.15
12/26/2021 7:30:00 AM 4.82 40.676 0.102 7.51 1.63 12.32
12/26/2021 7:45:00 AM 4.84 40.712 0.102 7.51 1.51 12.34
12/26/2021 8:00:00 AM 4.81 40.658 0.102 7.52 1.65 12.37
12/26/2021 8:15:00 AM 4.81 40.658 0.102 7.53 1.81 12.48
12/26/2021 8:30:00 AM 4.83 40.694 0.101 7.41 1.58 12.46
12/26/2021 8:45:00 AM 4.75 40.55 0.101 7.58 1.52 12.65
12/26/2021 9:00:00 AM 4.84 40.712 0.101 7.55 1.69 12.62
12/26/2021 9:15:00 AM 4.78 40.604 0.101 7.6 1.65 12.84
12/26/2021 9:30:00 AM 4.88 40.784 0.101 7.59 1.6 12.77
12/26/2021 9:45:00 AM 4.87 40.766 0.1 7.63 1.63 12.89
12/26/2021 10:00:00 AM 4.88 40.784 0.1 7.65 1.57 12.84
12/26/2021 10:15:00 AM 4.92 40.856 0.1 7.67 1.69 13.03
12/26/2021 10:30:00 AM 4.99 40.982 0.1 7.63 1.51 13
12/26/2021 10:45:00 AM 5.08 41.144 0.101 7.6 1.51 12.97
12/26/2021 11:00:00 AM 4.99 40.982 0.1 7.68 1.51 13.01
12/26/2021 11:15:00 AM 4.98 40.964 0.1 7.68 1.68 12.97
12/26/2021 11:30:00 AM 5.04 41.072 0.099 7.71 1.69 13.05
12/26/2021 11:45:00 AM 5.1 41.18 0.1 7.75 1.5 13.09
12/26/2021 12:00:00 PM 5.15 41.27 0.099 7.7 1.46 13.01
12/26/2021 12:15:00 PM 5.16 41.288 0.099 7.81 1.69 13.08
12/26/2021 12:30:00 PM 5.22 41.396 0.099 7.69 1.52 12.99
12/26/2021 12:45:00 PM 5.24 41.432 0.099 7.69 1.62 12.98
12/26/2021 1:00:00 PM 5.28 41.504 0.098 7.66 1.56 13.01
12/26/2021 1:15:00 PM 5.33 41.594 0.098 7.66 1.5 12.88
12/26/2021 1:30:00 PM 5.4 41.72 0.098 7.75 1.59 12.98
12/26/2021 1:45:00 PM 5.33 41.594 0.098 7.81 1.55 13
12/26/2021 2:00:00 PM 5.37 41.666 0.099 7.74 1.57 12.79
12/26/2021 2:15:00 PM 5.3 41.54 0.099 7.76 1.62 12.85
12/26/2021 2:30:00 PM 5.3 41.54 0.099 7.72 1.58 12.83
12/26/2021 2:45:00 PM 5.33 41.594 0.099 7.65 1.54 12.67
12/26/2021 3:00:00 PM 5.33 41.594 0.099 7.73 1.5 12.62
12/26/2021 3:15:00 PM 5.29 41.522 0.099 7.71 1.56 12.75
12/26/2021 3:30:00 PM 5.31 41.558 0.099 7.62 1.66 12.61
12/26/2021 3:45:00 PM 5.27 41.486 0.099 7.69 1.59 12.65
12/26/2021 4:00:00 PM 5.31 41.558 0.1 7.6 1.45 12.4
12/26/2021 4:15:00 PM 5.28 41.504 0.1 7.62 1.67 12.48
12/26/2021 4:30:00 PM 5.21 41.378 0.101 7.6 1.56 12.46
12/26/2021 4:45:00 PM 5.2 41.36 0.1 7.56 1.63 12.34
12/26/2021 5:00:00 PM 5.13 41.234 0.1 7.56 1.55 12.36
12/26/2021 5:15:00 PM 5.08 41.144 0.101 7.56 1.59 12.4
12/26/2021 5:30:00 PM 5.09 41.162 0.101 7.51 1.62 12.25
12/26/2021 5:45:00 PM 5.01 41.018 0.101 7.54 1.61 12.31
12/26/2021 6:00:00 PM 4.98 40.964 0.101 7.52 1.62 12.26
12/26/2021 6:15:00 PM 4.94 40.892 0.101 7.53 1.83 12.3
12/26/2021 6:30:00 PM 4.94 40.892 0.101 7.49 1.47 12.3
12/26/2021 6:45:00 PM 4.86 40.748 0.102 7.54 1.47 12.37
12/26/2021 7:00:00 PM 4.8 40.64 0.102 7.54 1.54 12.41
12/26/2021 7:15:00 PM 4.73 40.514 0.102 7.56 1.53 12.45
12/26/2021 7:30:00 PM 4.8 40.64 0.102 7.5 1.61 12.29
12/26/2021 7:45:00 PM 4.75 40.55 0.103 7.52 1.45 12.36
12/26/2021 8:00:00 PM 4.73 40.514 0.102 7.5 1.44 12.36
12/26/2021 8:15:00 PM 4.64 40.352 0.102 7.53 1.49 12.44
12/26/2021 8:30:00 PM 4.65 40.37 0.102 7.52 1.51 12.43
12/26/2021 8:45:00 PM 4.61 40.298 0.102 7.52 1.48 12.46
12/26/2021 9:00:00 PM 4.59 40.262 0.102 7.5 1.49 12.42
12/26/2021 9:15:00 PM 4.6 40.28 0.103 7.51 1.34 12.42
12/26/2021 9:30:00 PM 4.59 40.262 0.103 7.51 1.52 12.41
12/26/2021 9:45:00 PM 4.51 40.118 0.102 7.54 1.7 12.53
12/26/2021 10:00:00 PM 4.47 40.046 0.103 7.54 1.62 12.56
12/26/2021 10:15:00 PM 4.41 39.938 0.102 7.55 1.44 12.55
12/26/2021 10:30:00 PM 4.4 39.92 0.102 7.54 1.44 12.57
12/26/2021 10:45:00 PM 4.46 40.028 0.103 7.47 1.61 12.46
12/26/2021 11:00:00 PM 4.35 39.83 0.103 7.51 1.54 12.58
12/26/2021 11:15:00 PM 4.31 39.758 0.102 7.53 1.49 12.58
12/26/2021 11:30:00 PM 4.34 39.812 0.102 7.53 1.35 12.54
12/26/2021 11:45:00 PM 4.31 39.758 0.103 7.52 1.46 12.55
12/27/2021 12:00:00 AM 4.23 39.614 0.103 7.53 1.33 12.61
12/27/2021 12:15:00 AM 4.19 39.542 0.102 7.53 1.34 12.61
12/27/2021 12:30:00 AM 4.21 39.578 0.103 7.5 1.28 12.59
12/27/2021 12:45:00 AM 4.18 39.524 0.102 7.52 1.6 12.61
12/27/2021 1:00:00 AM 4.17 39.506 0.103 7.51 1.38 12.6
12/27/2021 1:15:00 AM 4.1 39.38 0.102 7.54 1.58 12.67
12/27/2021 1:30:00 AM 4.08 39.344 0.103 7.5 1.52 12.62
12/27/2021 1:45:00 AM 4.1 39.38 0.103 7.5 1.33 12.64
12/27/2021 2:00:00 AM 4.03 39.254 0.103 7.53 1.38 12.67
12/27/2021 2:15:00 AM 4.01 39.218 0.102 7.49 1.45 12.67
12/27/2021 2:30:00 AM 3.95 39.11 0.102 7.51 1.53 12.68
12/27/2021 2:45:00 AM 3.87 38.966 0.102 7.53 1.43 12.75
12/27/2021 3:00:00 AM 3.86 38.948 0.103 7.48 1.37 12.68
12/27/2021 3:15:00 AM 3.81 38.858 0.102 7.51 1.43 12.73
12/27/2021 3:30:00 AM 3.76 38.768 0.102 7.49 1.38 12.71
12/27/2021 3:45:00 AM 3.69 38.642 0.102 7.51 1.4 12.78
12/27/2021 4:00:00 AM 3.63 38.534 0.102 7.5 1.54 12.77
12/27/2021 4:15:00 AM 3.63 38.534 0.102 7.51 1.36 12.75
12/27/2021 4:30:00 AM 3.58 38.444 0.102 7.48 1.44 12.81
12/27/2021 4:45:00 AM 3.55 38.39 0.102 7.51 1.34 12.83
12/27/2021 5:00:00 AM 3.52 38.336 0.102 7.52 1.38 12.84
12/27/2021 5:15:00 AM 3.52 38.336 0.102 7.5 1.61 12.87
12/27/2021 5:30:00 AM 3.52 38.336 0.102 7.48 1.47 12.82
12/27/2021 5:45:00 AM 3.45 38.21 0.102 7.48 1.37 12.84
12/27/2021 6:00:00 AM 3.47 38.246 0.102 7.48 1.38 12.82
12/27/2021 6:15:00 AM 3.41 38.138 0.102 7.51 1.41 12.92
12/27/2021 6:30:00 AM 3.44 38.192 0.102 7.5 1.35 12.84
12/27/2021 6:45:00 AM 3.43 38.174 0.102 7.47 1.36 12.78
12/27/2021 7:00:00 AM 3.4 38.12 0.102 7.48 1.45 12.84
12/27/2021 7:15:00 AM 3.39 38.102 0.102 7.5 1.41 12.84
12/27/2021 7:30:00 AM 3.4 38.12 0.102 7.5 1.44 12.88
12/27/2021 7:45:00 AM 3.39 38.102 0.102 7.49 1.64 12.91
12/27/2021 8:00:00 AM 3.33 37.994 0.102 7.52 1.44 12.99
12/27/2021 8:15:00 AM 3.4 38.12 0.102 7.5 1.38 12.91
12/27/2021 8:30:00 AM 3.36 38.048 0.102 7.49 1.33 12.95
12/27/2021 8:45:00 AM 3.37 38.066 0.102 7.51 1.35 12.98
12/27/2021 9:00:00 AM 3.29 37.922 0.102 7.56 1.34 13.09
12/27/2021 9:15:00 AM 3.37 38.066 0.102 7.5 1.28 13.01
12/27/2021 9:30:00 AM 3.35 38.03 0.103 7.55 1.42 13.09
12/27/2021 9:45:00 AM 3.41 38.138 0.102 7.49 1.53 13.02
12/27/2021 10:00:00 AM 3.35 38.03 0.102 7.52 1.42 13.07
12/27/2021 10:15:00 AM 3.39 38.102 0.103 7.56 1.36 13.26
12/27/2021 10:30:00 AM 3.39 38.102 0.102 7.59 1.38 13.34
12/27/2021 10:45:00 AM 3.4 38.12 0.102 7.64 1.4 13.41
12/27/2021 11:00:00 AM 3.56 38.408 0.102 7.56 1.42 13.42
12/27/2021 11:15:00 AM 3.49 38.282 0.102 7.64 1.19 13.46
12/27/2021 11:30:00 AM 3.55 38.39 0.101 7.61 1.31 13.47
12/27/2021 11:45:00 AM 3.59 38.462 0.102 7.69 1.28 13.56
12/27/2021 12:00:00 PM 3.59 38.462 0.101 7.72 1.44 13.58
12/27/2021 12:15:00 PM 3.6 38.48 0.101 7.66 1.45 13.43
12/27/2021 12:30:00 PM 3.62 38.516 0.101 7.66 1.32 13.26
12/27/2021 12:45:00 PM 3.66 38.588 0.101 7.7 1.39 13.39
12/27/2021 1:00:00 PM 3.62 38.516 0.101 7.72 1.33 13.37
12/27/2021 1:15:00 PM 3.67 38.606 0.101 7.65 1.23 13.26
12/27/2021 1:30:00 PM 3.66 38.588 0.101 7.63 1.47 13.19
12/27/2021 1:45:00 PM 3.68 38.624 0.101 7.62 1.29 13.22
12/27/2021 2:00:00 PM 3.71 38.678 0.101 7.66 1.3 13.27
12/27/2021 2:15:00 PM 3.71 38.678 0.101 7.63 1.31 13.25
12/27/2021 2:30:00 PM 3.72 38.696 0.101 7.63 1.37 13.19
12/27/2021 2:45:00 PM 3.69 38.642 0.101 7.66 1.35 13.2
12/27/2021 3:00:00 PM 3.71 38.678 0.102 7.59 1.32 13.13
12/27/2021 3:15:00 PM 3.73 38.714 0.102 7.6 1.41 13.05
12/27/2021 3:30:00 PM 3.71 38.678 0.102 7.62 1.36 13.1
12/27/2021 3:45:00 PM 3.64 38.552 0.102 7.65 1.41 13.08
12/27/2021 4:00:00 PM 3.72 38.696 0.102 7.57 1.39 12.8
12/27/2021 4:15:00 PM 3.73 38.714 0.102 7.55 1.46 12.84
12/27/2021 4:30:00 PM 3.68 38.624 0.102 7.56 1.43 12.84
12/27/2021 4:45:00 PM 3.69 38.642 0.102 7.54 1.38 12.77
12/27/2021 5:00:00 PM 3.7 38.66 0.103 7.54 1.31 12.75
12/27/2021 5:15:00 PM 3.66 38.588 0.102 7.55 1.4 12.73
12/27/2021 5:30:00 PM 3.65 38.57 0.103 7.53 1.42 12.72
12/27/2021 5:45:00 PM 3.63 38.534 0.103 7.54 1.44 12.77
12/27/2021 6:00:00 PM 3.66 38.588 0.103 7.52 1.33 12.69
12/27/2021 6:15:00 PM 3.64 38.552 0.103 7.52 1.41 12.68
12/27/2021 6:30:00 PM 3.63 38.534 0.103 7.5 1.51 12.7
12/27/2021 6:45:00 PM 3.61 38.498 0.103 7.54 1.41 12.71
12/27/2021 7:00:00 PM 3.62 38.516 0.103 7.49 1.49 12.63
12/27/2021 7:15:00 PM 3.64 38.552 0.103 7.49 1.4 12.65
12/27/2021 7:30:00 PM 3.64 38.552 0.104 7.52 1.42 12.69
12/27/2021 7:45:00 PM 3.57 38.426 0.104 7.53 1.55 12.72
12/27/2021 8:00:00 PM 3.61 38.498 0.103 7.52 1.46 12.67
12/27/2021 8:15:00 PM 3.61 38.498 0.103 7.51 1.43 12.7
12/27/2021 8:30:00 PM 3.63 38.534 0.103 7.49 1.49 12.67
12/27/2021 8:45:00 PM 3.63 38.534 0.104 7.48 1.34 12.67
12/27/2021 9:00:00 PM 3.61 38.498 0.103 7.49 1.53 12.7
12/27/2021 9:15:00 PM 3.59 38.462 0.103 7.53 1.44 12.73
12/27/2021 9:30:00 PM 3.63 38.534 0.104 7.51 1.39 12.64
12/27/2021 9:45:00 PM 3.65 38.57 0.104 7.46 1.31 12.62
12/27/2021 10:00:00 PM 3.64 38.552 0.104 7.52 1.34 12.73
12/27/2021 10:15:00 PM 3.6 38.48 0.103 7.53 1.45 12.75
12/27/2021 10:30:00 PM 3.62 38.516 0.103 7.54 1.38 12.72
12/27/2021 10:45:00 PM 3.63 38.534 0.103 7.53 1.53 12.71
12/27/2021 11:00:00 PM 3.64 38.552 0.103 7.52 1.43 12.68
12/27/2021 11:15:00 PM 3.71 38.678 0.104 7.49 1.4 12.63
12/27/2021 11:30:00 PM 3.7 38.66 0.104 7.51 1.25 12.65
12/27/2021 11:45:00 PM 3.65 38.57 0.104 7.52 1.3 12.65
12/28/2021 12:00:00 AM 3.71 38.678 0.104 7.51 1.41 12.64
12/28/2021 12:15:00 AM 3.66 38.588 0.103 7.53 1.39 12.69
12/28/2021 12:30:00 AM 3.66 38.588 0.103 7.53 1.3 12.69
12/28/2021 12:45:00 AM 3.68 38.624 0.103 7.51 1.41 12.67
12/28/2021 1:00:00 AM 3.72 38.696 0.103 7.54 1.31 12.69
12/28/2021 1:15:00 AM 3.79 38.822 0.104 7.49 1.38 12.57
12/28/2021 1:30:00 AM 3.77 38.786 0.103 7.51 1.41 12.64
12/28/2021 1:45:00 AM 3.77 38.786 0.103 7.51 1.37 12.62
12/28/2021 2:00:00 AM 3.8 38.84 0.104 7.52 1.19 12.66
12/28/2021 2:15:00 AM 3.8 38.84 0.104 7.53 1.39 12.63
12/28/2021 2:30:00 AM 3.85 38.93 0.104 7.49 1.34 12.58
12/28/2021 2:45:00 AM 3.85 38.93 0.104 7.51 1.44 12.61
12/28/2021 3:00:00 AM 3.88 38.984 0.104 7.51 1.37 12.59
12/28/2021 3:15:00 AM 3.88 38.984 0.104 7.52 1.37 12.63
12/28/2021 3:30:00 AM 3.96 39.128 0.104 7.49 1.25 12.55
12/28/2021 3:45:00 AM 3.93 39.074 0.105 7.5 1.26 12.55
12/28/2021 4:00:00 AM 3.89 39.002 0.104 7.52 1.51 12.62
12/28/2021 4:15:00 AM 3.91 39.038 0.104 7.51 1.3 12.59
12/28/2021 4:30:00 AM 3.88 38.984 0.104 7.53 1.31 12.65
12/28/2021 4:45:00 AM 3.92 39.056 0.104 7.5 1.41 12.55
12/28/2021 5:00:00 AM 3.91 39.038 0.104 7.49 1.43 12.58
12/28/2021 5:15:00 AM 3.88 38.984 0.104 7.51 1.3 12.61
12/28/2021 5:30:00 AM 3.85 38.93 0.104 7.49 1.42 12.53
12/28/2021 5:45:00 AM 3.77 38.786 0.104 7.5 1.39 12.63
12/28/2021 6:00:00 AM 3.78 38.804 0.104 7.5 1.31 12.59
12/28/2021 6:15:00 AM 3.76 38.768 0.104 7.43 1.17 12.46
12/28/2021 6:30:00 AM 3.67 38.606 0.104 7.52 1.36 12.63
12/28/2021 6:45:00 AM 3.71 38.678 0.104 7.47 1.47 12.61
12/28/2021 7:00:00 AM 3.57 38.426 0.104 7.49 1.23 12.68
12/28/2021 7:15:00 AM 3.57 38.426 0.105 7.49 1.35 12.69
12/28/2021 7:30:00 AM 3.51 38.318 0.105 7.51 1.39 12.69
12/28/2021 7:45:00 AM 3.49 38.282 0.104 7.48 1.17 12.76
12/28/2021 8:00:00 AM 3.44 38.192 0.104 7.5 1.29 12.77
12/28/2021 8:15:00 AM 3.42 38.156 0.104 7.52 1.35 12.86
12/28/2021 8:30:00 AM 3.45 38.21 0.104 7.51 1.24 13
12/28/2021 8:45:00 AM 3.41 38.138 0.104 7.57 1.36 13.16
12/28/2021 9:00:00 AM 3.4 38.12 0.104 7.61 1.28 13.27
12/28/2021 9:15:00 AM 3.47 38.246 0.104 7.59 1.28 13.28
12/28/2021 9:30:00 AM 3.47 38.246 0.103 7.62 1.32 13.37
12/28/2021 9:45:00 AM 3.47 38.246 0.103 7.66 1.22 13.39
12/28/2021 10:00:00 AM 3.54 38.372 0.103 7.64 1.35 13.44
12/28/2021 10:15:00 AM 3.6 38.48 0.103 7.65 1.32 13.43
12/28/2021 10:30:00 AM 3.6 38.48 0.103 7.65 1.39 13.48
12/28/2021 10:45:00 AM 3.59 38.462 0.103 7.69 1.36 13.46
12/28/2021 11:00:00 AM 3.61 38.498 0.103 7.69 1.36 13.49
12/28/2021 11:15:00 AM 3.68 38.624 0.103 7.66 1.35 13.48
12/28/2021 11:30:00 AM 3.69 38.642 0.103 7.7 1.35 13.46
12/28/2021 11:45:00 AM 3.72 38.696 0.103 7.67 1.32 13.47
12/28/2021 12:00:00 PM 3.74 38.732 0.102 7.77 1.3 13.58
12/28/2021 12:15:00 PM 3.93 39.074 0.102 7.68 1.79 13.3
12/28/2021 12:30:00 PM 3.93 39.074 0.102 7.76 5.13 13.55
12/28/2021 12:45:00 PM 4.04 39.272 0.102 7.76 1.22 13.47
12/28/2021 1:00:00 PM 4.08 39.344 0.102 7.82 1.3 13.44
12/28/2021 1:15:00 PM 4.19 39.542 0.102 7.76 1.2 13.29
12/28/2021 1:30:00 PM 4.25 39.65 0.102 7.75 1.28 13.21
12/28/2021 1:45:00 PM 4.27 39.686 0.102 7.72 1.21 13.14
12/28/2021 2:00:00 PM 4.31 39.758 0.102 7.72 1.26 13.02
12/28/2021 2:15:00 PM 4.44 39.992 0.102 7.62 1.34 12.87
12/28/2021 2:30:00 PM 4.42 39.956 0.102 7.61 1.32 12.82
12/28/2021 2:45:00 PM 4.4 39.92 0.102 7.72 1.24 12.98
12/28/2021 3:00:00 PM 4.46 40.028 0.102 7.64 1.3 12.95
12/28/2021 3:15:00 PM 4.48 40.064 0.102 7.62 1.29 12.89
12/28/2021 3:30:00 PM 4.57 40.226 0.102 7.6 1.22 12.8
12/28/2021 3:45:00 PM 4.49 40.082 0.102 7.6 1.29 12.75
12/28/2021 4:00:00 PM 4.55 40.19 0.102 7.58 1.21 12.65
12/28/2021 4:15:00 PM 4.47 40.046 0.102 7.62 1.24 12.68
12/28/2021 4:30:00 PM 4.5 40.1 0.102 7.56 1.29 12.57
12/28/2021 4:45:00 PM 4.47 40.046 0.103 7.5 1.27 12.51
12/28/2021 5:00:00 PM 4.48 40.064 0.103 7.53 1.27 12.43
12/28/2021 5:15:00 PM 4.43 39.974 0.103 7.52 1.31 12.5
12/28/2021 5:30:00 PM 4.46 40.028 0.103 7.51 1.1 12.42
12/28/2021 5:45:00 PM 4.47 40.046 0.103 7.5 1.11 12.39
12/28/2021 6:00:00 PM 4.44 39.992 0.103 7.51 1.07 12.42
12/28/2021 6:15:00 PM 4.45 40.01 0.102 7.53 2.7 12.46
12/28/2021 6:30:00 PM 4.41 39.938 0.111 7.54 0.42 12.46
12/28/2021 6:45:00 PM 4.42 39.956 0.111 7.55 0.46 12.5
12/28/2021 7:00:00 PM 4.41 39.938 0.111 7.54 0.46 12.46
12/28/2021 7:15:00 PM 4.46 40.028 0.111 7.49 0.46 12.39
12/28/2021 7:30:00 PM 4.43 39.974 0.111 7.51 0.43 12.39
12/28/2021 7:45:00 PM 4.44 39.992 0.111 7.5 0.51 12.52
12/28/2021 8:00:00 PM 4.41 39.938 0.111 7.47 0.48 12.44
12/28/2021 8:15:00 PM 4.38 39.884 0.111 7.54 0.58 12.49
12/28/2021 8:30:00 PM 4.38 39.884 0.111 7.49 0.52 12.43
12/28/2021 8:45:00 PM 4.38 39.884 0.111 7.51 0.49 12.46
12/28/2021 9:00:00 PM 4.32 39.776 0.111 7.54 0.45 12.5
12/28/2021 9:15:00 PM 4.21 39.578 0.11 7.53 0.51 12.44
12/28/2021 9:30:00 PM 4.17 39.506 0.111 7.5 0.6 12.49
12/28/2021 9:45:00 PM 4.11 39.398 0.114 7.51 0.6 12.49
12/28/2021 10:00:00 PM 4.06 39.308 0.118 7.54 0.62 12.58
12/28/2021 10:15:00 PM 4.11 39.398 0.119 7.48 0.53 12.49
12/28/2021 10:30:00 PM 4.08 39.344 0.119 7.52 0.48 12.52
12/28/2021 10:45:00 PM 4.08 39.344 0.118 7.5 0.56 12.54
12/28/2021 11:00:00 PM 4.08 39.344 0.116 7.48 0.55 12.52
12/28/2021 11:15:00 PM 4.04 39.272 0.116 7.53 0.47 12.57
12/28/2021 11:30:00 PM 4.15 39.47 0.116 7.44 0.48 12.41
12/28/2021 11:45:00 PM 4.08 39.344 0.115 7.48 0.54 12.45
12/29/2021 12:00:00 AM 4.1 39.38 0.116 7.5 0.52 12.55
12/29/2021 12:15:00 AM 4.03 39.254 0.115 7.49 0.57 12.53
12/29/2021 12:30:00 AM 4.02 39.236 0.115 7.5 0.52 12.55
12/29/2021 12:45:00 AM 4.07 39.326 0.114 7.45 0.55 12.45
12/29/2021 1:00:00 AM 4.03 39.254 0.114 7.51 0.61 12.55
12/29/2021 1:15:00 AM 4.02 39.236 0.114 7.49 0.67 12.53
12/29/2021 1:30:00 AM 4.04 39.272 0.113 7.49 0.65 12.48
12/29/2021 1:45:00 AM 4.04 39.272 0.113 7.52 0.72 12.57
12/29/2021 2:00:00 AM 4.05 39.29 0.113 7.49 0.63 12.52
12/29/2021 2:15:00 AM 4.04 39.272 0.113 7.49 0.87 12.55
12/29/2021 2:30:00 AM 4.06 39.308 0.113 7.46 0.57 12.48
12/29/2021 2:45:00 AM 4.07 39.326 0.113 7.46 0.57 12.47
12/29/2021 3:00:00 AM 4.02 39.236 0.113 7.51 0.52 12.54
12/29/2021 3:15:00 AM 4.04 39.272 0.113 7.49 0.68 12.5
12/29/2021 3:30:00 AM 4.08 39.344 0.114 7.47 0.91 12.43
12/29/2021 3:45:00 AM 4.02 39.236 0.114 7.5 0.61 12.59
12/29/2021 4:00:00 AM 4.04 39.272 0.115 7.49 0.54 12.53
12/29/2021 4:15:00 AM 4.13 39.434 0.116 7.47 0.57 12.5
12/29/2021 4:30:00 AM 4.07 39.326 0.116 7.49 0.54 12.52
12/29/2021 4:45:00 AM 4.04 39.272 0.117 7.5 0.53 12.53
12/29/2021 5:00:00 AM 4.12 39.416 0.117 7.43 0.56 12.4
12/29/2021 5:15:00 AM 4.08 39.344 0.117 7.49 0.56 12.52
12/29/2021 5:30:00 AM 4.12 39.416 0.117 7.47 0.5 12.42
12/29/2021 5:45:00 AM 4.07 39.326 0.116 7.5 0.52 12.59
12/29/2021 6:00:00 AM 4.17 39.506 0.116 7.48 0.54 12.42
12/29/2021 6:15:00 AM 4.14 39.452 0.116 7.48 0.51 12.47
12/29/2021 6:30:00 AM 4.11 39.398 0.115 7.45 0.54 12.47
12/29/2021 6:45:00 AM 4.12 39.416 0.115 7.49 0.49 12.55
12/29/2021 7:00:00 AM 4.13 39.434 0.115 7.5 0.49 12.5
12/29/2021 7:15:00 AM 4.18 39.524 0.115 7.47 0.51 12.47
12/29/2021 7:30:00 AM 4.14 39.452 0.114 7.48 0.49 12.55
12/29/2021 7:45:00 AM 4.18 39.524 0.114 7.47 0.65 12.48
12/29/2021 8:00:00 AM 4.16 39.488 0.114 7.49 0.44 12.52
12/29/2021 8:15:00 AM 4.24 39.632 0.114 7.45 0.5 12.5
12/29/2021 8:30:00 AM 4.28 39.704 0.114 7.45 0.5 12.4
12/29/2021 8:45:00 AM 4.24 39.632 0.113 7.5 0.49 12.59
12/29/2021 9:00:00 AM 4.25 39.65 0.113 7.51 0.49 12.65
12/29/2021 9:15:00 AM 4.34 39.812 0.113 7.53 0.53 12.03
12/29/2021 9:30:00 AM 4.3 39.74 0.113 7.54 0.51 12.82
12/29/2021 9:45:00 AM 4.34 39.812 0.113 7.54 0.46 12.91
12/29/2021 10:00:00 AM 4.4 39.92 0.112 7.54 0.5 12.92
12/29/2021 10:15:00 AM 4.44 39.992 0.112 7.6 0.55 12.98
12/29/2021 10:30:00 AM 4.47 40.046 0.112 7.67 0.55 13.12
12/29/2021 10:45:00 AM 4.53 40.154 0.112 7.68 0.44 13.16
12/29/2021 11:00:00 AM 4.59 40.262 0.111 7.7 0.56 13.21
12/29/2021 11:15:00 AM 4.69 40.442 0.111 7.67 0.54 13.2
12/29/2021 11:30:00 AM 4.78 40.604 0.111 7.78 0.51 13.21
12/29/2021 11:45:00 AM 4.86 40.748 0.111 7.77 0.48 13.22
12/29/2021 12:00:00 PM 4.95 40.91 0.11 7.75 0.54 13.22
12/29/2021 12:15:00 PM 5.02 41.036 0.11 7.75 0.45 13.01
12/29/2021 12:30:00 PM 5.05 41.09 0.11 7.79 0.43 13.11
12/29/2021 12:45:00 PM 5.11 41.198 0.11 7.71 0.52 13.04
12/29/2021 1:00:00 PM 5.11 41.198 0.11 7.84 0.52 13.03
12/29/2021 1:15:00 PM 5.16 41.288 0.11 7.79 0.44 12.99
12/29/2021 1:30:00 PM 5.24 41.432 0.11 7.74 0.49 12.96
12/29/2021 1:45:00 PM 5.34 41.612 0.11 7.72 0.56 12.81
12/29/2021 2:00:00 PM 5.36 41.648 0.11 7.71 0.52 12.86
12/29/2021 2:15:00 PM 5.42 41.756 0.109 7.71 0.51 12.62
12/29/2021 2:30:00 PM 5.47 41.846 0.109 7.77 0.47 12.92
12/29/2021 2:45:00 PM 5.5 41.9 0.11 7.78 0.51 12.81
12/29/2021 3:00:00 PM 5.53 41.954 0.109 7.74 0.59 12.82
12/29/2021 3:15:00 PM 5.54 41.972 0.109 7.75 0.51 12.76
12/29/2021 3:30:00 PM 5.6 42.08 0.11 7.68 0.53 12.67
12/29/2021 3:45:00 PM 5.6 42.08 0.11 7.68 0.48 12.6
12/29/2021 4:00:00 PM 5.6 42.08 0.11 7.66 0.51 12.53
12/29/2021 4:15:00 PM 5.59 42.062 0.11 7.67 0.57 12.52
12/29/2021 4:30:00 PM 5.62 42.116 0.111 7.58 0.5 12.31
12/29/2021 4:45:00 PM 5.55 41.99 0.11 7.58 0.45 12.26
12/29/2021 5:00:00 PM 5.56 42.008 0.111 7.57 0.55 12.21
12/29/2021 5:15:00 PM 5.56 42.008 0.111 7.5 0.43 12.08
12/29/2021 5:30:00 PM 5.51 41.918 0.111 7.56 0.46 12.13
12/29/2021 5:45:00 PM 5.52 41.936 0.111 7.55 0.58 12.13
12/29/2021 6:00:00 PM 5.5 41.9 0.112 7.51 0.47 12.05
12/29/2021 6:15:00 PM 5.45 41.81 0.112 7.55 0.44 12.14
12/29/2021 6:30:00 PM 5.51 41.918 0.112 7.47 0.51 12.06
12/29/2021 6:45:00 PM 5.53 41.954 0.112 7.48 0.55 11.99
12/29/2021 7:00:00 PM 5.48 41.864 0.112 7.37 0.46 11.99
12/29/2021 7:15:00 PM 5.4 41.72 0.112 7.51 0.49 12.15
12/29/2021 7:30:00 PM 5.38 41.684 0.112 7.53 0.46 12.13
12/29/2021 7:45:00 PM 5.48 41.864 0.113 7.46 0.44 11.92
12/29/2021 8:00:00 PM 5.37 41.666 0.112 7.52 0.45 12.14
12/29/2021 8:15:00 PM 5.4 41.72 0.112 7.5 0.45 12.11
12/29/2021 8:30:00 PM 5.41 41.738 0.113 7.48 0.43 12.09
12/29/2021 8:45:00 PM 5.38 41.684 0.113 7.48 0.42 12.17
12/29/2021 9:00:00 PM 5.43 41.774 0.113 7.44 0.43 12.11
12/29/2021 9:15:00 PM 5.54 41.972 0.113 7.4 0.39 11.89
12/29/2021 9:30:00 PM 5.36 41.648 0.113 7.51 0.39 12.23
12/29/2021 9:45:00 PM 5.4 41.72 0.113 7.4 0.43 12.11
12/29/2021 10:00:00 PM 5.36 41.648 0.113 7.41 0.41 12.04
12/29/2021 10:15:00 PM 5.38 41.684 0.113 7.44 0.41 12.09
12/29/2021 10:30:00 PM 5.4 41.72 0.113 7.39 0.4 11.95
12/29/2021 10:45:00 PM 5.34 41.612 0.113 7.48 0.41 12.11
12/29/2021 11:00:00 PM 5.34 41.612 0.113 7.47 0.49 12.19
12/29/2021 11:15:00 PM 5.35 41.63 0.114 7.49 0.49 12.12
12/29/2021 11:30:00 PM 5.37 41.666 0.113 7.42 0.38 12.15
12/29/2021 11:45:00 PM 5.3 41.54 0.113 7.45 0.39 12.14
12/30/2021 12:00:00 AM 5.34 41.612 0.113 7.45 0.41 12.04
12/30/2021 12:15:00 AM 5.3 41.54 0.113 7.44 0.4 12.08
12/30/2021 12:30:00 AM 5.34 41.612 0.113 7.45 0.41 12.13
12/30/2021 12:45:00 AM 5.34 41.612 0.113 7.45 0.39 12.11
12/30/2021 1:00:00 AM 5.29 41.522 0.113 7.43 0.4 11.98
12/30/2021 1:15:00 AM 5.34 41.612 0.113 7.43 0.4 12.1
12/30/2021 1:30:00 AM 5.28 41.504 0.113 7.48 0.4 12.12
12/30/2021 1:45:00 AM 5.26 41.468 0.113 7.5 0.38 12.18
12/30/2021 2:00:00 AM 5.27 41.486 0.113 7.49 0.37 12.14
12/30/2021 2:15:00 AM 5.24 41.432 0.113 7.47 0.4 12.2
12/30/2021 2:30:00 AM 5.27 41.486 0.113 7.47 0.42 12.15
12/30/2021 2:45:00 AM 5.35 41.63 0.113 7.44 0.41 12.15
12/30/2021 3:00:00 AM 5.27 41.486 0.113 7.43 0.36 12.11
12/30/2021 3:15:00 AM 5.31 41.558 0.113 7.4 0.39 12.06
12/30/2021 3:30:00 AM 5.25 41.45 0.113 7.46 0.39 12.14
12/30/2021 3:45:00 AM 5.2 41.36 0.113 7.5 0.4 12.19
12/30/2021 4:00:00 AM 5.26 41.468 0.113 7.43 0.37 12.08
12/30/2021 4:15:00 AM 5.19 41.342 0.113 7.5 0.35 12.21
12/30/2021 4:30:00 AM 5.24 41.432 0.113 7.44 0.42 12.12
12/30/2021 4:45:00 AM 5.33 41.594 0.113 7.43 0.39 11.95
12/30/2021 5:00:00 AM 5.17 41.306 0.112 7.5 0.37 12.23
12/30/2021 5:15:00 AM 5.22 41.396 0.113 7.49 0.38 12.14
12/30/2021 5:30:00 AM 5.21 41.378 0.113 7.47 0.47 12.18
12/30/2021 5:45:00 AM 5.29 41.522 0.113 7.4 0.52 11.89
12/30/2021 6:00:00 AM 5.2 41.36 0.113 7.51 0.52 12.21
12/30/2021 6:15:00 AM 5.21 41.378 0.112 7.52 0.55 12.22
12/30/2021 6:30:00 AM 5.19 41.342 0.112 7.47 0.51 12.17
12/30/2021 6:45:00 AM 5.21 41.378 0.113 7.51 0.45 12.31
12/30/2021 7:00:00 AM 5.24 41.432 0.112 7.5 0.56 12.17
12/30/2021 7:15:00 AM 5.27 41.486 0.112 7.4 0.46 11.84
12/30/2021 7:30:00 AM 5.23 41.414 0.112 7.46 0.4 12.12
12/30/2021 7:45:00 AM 5.23 41.414 0.112 7.44 0.44 12.15
12/30/2021 8:00:00 AM 5.23 41.414 0.112 7.37 0.53 12.15
12/30/2021 8:15:00 AM 5.23 41.414 0.112 7.51 0.46 12.24
12/30/2021 8:30:00 AM 5.25 41.45 0.112 7.48 0.43 12.22
12/30/2021 8:45:00 AM 5.22 41.396 0.111 7.49 0.4 12.26
12/30/2021 9:00:00 AM 5.26 41.468 0.111 7.51 0.41 12.31
12/30/2021 9:15:00 AM 5.27 41.486 0.112 7.52 0.37 12.39
12/30/2021 9:30:00 AM 5.26 41.468 0.112 7.5 0.48 12.36
12/30/2021 9:45:00 AM 5.24 41.432 0.112 7.53 0.47 12.47
12/30/2021 10:00:00 AM 5.31 41.558 0.112 7.57 0.47 12.5
12/30/2021 10:15:00 AM 5.34 41.612 0.112 7.54 0.44 12.51
12/30/2021 10:30:00 AM 5.38 41.684 0.112 7.59 0.51 12.63
12/30/2021 10:45:00 AM 5.38 41.684 0.111 7.56 0.42 12.7
12/30/2021 11:00:00 AM 5.53 41.954 0.111 7.48 0.45 12.57
12/30/2021 11:15:00 AM 5.58 42.044 0.111 7.5 0.45 12.58
12/30/2021 11:30:00 AM 5.55 41.99 0.111 7.62 0.46 12.72
12/30/2021 11:45:00 AM 5.59 42.062 0.111 7.6 0.49 12.75
12/30/2021 12:00:00 PM 5.6 42.08 0.11 7.64 0.53 12.78
12/30/2021 12:15:00 PM 5.58 42.044 0.11 7.68 0.5 12.75
12/30/2021 12:30:00 PM 5.76 42.368 0.11 7.58 0.52 12.42
12/30/2021 12:45:00 PM 5.73 42.314 0.11 7.59 0.54 12.53
12/30/2021 1:00:00 PM 5.86 42.548 0.11 7.55 0.84 12.48
12/30/2021 1:15:00 PM 5.8 42.44 0.11 7.64 0.46 12.69
12/30/2021 1:30:00 PM 5.83 42.494 0.11 7.7 0.48 12.8
12/30/2021 1:45:00 PM 5.9 42.62 0.11 7.61 0.48 12.75
12/30/2021 2:00:00 PM 6.03 42.854 0.11 7.56 0.44 12.31
12/30/2021 2:15:00 PM 5.94 42.692 0.11 7.71 0.45 12.66
12/30/2021 2:30:00 PM 6.04 42.872 0.11 7.67 0.48 12.57
12/30/2021 2:45:00 PM 5.98 42.764 0.11 7.64 0.54 12.51
12/30/2021 3:00:00 PM 6 42.8 0.11 7.67 0.55 12.5
12/30/2021 3:15:00 PM 6.05 42.89 0.111 7.61 0.46 12.35
12/30/2021 3:30:00 PM 6.11 42.998 0.111 7.55 0.51 12.14
12/30/2021 3:45:00 PM 6.06 42.908 0.111 7.6 0.53 12.22
12/30/2021 4:00:00 PM 6.06 42.908 0.111 7.56 0.51 12.15
12/30/2021 4:15:00 PM 6.08 42.944 0.112 7.54 0.49 12.1
12/30/2021 4:30:00 PM 6.07 42.926 0.112 7.49 0.48 11.97
12/30/2021 4:45:00 PM 6.02 42.836 0.112 7.55 0.47 12.02
12/30/2021 5:00:00 PM 6.03 42.854 0.112 7.52 0.52 11.97
12/30/2021 5:15:00 PM 5.98 42.764 0.112 7.52 0.49 11.99
12/30/2021 5:30:00 PM 6.03 42.854 0.112 7.45 0.45 11.88
12/30/2021 5:45:00 PM 5.97 42.746 0.112 7.51 0.45 11.92
12/30/2021 6:00:00 PM 5.96 42.728 0.113 7.5 0.41 11.92
12/30/2021 6:15:00 PM 6 42.8 0.113 7.42 0.53 11.86
12/30/2021 6:30:00 PM 5.97 42.746 0.113 7.41 0.45 11.85
12/30/2021 6:45:00 PM 5.89 42.602 0.113 7.5 0.46 11.97
12/30/2021 7:00:00 PM 5.89 42.602 0.113 7.47 0.43 11.91
12/30/2021 7:15:00 PM 5.87 42.566 0.113 7.45 0.49 11.83
12/30/2021 7:30:00 PM 5.83 42.494 0.113 7.43 0.48 11.98
12/30/2021 7:45:00 PM 5.78 42.404 0.113 7.52 0.47 11.99
12/30/2021 8:00:00 PM 5.78 42.404 0.113 7.5 0.41 11.98
12/30/2021 8:15:00 PM 5.94 42.692 0.113 7.4 0.45 11.71
12/30/2021 8:30:00 PM 5.77 42.386 0.113 7.43 0.46 11.96
12/30/2021 8:45:00 PM 5.7 42.26 0.113 7.5 0.4 12.01
12/30/2021 9:00:00 PM 5.71 42.278 0.113 7.46 0.45 11.94
12/30/2021 9:15:00 PM 5.71 42.278 0.113 7.45 0.43 11.95
12/30/2021 9:30:00 PM 5.73 42.314 0.113 7.44 0.41 11.97
12/30/2021 9:45:00 PM 5.64 42.152 0.113 7.48 0.39 12.02
12/30/2021 10:00:00 PM 5.64 42.152 0.113 7.43 0.5 11.98
12/30/2021 10:15:00 PM 5.74 42.332 0.112 7.42 0.47 11.98
12/30/2021 10:30:00 PM 5.66 42.188 0.113 7.44 0.46 11.96
12/30/2021 10:45:00 PM 5.64 42.152 0.113 7.42 0.45 11.95
12/30/2021 11:00:00 PM 5.6 42.08 0.113 7.48 0.43 12.03
12/30/2021 11:15:00 PM 5.6 42.08 0.113 7.43 0.45 12.02
12/30/2021 11:30:00 PM 5.57 42.026 0.113 7.47 0.43 12.07
12/30/2021 11:45:00 PM 5.55 41.99 0.113 7.49 0.45 12.05
12/31/2021 12:00:00 AM 5.52 41.936 0.113 7.48 0.46 12.06
12/31/2021 12:15:00 AM 5.52 41.936 0.112 7.45 0.41 11.95
12/31/2021 12:30:00 AM 5.54 41.972 0.113 7.46 0.43 12.04
12/31/2021 12:45:00 AM 5.54 41.972 0.113 7.43 0.39 11.94
12/31/2021 1:00:00 AM 5.54 41.972 0.113 7.4 0.42 11.98
12/31/2021 1:15:00 AM 5.5 41.9 0.112 7.45 0.43 12.03
12/31/2021 1:30:00 AM 5.48 41.864 0.113 7.45 0.49 12.09
12/31/2021 1:45:00 AM 5.48 41.864 0.113 7.5 0.52 12.09
12/31/2021 2:00:00 AM 5.45 41.81 0.113 7.47 0.54 12.06
12/31/2021 2:15:00 AM 5.47 41.846 0.113 7.44 0.58 12.08
12/31/2021 2:30:00 AM 5.44 41.792 0.113 7.46 0.45 12.07
12/31/2021 2:45:00 AM 5.44 41.792 0.113 7.47 0.46 12.11
12/31/2021 3:00:00 AM 5.45 41.81 0.113 7.47 0.36 12.09
12/31/2021 3:15:00 AM 5.45 41.81 0.113 7.46 0.41 12.07
12/31/2021 3:30:00 AM 5.45 41.81 0.113 7.44 0.4 12.02
12/31/2021 3:45:00 AM 5.42 41.756 0.112 7.47 0.42 12.1
12/31/2021 4:00:00 AM 5.41 41.738 0.112 7.48 0.49 12.1
12/31/2021 4:15:00 AM 5.36 41.648 0.112 7.48 0.46 12.16
12/31/2021 4:30:00 AM 5.5 41.9 0.113 7.38 0.42 11.95
12/31/2021 4:45:00 AM 5.47 41.846 0.113 7.38 0.43 11.99
12/31/2021 5:00:00 AM 5.42 41.756 0.113 7.45 0.4 12.07
12/31/2021 5:15:00 AM 5.46 41.828 0.113 7.41 0.41 11.99
12/31/2021 5:30:00 AM 5.42 41.756 0.113 7.38 0.44 12.07
12/31/2021 5:45:00 AM 5.41 41.738 0.113 7.43 0.42 12.08
12/31/2021 6:00:00 AM 5.37 41.666 0.113 7.47 0.43 12.1
12/31/2021 6:15:00 AM 5.41 41.738 0.113 7.43 0.43 12.03
12/31/2021 6:30:00 AM 5.44 41.792 0.113 7.41 0.37 12.02
12/31/2021 6:45:00 AM 5.4 41.72 0.113 7.44 0.35 12.06
12/31/2021 7:00:00 AM 5.4 41.72 0.112 7.4 0.62 12.05
12/31/2021 7:15:00 AM 5.33 41.594 0.112 7.45 0.55 12.09
12/31/2021 7:30:00 AM 5.39 41.702 0.112 7.42 0.48 12.03
12/31/2021 7:45:00 AM 5.53 41.954 0.113 7.35 0.47 11.89
12/31/2021 8:00:00 AM 5.35 41.63 0.112 7.46 0.48 12.17
12/31/2021 8:15:00 AM 5.37 41.666 0.112 7.42 0.52 12.04
12/31/2021 8:30:00 AM 5.36 41.648 0.112 7.49 0.47 12.31
12/31/2021 8:45:00 AM 5.33 41.594 0.112 7.51 0.45 12.3
12/31/2021 9:00:00 AM 5.45 41.81 0.112 7.5 0.49 12.48
12/31/2021 9:15:00 AM 5.49 41.882 0.112 7.36 0.46 12.54
12/31/2021 9:30:00 AM 5.52 41.936 0.112 7.53 0.48 12.56
12/31/2021 9:45:00 AM 5.52 41.936 0.111 7.58 0.51 12.73
12/31/2021 10:00:00 AM 5.53 41.954 0.111 7.64 0.43 12.8
12/31/2021 10:15:00 AM 5.6 42.08 0.111 7.61 0.43 12.8
12/31/2021 10:30:00 AM 5.63 42.134 0.111 7.64 0.51 12.76
12/31/2021 10:45:00 AM 5.73 42.314 0.111 7.58 0.51 12.78
12/31/2021 11:00:00 AM 5.94 42.692 0.111 7.44 0.56 12.68
12/31/2021 11:15:00 AM 5.95 42.71 0.11 7.63 0.65 12.87
12/31/2021 11:30:00 AM 6.01 42.818 0.11 7.64 0.49 12.86
12/31/2021 11:45:00 AM 6.1 42.98 0.11 7.62 0.44 12.74
12/31/2021 12:00:00 PM 6.14 43.052 0.11 7.67 0.49 12.78
12/31/2021 12:15:00 PM 6.23 43.214 0.11 7.62 0.49 12.48
12/31/2021 12:30:00 PM 6.44 43.592 0.11 7.54 0.48 12.56
12/31/2021 12:45:00 PM 6.35 43.43 0.11 7.74 0.5 12.76
12/31/2021 1:00:00 PM 6.52 43.736 0.109 7.61 0.78 12.63
12/31/2021 1:15:00 PM 6.59 43.862 0.109 7.8 0.45 12.73
12/31/2021 1:30:00 PM 6.67 44.006 0.109 7.81 0.51 12.69
12/31/2021 1:45:00 PM 6.75 44.15 0.109 7.83 0.52 12.67
12/31/2021 2:00:00 PM 6.86 44.348 0.109 7.61 0.52 12.52
12/31/2021 2:15:00 PM 6.89 44.402 0.109 7.75 0.49 12.53
12/31/2021 2:30:00 PM 6.93 44.474 0.109 7.75 0.55 12.51
12/31/2021 2:45:00 PM 6.99 44.582 0.109 7.64 0.51 12.39
12/31/2021 3:00:00 PM 6.99 44.582 0.109 7.77 0.46 12.41
12/31/2021 3:15:00 PM 6.99 44.582 0.109 7.67 0.56 12.33
12/31/2021 3:30:00 PM 6.99 44.582 0.11 7.72 0.51 12.28
12/31/2021 3:45:00 PM 6.99 44.582 0.11 7.69 0.48 12.11
12/31/2021 4:00:00 PM 6.95 44.51 0.11 7.63 0.53 12.05
12/31/2021 4:15:00 PM 6.91 44.438 0.11 7.65 0.64 12.01
12/31/2021 4:30:00 PM 6.92 44.456 0.11 7.51 0.51 11.79
12/31/2021 4:45:00 PM 6.85 44.33 0.11 7.55 0.62 11.77
12/31/2021 5:00:00 PM 6.91 44.438 0.111 7.49 0.83 11.3
12/31/2021 5:15:00 PM 6.8 44.24 0.111 7.49 0.53 11.69
12/31/2021 5:30:00 PM 6.73 44.114 0.111 7.5 0.74 11.73
12/31/2021 5:45:00 PM 6.71 44.078 0.112 7.52 0.54 11.75
12/31/2021 6:00:00 PM 6.67 44.006 0.111 7.46 0.54 11.69
12/31/2021 6:15:00 PM 6.61 43.898 0.112 7.49 0.43 11.69
12/31/2021 6:30:00 PM 6.68 44.024 0.112 7.41 0.54 11.5
12/31/2021 6:45:00 PM 6.53 43.754 0.112 7.5 0.51 11.7
12/31/2021 7:00:00 PM 6.49 43.682 0.112 7.47 0.56 11.76
12/31/2021 7:15:00 PM 6.48 43.664 0.113 7.43 0.6 11.6
12/31/2021 7:30:00 PM 6.44 43.592 0.113 7.47 0.59 11.73
12/31/2021 7:45:00 PM 6.4 43.52 0.113 7.48 0.59 11.73
12/31/2021 8:00:00 PM 6.37 43.466 0.113 7.49 0.54 11.74
12/31/2021 8:15:00 PM 6.42 43.556 0.113 7.33 0.51 11.53
12/31/2021 8:30:00 PM 6.33 43.394 0.113 7.47 0.54 11.82
12/31/2021 8:45:00 PM 6.33 43.394 0.113 7.51 0.55 11.85
12/31/2021 9:00:00 PM 6.33 43.394 0.113 7.45 0.48 11.75
12/31/2021 9:15:00 PM 6.38 43.484 0.114 7.45 0.49 11.7
12/31/2021 9:30:00 PM 6.35 43.43 0.113 7.39 0.49 11.66
12/31/2021 9:45:00 PM 6.33 43.394 0.113 7.49 0.48 11.82
12/31/2021 10:00:00 PM 6.36 43.448 0.113 7.43 0.45 11.63
12/31/2021 10:15:00 PM 6.33 43.394 0.113 7.5 0.47 11.82
12/31/2021 10:30:00 PM 6.4 43.52 0.114 7.3 0.43 11.71
12/31/2021 10:45:00 PM 6.33 43.394 0.113 7.51 0.48 11.83
12/31/2021 11:00:00 PM 6.34 43.412 0.113 7.48 0.49 11.79
12/31/2021 11:15:00 PM 6.41 43.538 0.113 7.38 0.46 11.64
12/31/2021 11:30:00 PM 6.42 43.556 0.113 7.34 0.42 11.69
12/31/2021 11:45:00 PM 6.46 43.628 0.114 7.43 0.44 11.71
1/1/2022 12:00:00 AM 6.4 43.52 0.113 7.42 0.42 11.66
1/1/2022 12:15:00 AM 6.4 43.52 0.113 7.43 0.44 11.62
1/1/2022 12:30:00 AM 6.5 43.7 0.113 7.39 0.45 11.66
1/1/2022 12:45:00 AM 6.39 43.502 0.113 7.45 0.42 11.75
1/1/2022 1:00:00 AM 6.36 43.448 0.113 7.52 0.36 11.82
1/1/2022 1:15:00 AM 6.43 43.574 0.113 7.45 0.44 11.71
1/1/2022 1:30:00 AM 6.37 43.466 0.113 7.5 0.37 11.74
1/1/2022 1:45:00 AM 6.47 43.646 0.114 7.36 0.42 11.59
1/1/2022 2:00:00 AM 6.54 43.772 0.114 7.4 0.39 11.67
1/1/2022 2:15:00 AM 6.49 43.682 0.113 7.42 0.39 11.49
1/1/2022 2:30:00 AM 6.41 43.538 0.113 7.5 0.4 11.77
1/1/2022 2:45:00 AM 6.44 43.592 0.113 7.47 0.42 11.7
1/1/2022 3:00:00 AM 6.46 43.628 0.113 7.45 0.44 11.64
1/1/2022 3:15:00 AM 6.51 43.718 0.113 7.45 0.42 11.59
1/1/2022 3:30:00 AM 6.52 43.736 0.113 7.38 0.48 11.48
1/1/2022 3:45:00 AM 6.44 43.592 0.113 7.51 0.44 11.72
1/1/2022 4:00:00 AM 6.44 43.592 0.113 7.47 0.41 11.73
1/1/2022 4:15:00 AM 6.53 43.754 0.113 7.37 0.4 11.57
1/1/2022 4:30:00 AM 6.5 43.7 0.113 7.44 0.41 11.66
1/1/2022 4:45:00 AM 6.47 43.646 0.113 7.45 0.42 11.67
1/1/2022 5:00:00 AM 6.55 43.79 0.114 7.43 0.44 11.53
1/1/2022 5:15:00 AM 6.53 43.754 0.113 7.42 0.43 11.57
1/1/2022 5:30:00 AM 6.46 43.628 0.113 7.46 0.45 11.71
1/1/2022 5:45:00 AM 6.47 43.646 0.113 7.48 0.37 11.74
1/1/2022 6:00:00 AM 6.44 43.592 0.113 7.5 0.42 11.73
1/1/2022 6:15:00 AM 6.53 43.754 0.113 7.37 0.36 11.34
1/1/2022 6:30:00 AM 6.49 43.682 0.113 7.44 0.49 11.68
1/1/2022 6:45:00 AM 6.49 43.682 0.113 7.44 0.72 11.66
1/1/2022 7:00:00 AM 6.52 43.736 0.113 7.38 0.5 11.35
1/1/2022 7:15:00 AM 6.49 43.682 0.113 7.44 0.39 11.59
1/1/2022 7:30:00 AM 6.48 43.664 0.113 7.45 0.43 11.63
1/1/2022 7:45:00 AM 6.41 43.538 0.113 7.47 0.37 11.75
1/1/2022 8:00:00 AM 6.47 43.646 0.113 7.47 0.37 11.72
1/1/2022 8:15:00 AM 6.45 43.61 0.113 7.47 0.42 11.81
1/1/2022 8:30:00 AM 6.49 43.682 0.113 7.45 0.34 11.73
1/1/2022 8:45:00 AM 6.49 43.682 0.113 7.48 0.38 11.86
1/1/2022 9:00:00 AM 6.5 43.7 0.113 7.5 0.4 11.9
1/1/2022 9:15:00 AM 6.56 43.808 0.112 7.48 0.37 11.91
1/1/2022 9:30:00 AM 6.57 43.826 0.112 7.53 0.4 11.97
1/1/2022 9:45:00 AM 6.58 43.844 0.112 7.49 0.36 12
1/1/2022 10:00:00 AM 6.68 44.024 0.112 7.52 0.46 11.79
1/1/2022 10:15:00 AM 6.64 43.952 0.112 7.57 0.36 12.16
1/1/2022 10:30:00 AM 6.98 44.564 0.113 7.43 0.45 12.19
1/1/2022 10:45:00 AM 6.79 44.222 0.112 7.59 0.35 12.24
1/1/2022 11:00:00 AM 6.84 44.312 0.112 7.34 0.37 12.15
1/1/2022 11:15:00 AM 6.86 44.348 0.112 7.55 0.48 11.97
1/1/2022 11:30:00 AM 6.91 44.438 0.111 7.46 0.4 12.2
1/1/2022 11:45:00 AM 6.92 44.456 0.111 7.68 0.47 12.25
1/1/2022 12:00:00 PM 7.1 44.78 0.112 7.43 0.45 12.1
1/1/2022 12:15:00 PM 7.19 44.942 0.112 7.44 0.49 11.7
1/1/2022 12:30:00 PM 7.06 44.708 0.111 7.65 0.43 12.24
1/1/2022 12:45:00 PM 7.17 44.906 0.111 7.34 0.37 12.17
1/1/2022 1:00:00 PM 7.23 45.014 0.111 7.52 0.4 12.04
1/1/2022 1:15:00 PM 7.2 44.96 0.111 7.7 0.43 12.24
1/1/2022 1:30:00 PM 7.28 45.104 0.111 7.63 0.43 12.09
1/1/2022 1:45:00 PM 7.34 45.212 0.111 7.53 0.7 11.97
1/1/2022 2:00:00 PM 7.42 45.356 0.111 7.61 0.37 12.1
1/1/2022 2:15:00 PM 7.4 45.32 0.11 7.67 0.48 12.12
1/1/2022 2:30:00 PM 7.41 45.338 0.11 7.71 0.41 12.1
1/1/2022 2:45:00 PM 7.44 45.392 0.11 7.51 0.42 12.05
1/1/2022 3:00:00 PM 7.44 45.392 0.111 7.67 0.42 12
1/1/2022 3:15:00 PM 7.43 45.374 0.111 7.63 0.39 11.85
1/1/2022 3:30:00 PM 7.45 45.41 0.111 7.57 0.36 11.74
1/1/2022 3:45:00 PM 7.43 45.374 0.111 7.53 0.37 11.68
1/1/2022 4:00:00 PM 7.43 45.374 0.111 7.63 0.43 11.71
1/1/2022 4:15:00 PM 7.44 45.392 0.112 7.57 0.4 11.5
1/1/2022 4:30:00 PM 7.53 45.554 0.113 7.51 0.41 11.48
1/1/2022 4:45:00 PM 7.38 45.284 0.112 7.57 0.49 11.56
1/1/2022 5:00:00 PM 7.37 45.266 0.112 7.55 0.43 11.5
1/1/2022 5:15:00 PM 7.36 45.248 0.112 7.46 0.5 11.43
1/1/2022 5:30:00 PM 7.31 45.158 0.113 7.55 0.46 11.46
1/1/2022 5:45:00 PM 7.31 45.158 0.113 7.49 0.5 11.41
1/1/2022 6:00:00 PM 7.31 45.158 0.113 7.39 0.44 11.23
1/1/2022 6:15:00 PM 7.24 45.032 0.113 7.52 0.44 11.46
1/1/2022 6:30:00 PM 7.24 45.032 0.113 7.4 0.41 11.38
1/1/2022 6:45:00 PM 7.19 44.942 0.113 7.52 0.41 11.51
1/1/2022 7:00:00 PM 7.25 45.05 0.114 7.42 0.41 11.36
1/1/2022 7:15:00 PM 7.18 44.924 0.114 7.45 0.46 11.39
1/1/2022 7:30:00 PM 7.12 44.816 0.113 7.52 0.36 11.55
1/1/2022 7:45:00 PM 7.08 44.744 0.113 7.52 0.49 11.52
1/1/2022 8:00:00 PM 7.12 44.816 0.113 7.46 0.39 11.47
1/1/2022 8:15:00 PM 7.06 44.708 0.113 7.48 0.46 11.51
1/1/2022 8:30:00 PM 7.1 44.78 0.113 7.46 0.49 11.46
1/1/2022 8:45:00 PM 7.06 44.708 0.113 7.47 0.44 11.47
1/1/2022 9:00:00 PM 7.09 44.762 0.113 7.46 0.48 11.47
1/1/2022 9:15:00 PM 7.06 44.708 0.113 7.42 0.52 11.41
1/1/2022 9:30:00 PM 7.08 44.744 0.113 7.39 0.54 11.33
1/1/2022 9:45:00 PM 7.11 44.798 0.114 7.34 0.51 11.38
1/1/2022 10:00:00 PM 7.04 44.672 0.114 7.43 0.57 11.46
1/1/2022 10:15:00 PM 7.05 44.69 0.114 7.45 0.63 11.46
1/1/2022 10:30:00 PM 7.11 44.798 0.114 7.42 0.52 11.33
1/1/2022 10:45:00 PM 7.05 44.69 0.113 7.46 0.49 11.44
1/1/2022 11:00:00 PM 7.08 44.744 0.113 7.45 0.5 11.43
1/1/2022 11:15:00 PM 7.08 44.744 0.113 7.42 0.5 11.27
1/1/2022 11:30:00 PM 7.11 44.798 0.113 7.36 0.56 11.19
1/1/2022 11:45:00 PM 7.03 44.654 0.113 7.48 0.53 11.46
1/2/2022 12:00:00 AM 7.06 44.708 0.113 7.47 0.56 11.45
1/2/2022 12:15:00 AM 7.08 44.744 0.113 7.42 0.59 11.38
1/2/2022 12:30:00 AM 7.1 44.78 0.114 7.46 0.56 11.36
1/2/2022 12:45:00 AM 7.05 44.69 0.113 7.46 0.62 11.51
1/2/2022 1:00:00 AM 7.09 44.762 0.113 7.46 0.81 11.45
1/2/2022 1:15:00 AM 7.1 44.78 0.113 7.43 0.78 11.42
1/2/2022 1:30:00 AM 7.08 44.744 0.113 7.34 0.81 11.26
1/2/2022 1:45:00 AM 7.08 44.744 0.113 7.33 0.76 11.14
1/2/2022 2:00:00 AM 6.96 44.528 0.113 7.46 0.66 11.5
1/2/2022 2:15:00 AM 6.95 44.51 0.113 7.46 0.75 11.39
1/2/2022 2:30:00 AM 6.92 44.456 0.113 7.47 0.67 11.39
1/2/2022 2:45:00 AM 6.87 44.366 0.113 7.42 0.75 11.47
1/2/2022 3:00:00 AM 6.79 44.222 0.114 7.44 0.91 11.56
1/2/2022 3:15:00 AM 6.78 44.204 0.114 7.47 0.85 11.47
1/2/2022 3:30:00 AM 6.74 44.132 0.115 7.45 0.98 11.54
1/2/2022 3:45:00 AM 6.7 44.06 0.115 7.49 1.18 11.56
1/2/2022 4:00:00 AM 6.81 44.258 0.115 7.42 1.5 11.37
1/2/2022 4:15:00 AM 6.73 44.114 0.115 7.44 1.29 11.51
1/2/2022 4:30:00 AM 6.59 43.862 0.114 7.44 1.5 11.62
1/2/2022 4:45:00 AM 6.67 44.006 0.114 7.42 1.59 11.32
1/2/2022 5:00:00 AM 6.58 43.844 0.114 7.42 1.7 11.53
1/2/2022 5:15:00 AM 6.6 43.88 0.114 7.33 1.34 11.38
1/2/2022 5:30:00 AM 6.53 43.754 0.114 7.45 1.37 11.59
1/2/2022 5:45:00 AM 6.49 43.682 0.113 7.45 1.2 11.56
1/2/2022 6:00:00 AM 6.52 43.736 0.113 7.45 1.22 11.45
1/2/2022 6:15:00 AM 6.42 43.556 0.113 7.43 1.28 11.64
1/2/2022 6:30:00 AM 6.37 43.466 0.113 7.46 1.07 11.63
1/2/2022 6:45:00 AM 6.34 43.412 0.113 7.47 1.07 11.68
1/2/2022 7:00:00 AM 6.25 43.25 0.112 7.47 1.11 11.7
1/2/2022 7:15:00 AM 6.26 43.268 0.113 7.45 1.07 11.68
1/2/2022 7:30:00 AM 6.21 43.178 0.112 7.46 1.12 11.71
1/2/2022 7:45:00 AM 6.19 43.142 0.113 7.42 1.06 11.69
1/2/2022 8:00:00 AM 6.16 43.088 0.112 7.39 0.98 11.73
1/2/2022 8:15:00 AM 6.26 43.268 0.113 7.39 1.06 11.41
1/2/2022 8:30:00 AM 6.13 43.034 0.112 7.41 1.2 11.6
1/2/2022 8:45:00 AM 6.05 42.89 0.112 7.44 1.07 11.76
1/2/2022 9:00:00 AM 6.05 42.89 0.113 7.49 1.06 11.88
1/2/2022 9:15:00 AM 5.99 42.782 0.112 7.47 1.09 11.99
1/2/2022 9:30:00 AM 5.99 42.782 0.112 7.52 1.04 12.02
1/2/2022 9:45:00 AM 5.92 42.656 0.112 7.53 1.14 12.13
1/2/2022 10:00:00 AM 6.01 42.818 0.112 7.41 1.13 12.1
1/2/2022 10:15:00 AM 5.94 42.692 0.111 7.61 1.21 12.26
1/2/2022 10:30:00 AM 6.1 42.98 0.111 7.58 1.23 12.33
1/2/2022 10:45:00 AM 6.02 42.836 0.112 7.52 1.05 12.35
1/2/2022 11:00:00 AM 5.88 42.584 0.111 7.62 1.22 12.44
1/2/2022 11:15:00 AM 5.87 42.566 0.111 7.61 1.13 12.45
1/2/2022 11:30:00 AM 5.97 42.746 0.111 7.58 1.08 12.17
1/2/2022 11:45:00 AM 5.78 42.404 0.11 7.5 1.13 12.34
1/2/2022 12:00:00 PM 5.83 42.494 0.11 7.55 1.15 12.4
1/2/2022 12:15:00 PM 5.77 42.386 0.11 7.63 1.38 12.51
1/2/2022 12:30:00 PM 5.81 42.458 0.11 7.57 1.22 12.38
1/2/2022 12:45:00 PM 5.72 42.296 0.11 7.57 1.22 12.41
1/2/2022 1:00:00 PM 5.76 42.368 0.111 7.42 1.13 12.2
1/2/2022 1:15:00 PM 5.66 42.188 0.11 7.62 1.53 12.43
1/2/2022 1:30:00 PM 5.74 42.332 0.111 7.48 1.24 12.32
1/2/2022 1:45:00 PM 5.61 42.098 0.11 7.59 1.18 12.41
1/2/2022 2:00:00 PM 5.64 42.152 0.111 7.54 1.16 12.36
1/2/2022 2:15:00 PM 5.54 41.972 0.11 7.55 1.18 12.39
1/2/2022 2:30:00 PM 5.49 41.882 0.11 7.62 1.15 12.47
1/2/2022 2:45:00 PM 5.45 41.81 0.11 7.62 1.28 12.48
1/2/2022 3:00:00 PM 5.42 41.756 0.11 7.55 1.18 12.41
1/2/2022 3:15:00 PM 5.54 41.972 0.11 7.48 1 12
1/2/2022 3:30:00 PM 5.32 41.576 0.111 7.58 1.17 12.39
1/2/2022 3:45:00 PM 5.34 41.612 0.11 7.52 1.04 12.25
1/2/2022 4:00:00 PM 5.28 41.504 0.11 7.51 1.06 12.18
1/2/2022 4:15:00 PM 5.23 41.414 0.111 7.47 1.03 12.28
1/2/2022 4:30:00 PM 5.1 41.18 0.111 7.53 1.09 12.33
1/2/2022 4:45:00 PM 5.07 41.126 0.111 7.38 1.02 12.22
1/2/2022 5:00:00 PM 5.01 41.018 0.111 7.49 1.06 12.04
1/2/2022 5:15:00 PM 4.89 40.802 0.111 7.51 1.13 12.31
1/2/2022 5:30:00 PM 4.87 40.766 0.111 7.43 1 12.36
1/2/2022 5:45:00 PM 4.76 40.568 0.111 7.54 1.51 12.44
1/2/2022 6:00:00 PM 4.8 40.64 0.111 7.34 1.11 12.31
1/2/2022 6:15:00 PM 4.79 40.622 0.112 7.45 0.98 12.11
1/2/2022 6:30:00 PM 4.68 40.424 0.111 7.44 1.1 12.3
1/2/2022 6:45:00 PM 4.58 40.244 0.111 7.51 1.06 12.44
1/2/2022 7:00:00 PM 4.6 40.28 0.111 7.47 1.06 12.39
1/2/2022 7:15:00 PM 4.61 40.298 0.111 7.46 1.09 12.34
1/2/2022 7:30:00 PM 4.44 39.992 0.111 7.52 1.05 12.55
1/2/2022 7:45:00 PM 4.43 39.974 0.111 7.48 0.97 12.45
1/2/2022 8:00:00 PM 4.5 40.1 0.111 7.47 0.96 12.43
1/2/2022 8:15:00 PM 4.38 39.884 0.111 7.46 0.93 12.52
1/2/2022 8:30:00 PM 4.39 39.902 0.112 7.49 1.01 12.51
1/2/2022 8:45:00 PM 4.29 39.722 0.111 7.47 1.05 12.54
1/2/2022 9:00:00 PM 4.37 39.866 0.111 7.4 0.94 12.36
1/2/2022 9:15:00 PM 4.34 39.812 0.112 7.45 0.95 12.53
1/2/2022 9:30:00 PM 4.23 39.614 0.111 7.49 0.9 12.59
1/2/2022 9:45:00 PM 4.27 39.686 0.111 7.36 0.92 12.34
1/2/2022 10:00:00 PM 4.16 39.488 0.111 7.47 1.03 12.59
1/2/2022 10:15:00 PM 4.15 39.47 0.111 7.43 0.91 12.57
1/2/2022 10:30:00 PM 4.15 39.47 0.112 7.47 0.87 12.47
1/2/2022 10:45:00 PM 4.12 39.416 0.112 7.45 0.9 12.63
1/2/2022 11:00:00 PM 4.18 39.524 0.112 7.46 0.88 12.59
1/2/2022 11:15:00 PM 4.03 39.254 0.112 7.47 0.96 12.7
1/2/2022 11:30:00 PM 4.03 39.254 0.112 7.47 0.81 12.67
1/2/2022 11:45:00 PM 4.05 39.29 0.112 7.43 0.81 12.47
1/3/2022 12:00:00 AM 3.95 39.11 0.112 7.48 0.85 12.69
1/3/2022 12:15:00 AM 3.95 39.11 0.112 7.44 0.84 12.73
1/3/2022 12:30:00 AM 3.86 38.948 0.112 7.47 0.83 12.7
1/3/2022 12:45:00 AM 3.81 38.858 0.112 7.46 0.81 12.72
1/3/2022 1:00:00 AM 3.89 39.002 0.112 7.42 0.71 12.7
1/3/2022 1:15:00 AM 3.75 38.75 0.113 7.49 0.98 12.99
1/3/2022 1:30:00 AM 3.66 38.588 0.112 7.46 0.82 12.8
1/3/2022 1:45:00 AM 3.72 38.696 0.112 7.42 0.75 12.74
1/3/2022 2:00:00 AM 3.64 38.552 0.112 7.43 0.64 12.74
1/3/2022 2:15:00 AM 3.65 38.57 0.112 7.43 0.68 12.76
1/3/2022 2:30:00 AM 3.65 38.57 0.112 7.42 0.73 12.86
1/3/2022 2:45:00 AM 3.58 38.444 0.112 7.46 0.73 12.74
1/3/2022 3:00:00 AM 3.43 38.174 0.112 7.49 0.71 12.92
1/3/2022 3:15:00 AM 3.38 38.084 0.112 7.45 0.75 12.99
1/3/2022 3:30:00 AM 3.46 38.228 0.112 7.39 0.69 12.82
1/3/2022 3:45:00 AM 3.35 38.03 0.112 7.45 0.65 12.89
1/3/2022 4:00:00 AM 3.26 37.868 0.112 7.42 0.76 12.91
1/3/2022 4:15:00 AM 3.32 37.976 0.112 7.37 0.6 12.98
1/3/2022 4:30:00 AM 3.2 37.76 0.112 7.46 0.71 13
1/3/2022 4:45:00 AM 3.33 37.994 0.112 7.45 0.65 12.84
1/3/2022 5:00:00 AM 3.16 37.688 0.112 7.44 0.69 13
1/3/2022 5:15:00 AM 3.22 37.796 0.112 7.41 0.69 12.85
1/3/2022 5:30:00 AM 3.14 37.652 0.112 7.44 0.67 12.87
1/3/2022 5:45:00 AM 3.17 37.706 0.113 7.45 0.62 12.95
1/3/2022 6:00:00 AM 3.03 37.454 0.112 7.42 0.61 13.02
1/3/2022 6:15:00 AM 3.01 37.418 0.112 7.42 0.66 12.99
1/3/2022 6:30:00 AM 2.98 37.364 0.113 7.46 0.83 13.15
1/3/2022 6:45:00 AM 3.01 37.418 0.112 7.45 0.68 12.95
1/3/2022 7:00:00 AM 2.98 37.364 0.112 7.4 0.63 13
1/3/2022 7:15:00 AM 2.91 37.238 0.112 7.42 0.68 13
1/3/2022 7:30:00 AM 2.98 37.364 0.112 7.4 0.64 12.86
1/3/2022 7:45:00 AM 2.89 37.202 0.112 7.43 0.61 13.06
1/3/2022 8:00:00 AM 2.8 37.04 0.112 7.44 0.65 13.1
1/3/2022 8:15:00 AM 2.8 37.04 0.112 7.38 0.64 13.2
1/3/2022 8:30:00 AM 2.77 36.986 0.112 7.39 0.65 13.08
1/3/2022 8:45:00 AM 2.71 36.878 0.112 7.46 1.44 13.28
1/3/2022 9:00:00 AM 2.64 36.752 0.112 7.45 0.69 13.35
1/3/2022 9:15:00 AM 2.73 36.914 0.112 7.4 0.71 13.39
1/3/2022 9:30:00 AM 2.64 36.752 0.112 7.49 0.67 13.49
1/3/2022 9:45:00 AM 2.66 36.788 0.112 7.48 0.63 13.53
1/3/2022 10:00:00 AM 2.65 36.77 0.112 7.51 0.66 13.49
1/3/2022 10:15:00 AM 2.79 37.022 0.112 7.51 0.64 13.54
1/3/2022 10:30:00 AM 2.59 36.662 0.111 7.53 0.68 13.73
1/3/2022 10:45:00 AM 2.73 36.914 0.112 7.5 0.62 13.62
1/3/2022 11:00:00 AM 2.6 36.68 0.111 7.57 0.64 13.67
1/3/2022 11:15:00 AM 2.72 36.896 0.111 7.55 0.69 13.59
1/3/2022 11:30:00 AM 2.62 36.716 0.111 7.54 0.6 13.81
1/3/2022 11:45:00 AM 2.64 36.752 0.112 7.55 0.62 13.75
1/3/2022 12:00:00 PM 2.58 36.644 0.111 7.6 0.64 13.81
1/3/2022 12:15:00 PM 2.77 36.986 0.111 7.56 0.62 13.85
1/3/2022 12:30:00 PM 2.73 36.914 0.111 7.48 0.59 13.79
1/3/2022 12:45:00 PM 2.63 36.734 0.111 7.69 0.62 13.96
1/3/2022 1:00:00 PM 2.7 36.86 0.11 7.6 0.96 13.92
1/3/2022 1:15:00 PM 2.71 36.878 0.11 7.63 0.61 13.81
1/3/2022 1:30:00 PM 2.69 36.842 0.11 7.62 0.75 13.84
1/3/2022 1:45:00 PM 2.82 37.076 0.11 7.61 0.62 13.73
1/3/2022 2:00:00 PM 2.72 36.896 0.11 7.64 0.7 13.83
1/3/2022 2:15:00 PM 2.79 37.022 0.11 7.55 0.75 13.83
1/3/2022 2:30:00 PM 2.7 36.86 0.11 7.68 0.69 13.93
1/3/2022 2:45:00 PM 2.71 36.878 0.11 7.64 0.79 13.87
1/3/2022 3:00:00 PM 2.6 36.68 0.11 7.66 0.71 13.92
1/3/2022 3:15:00 PM 2.59 36.662 0.11 7.69 0.69 13.83
1/3/2022 3:30:00 PM 2.65 36.77 0.11 7.6 0.67 13.82
1/3/2022 3:45:00 PM 2.59 36.662 0.11 7.66 0.62 13.84
1/3/2022 4:00:00 PM 2.59 36.662 0.11 7.61 0.64 13.7
1/3/2022 4:15:00 PM 2.6 36.68 0.111 7.51 0.71 13.72
1/3/2022 4:30:00 PM 2.65 36.77 0.11 7.52 0.67 13.35
1/3/2022 4:45:00 PM 2.57 36.626 0.111 7.53 0.61 13.18
1/3/2022 5:00:00 PM 2.34 36.212 0.111 7.54 0.65 13.46
1/3/2022 5:15:00 PM 2.23 36.014 0.111 7.55 0.63 13.45
1/3/2022 5:30:00 PM 2.21 35.978 0.112 7.53 0.7 13.46
1/3/2022 5:45:00 PM 2.2 35.96 0.112 7.49 0.69 13.36
1/3/2022 6:00:00 PM 2.02 35.636 0.112 7.53 0.66 13.52
1/3/2022 6:15:00 PM 1.96 35.528 0.112 7.49 0.72 13.46
1/3/2022 6:30:00 PM 1.86 35.348 0.112 7.5 0.6 13.56
1/3/2022 6:45:00 PM 1.76 35.168 0.113 7.53 0.65 13.59
1/3/2022 7:00:00 PM 1.7 35.06 0.113 7.51 0.72 13.64
1/3/2022 7:15:00 PM 1.63 34.934 0.113 7.5 0.67 13.56
1/3/2022 7:30:00 PM 1.59 34.862 0.113 7.43 0.62 13.58
1/3/2022 7:45:00 PM 1.5 34.7 0.113 7.5 0.72 13.72
1/3/2022 8:00:00 PM 1.45 34.61 0.113 7.5 0.67 13.69
1/3/2022 8:15:00 PM 1.55 34.79 0.113 7.43 0.6 13.63
1/3/2022 8:30:00 PM 1.44 34.592 0.113 7.46 0.69 13.65
1/3/2022 8:45:00 PM 1.5 34.7 0.113 7.44 0.7 13.57
1/3/2022 9:00:00 PM 1.35 34.43 0.113 7.45 0.63 13.74
1/3/2022 9:15:00 PM 1.49 34.682 0.114 7.42 0.68 13.67
1/3/2022 9:30:00 PM 1.35 34.43 0.113 7.45 0.67 13.7
1/3/2022 9:45:00 PM 1.45 34.61 0.113 7.4 0.68 13.37
1/3/2022 10:00:00 PM 1.27 34.286 0.113 7.46 0.59 13.78
1/3/2022 10:15:00 PM 1.24 34.232 0.114 7.49 0.62 13.79
1/3/2022 10:30:00 PM 1.3 34.34 0.115 7.43 0.58 13.88
1/3/2022 10:45:00 PM 1.17 34.106 0.114 7.46 0.63 13.88
1/3/2022 11:00:00 PM 1.16 34.088 0.114 7.44 0.61 13.84
1/3/2022 11:15:00 PM 1.21 34.178 0.113 7.44 0.61 13.68
1/3/2022 11:30:00 PM 1.12 34.016 0.114 7.45 0.59 13.91
1/3/2022 11:45:00 PM 1.07 33.926 0.114 7.38 0.61 13.83
1/4/2022 12:00:00 AM 1.23 34.214 0.114 7.46 0.53 13.42
1/4/2022 12:15:00 AM 1.17 34.106 0.114 7.43 0.58 13.68
1/4/2022 12:30:00 AM 0.89 33.602 0.114 7.48 0.52 13.97
1/4/2022 12:45:00 AM 0.87 33.566 0.114 7.46 0.59 13.97
1/4/2022 1:00:00 AM 1.11 33.998 0.114 7.43 0.64 13.71
1/4/2022 1:15:00 AM 0.87 33.566 0.114 7.39 0.59 13.95
1/4/2022 1:30:00 AM 0.87 33.566 0.114 7.46 0.54 13.98
1/4/2022 1:45:00 AM 0.83 33.494 0.114 7.47 0.56 13.97
1/4/2022 2:00:00 AM 0.86 33.548 0.114 7.43 0.56 13.92
1/4/2022 2:15:00 AM 0.77 33.386 0.114 7.46 0.58 14.08
1/4/2022 2:30:00 AM 0.94 33.692 0.115 7.45 0.51 14
1/4/2022 2:45:00 AM 0.77 33.386 0.114 7.44 0.57 13.98
1/4/2022 3:00:00 AM 0.66 33.188 0.114 7.46 0.58 14.03
1/4/2022 3:15:00 AM 0.78 33.404 0.114 7.46 0.56 14.08
1/4/2022 3:30:00 AM 0.69 33.242 0.114 7.4 0.54 14.06
1/4/2022 3:45:00 AM 0.58 33.044 0.114 7.48 0.58 14.12
1/4/2022 4:00:00 AM 0.64 33.152 0.114 7.46 0.52 14.08
1/4/2022 4:15:00 AM 0.61 33.098 0.114 7.45 0.52 14
1/4/2022 4:30:00 AM 0.52 32.936 0.114 7.43 0.6 14.08
1/4/2022 4:45:00 AM 0.69 33.242 0.115 7.41 0.55 14.17
1/4/2022 5:00:00 AM 0.61 33.098 0.114 7.45 0.53 14.06
1/4/2022 5:15:00 AM 0.64 33.152 0.114 7.29 0.66 14.04
1/4/2022 5:30:00 AM 0.82 33.476 0.114 7.45 0.57 13.95
1/4/2022 5:45:00 AM 1.1 33.98 0.114 7.31 0.46 13.68
1/4/2022 6:00:00 AM 0.53 32.954 0.114 7.46 0.48 14.1
1/4/2022 6:15:00 AM 0.71 33.278 0.115 7.46 0.55 13.94
1/4/2022 6:30:00 AM 0.69 33.242 0.115 7.43 0.54 14
1/4/2022 6:45:00 AM 0.51 32.918 0.116 7.45 0.53 14.18
1/4/2022 7:00:00 AM 0.61 33.098 0.114 7.42 0.61 13.96
1/4/2022 7:15:00 AM 0.51 32.918 0.115 7.44 0.48 14
1/4/2022 7:30:00 AM 0.62 33.116 0.115 7.37 0.57 14.1
1/4/2022 7:45:00 AM 0.62 33.116 0.115 7.43 0.51 14.07
1/4/2022 8:00:00 AM 0.42 32.756 0.115 7.49 0.56 14.34
1/4/2022 8:15:00 AM 0.49 32.882 0.115 7.44 0.52 14.32
1/4/2022 8:30:00 AM 0.46 32.828 0.115 7.48 0.52 14.3
1/4/2022 8:45:00 AM 0.55 32.99 0.115 7.46 0.57 14.35
1/4/2022 9:00:00 AM 0.73 33.314 0.115 7.41 0.53 14.32
1/4/2022 9:15:00 AM 0.51 32.918 0.114 7.51 0.55 14.47
1/4/2022 9:30:00 AM 0.71 33.278 0.114 7.47 0.58 14.49
1/4/2022 9:45:00 AM 0.67 33.206 0.114 7.5 0.49 14.6
1/4/2022 10:00:00 AM 0.7 33.26 0.114 7.55 0.54 14.57
1/4/2022 10:15:00 AM 0.7 33.26 0.114 7.53 0.5 14.58
1/4/2022 10:30:00 AM 1.07 33.926 0.114 7.46 0.42 14.3
1/4/2022 10:45:00 AM 0.83 33.494 0.114 7.59 0.53 14.44
1/4/2022 11:00:00 AM 1.11 33.998 0.114 7.5 0.46 14.37
1/4/2022 11:15:00 AM 1 33.8 0.114 7.5 0.51 14.3
1/4/2022 11:30:00 AM 1.15 34.07 0.114 7.57 0.51 14.51
1/4/2022 11:45:00 AM 1 33.8 0.113 7.56 0.54 14.5
1/4/2022 12:00:00 PM 1.48 34.664 0.113 7.27 0.51 13.8
1/4/2022 12:15:00 PM 1.13 34.034 0.113 7.45 0.55 14.51
1/4/2022 12:30:00 PM 1.13 34.034 0.113 7.53 0.59 14.45
1/4/2022 12:45:00 PM 1.12 34.016 0.113 7.56 0.54 14.47
1/4/2022 1:00:00 PM 1.45 34.61 0.113 7.37 0.51 14.34
1/4/2022 1:15:00 PM 1.3 34.34 0.113 7.54 0.53 14.38
1/4/2022 1:30:00 PM 1.4 34.52 0.113 7.55 0.49 14.39
1/4/2022 1:45:00 PM 1.43 34.574 0.112 7.6 0.51 14.29
1/4/2022 2:00:00 PM 1.46 34.628 0.112 7.54 0.53 14.23
1/4/2022 2:15:00 PM 1.61 34.898 0.112 7.47 0.57 13.94
1/4/2022 2:30:00 PM 1.57 34.826 0.112 7.56 0.49 13.94
1/4/2022 2:45:00 PM 1.69 35.042 0.112 7.55 0.52 14.04
1/4/2022 3:00:00 PM 1.8 35.24 0.114 7.55 0.52 14.11
1/4/2022 3:15:00 PM 1.71 35.078 0.113 7.59 0.54 14.09
1/4/2022 3:30:00 PM 1.85 35.33 0.112 7.47 0.52 13.94
1/4/2022 3:45:00 PM 1.83 35.294 0.113 7.56 0.52 13.99
1/4/2022 4:00:00 PM 1.81 35.258 0.112 7.54 0.51 13.88
1/4/2022 4:15:00 PM 1.97 35.546 0.112 7.52 0.48 13.73
1/4/2022 4:30:00 PM 1.88 35.384 0.113 7.53 0.53 13.82
1/4/2022 4:45:00 PM 1.83 35.294 0.113 7.54 0.5 13.81
1/4/2022 5:00:00 PM 1.81 35.258 0.113 7.52 0.48 13.75
1/4/2022 5:15:00 PM 1.86 35.348 0.113 7.42 0.51 13.57
1/4/2022 5:30:00 PM 1.73 35.114 0.113 7.52 0.57 13.75
1/4/2022 5:45:00 PM 1.79 35.222 0.114 7.49 0.53 13.62
1/4/2022 6:00:00 PM 1.79 35.222 0.114 7.45 0.5 13.56
1/4/2022 6:15:00 PM 1.89 35.402 0.114 7.44 0.54 13.54
1/4/2022 6:30:00 PM 2.03 35.654 0.114 7.47 0.57 13.48
1/4/2022 6:45:00 PM 1.58 34.844 0.114 7.51 0.56 13.75
1/4/2022 7:00:00 PM 1.65 34.97 0.114 7.5 0.48 13.53
1/4/2022 7:15:00 PM 1.68 35.024 0.114 7.46 0.57 13.57
1/4/2022 7:30:00 PM 1.59 34.862 0.114 7.49 0.49 13.68
1/4/2022 7:45:00 PM 1.61 34.898 0.114 7.48 0.52 13.57
1/4/2022 8:00:00 PM 1.6 34.88 0.114 7.47 0.55 13.63
1/4/2022 8:15:00 PM 1.48 34.664 0.114 7.51 0.53 13.74
1/4/2022 8:30:00 PM 1.47 34.646 0.114 7.52 0.54 13.78
1/4/2022 8:45:00 PM 1.52 34.736 0.114 7.49 0.54 13.7
1/4/2022 9:00:00 PM 1.63 34.934 0.116 7.49 0.54 13.69
1/4/2022 9:15:00 PM 1.54 34.772 0.115 7.47 0.59 13.72
1/4/2022 9:30:00 PM 1.66 34.988 0.115 7.49 0.51 13.62
1/4/2022 9:45:00 PM 1.52 34.736 0.115 7.48 0.53 13.69
1/4/2022 10:00:00 PM 1.54 34.772 0.115 7.51 0.56 13.71
1/4/2022 10:15:00 PM 1.73 35.114 0.115 7.48 0.53 13.56
1/4/2022 10:30:00 PM 1.57 34.826 0.115 7.46 0.52 13.7
1/4/2022 10:45:00 PM 1.67 35.006 0.115 7.4 0.51 13.56
1/4/2022 11:00:00 PM 1.59 34.862 0.116 7.46 0.52 13.76
1/4/2022 11:15:00 PM 1.53 34.754 0.115 7.5 0.54 13.62
1/4/2022 11:30:00 PM 1.61 34.898 0.115 7.49 0.58 13.54
1/4/2022 11:45:00 PM 1.48 34.664 0.115 7.51 0.52 13.73
1/5/2022 12:00:00 AM 1.5 34.7 0.115 7.52 0.52 13.73
1/5/2022 12:15:00 AM 1.48 34.664 0.115 7.51 0.55 13.7
1/5/2022 12:30:00 AM 1.62 34.916 0.115 7.48 0.47 13.57
1/5/2022 12:45:00 AM 1.45 34.61 0.115 7.54 0.48 13.73
1/5/2022 1:00:00 AM 1.63 34.934 0.115 7.48 0.65 13.57
1/5/2022 1:15:00 AM 1.53 34.754 0.115 7.47 0.53 13.62
1/5/2022 1:30:00 AM 1.53 34.754 0.115 7.47 0.53 13.58
1/5/2022 1:45:00 AM 1.55 34.79 0.115 7.5 0.49 13.64
1/5/2022 2:00:00 AM 1.47 34.646 0.115 7.53 0.5 13.72
1/5/2022 2:15:00 AM 1.57 34.826 0.115 7.44 0.49 13.66
1/5/2022 2:30:00 AM 1.68 35.024 0.115 7.49 0.42 13.52
1/5/2022 2:45:00 AM 1.58 34.844 0.114 7.44 0.52 13.52
1/5/2022 3:00:00 AM 1.48 34.664 0.114 7.49 0.47 13.6
1/5/2022 3:15:00 AM 1.51 34.718 0.115 7.51 0.48 13.7
1/5/2022 3:30:00 AM 1.51 34.718 0.115 7.5 0.51 13.68
1/5/2022 3:45:00 AM 1.57 34.826 0.115 7.41 0.53 13.38
1/5/2022 4:00:00 AM 1.51 34.718 0.115 7.47 0.46 13.63
1/5/2022 4:15:00 AM 1.53 34.754 0.114 7.38 0.6 13.58
1/5/2022 4:30:00 AM 1.46 34.628 0.115 7.48 0.51 13.66
1/5/2022 4:45:00 AM 1.49 34.682 0.115 7.52 0.55 13.64
1/5/2022 5:00:00 AM 1.56 34.808 0.115 7.51 0.54 13.65
1/5/2022 5:15:00 AM 1.51 34.718 0.114 7.5 0.5 13.55
1/5/2022 5:30:00 AM 1.5 34.7 0.114 7.45 0.49 13.65
1/5/2022 5:45:00 AM 1.47 34.646 0.114 7.49 0.52 13.6
1/5/2022 6:00:00 AM 1.56 34.808 0.114 7.45 0.5 13.53
1/5/2022 6:15:00 AM 1.54 34.772 0.114 7.5 0.49 13.53
1/5/2022 6:30:00 AM 1.62 34.916 0.114 7.46 0.48 13.39
1/5/2022 6:45:00 AM 1.52 34.736 0.114 7.48 0.5 13.59
1/5/2022 7:00:00 AM 1.46 34.628 0.114 7.53 0.45 13.67
1/5/2022 7:15:00 AM 1.71 35.078 0.117 7.49 0.44 13.82
1/5/2022 7:30:00 AM 1.5 34.7 0.114 7.53 0.47 13.65
1/5/2022 7:45:00 AM 1.58 34.844 0.114 7.4 0.43 13.55
1/5/2022 8:00:00 AM 1.52 34.736 0.114 7.54 0.42 13.68
1/5/2022 8:15:00 AM 1.65 34.97 0.114 7.47 0.46 13.54
1/5/2022 8:30:00 AM 1.75 35.15 0.114 7.27 0.46 13.56
1/5/2022 8:45:00 AM 1.86 35.348 0.115 7.43 0.45 13.78
1/5/2022 9:00:00 AM 1.68 35.024 0.114 7.47 0.48 13.86
1/5/2022 9:15:00 AM 1.8 35.24 0.114 7.51 0.45 13.81
1/5/2022 9:30:00 AM 1.81 35.258 0.113 7.59 0.46 13.88
1/5/2022 9:45:00 AM 1.79 35.222 0.113 7.66 0.43 14.07
1/5/2022 10:00:00 AM 1.88 35.384 0.113 7.65 0.48 14.09
1/5/2022 10:15:00 AM 1.98 35.564 0.113 7.66 0.45 14.03
1/5/2022 10:30:00 AM 2.05 35.69 0.113 7.67 0.46 14.07
1/5/2022 10:45:00 AM 2.15 35.87 0.113 7.6 0.47 14.08
1/5/2022 11:00:00 AM 2.24 36.032 0.112 7.65 0.48 13.99
1/5/2022 11:15:00 AM 2.35 36.23 0.112 7.64 0.43 14
1/5/2022 11:30:00 AM 2.43 36.374 0.112 7.69 0.46 14.05
1/5/2022 11:45:00 AM 2.5 36.5 0.112 7.72 0.48 14.01
1/5/2022 12:00:00 PM 2.55 36.59 0.113 7.73 0.52 14.01
1/5/2022 12:15:00 PM 2.69 36.842 0.112 7.68 0.46 13.88
1/5/2022 12:30:00 PM 2.78 37.004 0.111 7.68 0.53 13.96
1/5/2022 12:45:00 PM 2.89 37.202 0.111 7.72 0.5 13.83
1/5/2022 1:00:00 PM 2.9 37.22 0.111 7.78 0.52 13.85
1/5/2022 1:15:00 PM 3.09 37.562 0.111 7.66 0.54 13.57
1/5/2022 1:30:00 PM 3.2 37.76 0.111 7.7 0.47 13.68
1/5/2022 1:45:00 PM 3.22 37.796 0.111 7.69 0.48 13.6
1/5/2022 2:00:00 PM 3.28 37.904 0.111 7.73 0.46 13.63
1/5/2022 2:15:00 PM 3.46 38.228 0.111 7.63 0.46 13.32
1/5/2022 2:30:00 PM 3.42 38.156 0.111 7.72 0.43 13.31
1/5/2022 2:45:00 PM 3.43 38.174 0.111 7.68 0.5 13.44
1/5/2022 3:00:00 PM 3.41 38.138 0.111 7.76 0.51 13.43
1/5/2022 3:15:00 PM 3.45 38.21 0.111 7.73 0.53 13.38
1/5/2022 3:30:00 PM 3.59 38.462 0.111 7.65 0.46 13.25
1/5/2022 3:45:00 PM 3.51 38.318 0.111 7.67 0.49 13.27
1/5/2022 4:00:00 PM 3.48 38.264 0.111 7.67 0.5 13.26
1/5/2022 4:15:00 PM 3.43 38.174 0.111 7.7 0.53 13.26
1/5/2022 4:30:00 PM 3.45 38.21 0.111 7.59 0.48 13.1
1/5/2022 4:45:00 PM 3.34 38.012 0.112 7.61 0.6 13.05
1/5/2022 5:00:00 PM 3.35 38.03 0.112 7.61 0.54 13
1/5/2022 5:15:00 PM 3.45 38.21 0.112 7.49 0.51 12.52
1/5/2022 5:30:00 PM 3.26 37.868 0.112 7.6 0.48 12.95
1/5/2022 5:45:00 PM 3.27 37.886 0.112 7.46 0.51 12.68
1/5/2022 6:00:00 PM 3.34 38.012 0.113 7.49 0.48 12.72
1/5/2022 6:15:00 PM 3.16 37.688 0.113 7.57 0.59 12.93
1/5/2022 6:30:00 PM 3.15 37.67 0.113 7.52 0.62 12.88
1/5/2022 6:45:00 PM 3.18 37.724 0.113 7.47 0.66 12.8
1/5/2022 7:00:00 PM 3.13 37.634 0.113 7.51 0.56 12.78
1/5/2022 7:15:00 PM 3.06 37.508 0.113 7.53 0.52 12.87
1/5/2022 7:30:00 PM 3.02 37.436 0.113 7.56 0.59 12.94
1/5/2022 7:45:00 PM 3 37.4 0.113 7.55 0.6 12.95
1/5/2022 8:00:00 PM 3.04 37.472 0.114 7.53 0.59 12.94
1/5/2022 8:15:00 PM 3.01 37.418 0.114 7.54 0.64 12.93
1/5/2022 8:30:00 PM 2.98 37.364 0.114 7.56 0.54 12.94
1/5/2022 8:45:00 PM 3.05 37.49 0.114 7.5 0.53 12.5
1/5/2022 9:00:00 PM 3.19 37.742 0.114 7.42 0.58 12.67
1/5/2022 9:15:00 PM 3.06 37.508 0.114 7.51 0.56 12.86
1/5/2022 9:30:00 PM 3.19 37.742 0.114 7.45 0.56 12.6
1/5/2022 9:45:00 PM 3.02 37.436 0.114 7.55 0.56 12.94
1/5/2022 10:00:00 PM 3.1 37.58 0.114 7.5 0.53 12.81
1/5/2022 10:15:00 PM 3.05 37.49 0.114 7.55 0.54 12.92
1/5/2022 10:30:00 PM 3.07 37.526 0.114 7.53 0.55 12.89
1/5/2022 10:45:00 PM 3.16 37.688 0.116 7.5 0.51 12.98
1/5/2022 11:00:00 PM 3.12 37.616 0.114 7.52 0.52 12.86
1/5/2022 11:15:00 PM 3.07 37.526 0.114 7.53 0.51 12.95
1/5/2022 11:30:00 PM 3.12 37.616 0.114 7.54 0.48 12.87
1/5/2022 11:45:00 PM 3.38 38.084 0.114 7.4 0.48 12.16
1/6/2022 12:00:00 AM 3.17 37.706 0.114 7.49 0.52 12.79
1/6/2022 12:15:00 AM 3.11 37.598 0.114 7.54 0.51 12.92
1/6/2022 12:30:00 AM 3.17 37.706 0.114 7.49 0.49 12.84
1/6/2022 12:45:00 AM 3.13 37.634 0.114 7.48 0.56 12.86
1/6/2022 1:00:00 AM 3.08 37.544 0.114 7.52 0.49 12.88
1/6/2022 1:15:00 AM 3.06 37.508 0.114 7.51 0.51 12.87
1/6/2022 1:30:00 AM 3.03 37.454 0.114 7.51 0.49 12.8
1/6/2022 1:45:00 AM 3.04 37.472 0.114 7.48 0.54 12.86
1/6/2022 2:00:00 AM 3.03 37.454 0.114 7.51 0.47 12.92
1/6/2022 2:15:00 AM 3 37.4 0.114 7.52 0.49 12.53
1/6/2022 2:30:00 AM 2.94 37.292 0.114 7.54 0.43 12.91
1/6/2022 2:45:00 AM 2.91 37.238 0.114 7.49 0.54 12.87
1/6/2022 3:00:00 AM 2.88 37.184 0.114 7.52 0.48 12.83
1/6/2022 3:15:00 AM 2.85 37.13 0.114 7.55 0.52 12.9
1/6/2022 3:30:00 AM 2.8 37.04 0.114 7.53 0.55 12.99
1/6/2022 3:45:00 AM 2.81 37.058 0.114 7.49 0.55 12.88
1/6/2022 4:00:00 AM 2.71 36.878 0.114 7.53 0.53 12.99
1/6/2022 4:15:00 AM 2.65 36.77 0.114 7.57 0.68 13.13
1/6/2022 4:30:00 AM 2.63 36.734 0.114 7.51 0.6 13.08
1/6/2022 4:45:00 AM 2.63 36.734 0.114 7.53 0.56 13.11
1/6/2022 5:00:00 AM 2.63 36.734 0.114 7.49 0.55 12.93
1/6/2022 5:15:00 AM 2.62 36.716 0.114 7.43 0.68 12.98
1/6/2022 5:30:00 AM 2.55 36.59 0.114 7.51 0.45 13.19
1/6/2022 5:45:00 AM 2.5 36.5 0.113 7.52 0.48 13.17
1/6/2022 6:00:00 AM 2.51 36.518 0.114 7.5 0.53 13.12
1/6/2022 6:15:00 AM 2.46 36.428 0.114 7.52 0.48 13.11
1/6/2022 6:30:00 AM 2.42 36.356 0.114 7.48 0.49 13.13
1/6/2022 6:45:00 AM 2.33 36.194 0.114 7.57 0.47 13.29
1/6/2022 7:00:00 AM 2.39 36.302 0.113 7.51 0.48 13.13
1/6/2022 7:15:00 AM 2.28 36.104 0.114 7.55 0.46 13.25
1/6/2022 7:30:00 AM 2.28 36.104 0.114 7.54 0.49 13.23
1/6/2022 7:45:00 AM 2.22 35.996 0.113 7.54 0.52 13.32
1/6/2022 8:00:00 AM 2.22 35.996 0.114 7.51 0.52 13.31
1/6/2022 8:15:00 AM 2.25 36.05 0.114 7.52 0.45 13.45
1/6/2022 8:30:00 AM 2.26 36.068 0.113 7.5 0.51 13.22
1/6/2022 8:45:00 AM 2.28 36.104 0.115 7.52 0.51 13.67
1/6/2022 9:00:00 AM 2.36 36.248 0.113 7.55 0.49 13.55
1/6/2022 9:15:00 AM 2.16 35.888 0.113 7.62 0.46 13.73
1/6/2022 9:30:00 AM 2.19 35.942 0.113 7.62 0.5 13.79
1/6/2022 9:45:00 AM 2.22 35.996 0.113 7.59 0.45 13.85
1/6/2022 10:00:00 AM 2.37 36.266 0.114 7.61 0.48 13.82
1/6/2022 10:15:00 AM 2.3 36.14 0.113 7.62 0.49 13.78
1/6/2022 10:30:00 AM 2.39 36.302 0.112 7.62 0.57 13.8
1/6/2022 10:45:00 AM 2.31 36.158 0.112 7.71 0.51 14
1/6/2022 11:00:00 AM 2.35 36.23 0.112 7.69 0.47 14.02
1/6/2022 11:15:00 AM 2.39 36.302 0.112 7.75 0.49 14.02
1/6/2022 11:30:00 AM 2.43 36.374 0.112 7.74 0.48 14.05
1/6/2022 11:45:00 AM 2.49 36.482 0.112 7.66 0.48 14.04
1/6/2022 12:00:00 PM 2.61 36.698 0.112 7.55 0.47 13.69
1/6/2022 12:15:00 PM 2.53 36.554 0.112 7.67 0.53 13.9
1/6/2022 12:30:00 PM 2.59 36.662 0.112 7.68 0.57 13.92
1/6/2022 12:45:00 PM 2.6 36.68 0.111 7.66 0.45 13.88
1/6/2022 1:00:00 PM 2.58 36.644 0.111 7.73 0.48 13.87
1/6/2022 1:15:00 PM 2.55 36.59 0.111 7.75 0.49 13.91
1/6/2022 1:30:00 PM 2.62 36.716 0.111 7.72 0.56 13.86
1/6/2022 1:45:00 PM 2.61 36.698 0.111 7.75 0.47 13.92
1/6/2022 2:00:00 PM 2.61 36.698 0.111 7.74 0.49 13.87
1/6/2022 2:15:00 PM 2.7 36.86 0.111 7.74 0.48 13.85
1/6/2022 2:30:00 PM 2.8 37.04 0.111 7.57 0.53 13.78
1/6/2022 2:45:00 PM 2.79 37.022 0.111 7.73 0.52 13.84
1/6/2022 3:00:00 PM 2.87 37.166 0.111 7.67 0.52 13.72
1/6/2022 3:15:00 PM 2.87 37.166 0.111 7.68 0.49 13.66
1/6/2022 3:30:00 PM 2.86 37.148 0.111 7.65 0.5 13.64
1/6/2022 3:45:00 PM 2.85 37.13 0.111 7.68 0.5 13.55
1/6/2022 4:00:00 PM 2.8 37.04 0.111 7.67 0.48 13.58
1/6/2022 4:15:00 PM 2.84 37.112 0.111 7.61 0.49 13.27
1/6/2022 4:30:00 PM 2.76 36.968 0.112 7.61 0.58 13.44
1/6/2022 4:45:00 PM 2.83 37.094 0.112 7.54 0.53 13.18
1/6/2022 5:00:00 PM 2.82 37.076 0.112 7.56 0.63 13.18
1/6/2022 5:15:00 PM 2.76 36.968 0.113 7.54 0.49 13.25
1/6/2022 5:30:00 PM 2.7 36.86 0.113 7.55 0.6 13.21
1/6/2022 5:45:00 PM 2.72 36.896 0.113 7.5 0.5 13.15
1/6/2022 6:00:00 PM 2.67 36.806 0.113 7.5 0.52 13.1
1/6/2022 6:15:00 PM 2.63 36.734 0.113 7.56 0.67 13.19
1/6/2022 6:30:00 PM 2.56 36.608 0.113 7.54 0.53 13.27
1/6/2022 6:45:00 PM 2.64 36.752 0.113 7.45 0.53 13
1/6/2022 7:00:00 PM 2.65 36.77 0.114 7.5 0.54 13.04
1/6/2022 7:15:00 PM 2.56 36.608 0.114 7.52 0.51 13.2
1/6/2022 7:30:00 PM 2.52 36.536 0.114 7.52 0.5 13.24
1/6/2022 7:45:00 PM 2.55 36.59 0.114 7.48 0.52 13.19
1/6/2022 8:00:00 PM 2.58 36.644 0.114 7.47 0.49 13.13
1/6/2022 8:15:00 PM 2.54 36.572 0.115 7.51 0.53 13.18
1/6/2022 8:30:00 PM 2.56 36.608 0.114 7.49 0.52 13.13
1/6/2022 8:45:00 PM 2.55 36.59 0.114 7.51 0.48 13.15
1/6/2022 9:00:00 PM 2.57 36.626 0.114 7.5 0.5 13.09
1/6/2022 9:15:00 PM 2.51 36.518 0.114 7.49 0.52 13.16
1/6/2022 9:30:00 PM 2.55 36.59 0.114 7.46 0.48 13.09
1/6/2022 9:45:00 PM 2.51 36.518 0.114 7.5 0.49 13.17
1/6/2022 10:00:00 PM 2.44 36.392 0.114 7.51 0.52 13.17
1/6/2022 10:15:00 PM 2.44 36.392 0.114 7.54 0.53 13.28
1/6/2022 10:30:00 PM 2.59 36.662 0.115 7.51 0.52 13.11
1/6/2022 10:45:00 PM 2.39 36.302 0.115 7.51 0.62 13.27
1/6/2022 11:00:00 PM 2.4 36.32 0.114 7.39 0.66 13.11
1/6/2022 11:15:00 PM 2.3 36.14 0.115 7.51 0.5 13.29
1/6/2022 11:30:00 PM 2.14 35.852 0.114 7.54 0.54 13.3
1/6/2022 11:45:00 PM 2.18 35.924 0.114 7.49 0.46 13.19
1/7/2022 12:00:00 AM 2.24 36.032 0.116 7.46 0.54 13.28
1/7/2022 12:15:00 AM 2.1 35.78 0.114 7.5 0.5 13.27
1/7/2022 12:30:00 AM 2.07 35.726 0.114 7.51 0.51 13.32
1/7/2022 12:45:00 AM 2.02 35.636 0.114 7.5 0.49 13.27
1/7/2022 1:00:00 AM 1.93 35.474 0.114 7.55 0.49 13.41
1/7/2022 1:15:00 AM 1.9 35.42 0.114 7.52 0.52 13.43
1/7/2022 1:30:00 AM 1.85 35.33 0.114 7.55 0.52 13.46
1/7/2022 1:45:00 AM 1.85 35.33 0.114 7.49 0.48 13.33
1/7/2022 2:00:00 AM 1.81 35.258 0.114 7.47 0.52 13.4
1/7/2022 2:15:00 AM 1.86 35.348 0.114 7.42 0.46 13.24
1/7/2022 2:30:00 AM 1.71 35.078 0.113 7.52 0.53 13.42
1/7/2022 2:45:00 AM 1.72 35.096 0.114 7.5 0.5 13.47
1/7/2022 3:00:00 AM 1.65 34.97 0.113 7.51 0.53 13.49
1/7/2022 3:15:00 AM 1.73 35.114 0.114 7.5 0.49 13.51
1/7/2022 3:30:00 AM 1.74 35.132 0.114 7.44 0.53 13.37
1/7/2022 3:45:00 AM 1.56 34.808 0.113 7.48 0.45 13.54
1/7/2022 4:00:00 AM 1.61 34.898 0.113 7.49 0.47 13.41
1/7/2022 4:15:00 AM 1.63 34.934 0.113 7.48 0.47 13.38
1/7/2022 4:30:00 AM 1.55 34.79 0.113 7.52 0.44 13.57
1/7/2022 4:45:00 AM 1.61 34.898 0.113 7.49 0.48 13.47
1/7/2022 5:00:00 AM 1.7 35.06 0.113 7.47 0.43 13.36
1/7/2022 5:15:00 AM 1.64 34.952 0.113 7.49 0.45 13.5
1/7/2022 5:30:00 AM 1.68 35.024 0.113 7.46 0.43 13.41
1/7/2022 5:45:00 AM 1.63 34.934 0.113 7.49 0.45 13.49
1/7/2022 6:00:00 AM 1.58 34.844 0.113 7.51 0.4 13.54
1/7/2022 6:15:00 AM 1.54 34.772 0.113 7.53 0.47 13.55
1/7/2022 6:30:00 AM 1.65 34.97 0.113 7.44 0.47 13.48
1/7/2022 6:45:00 AM 1.71 35.078 0.113 7.46 0.51 13.39
1/7/2022 7:00:00 AM 1.57 34.826 0.113 7.49 0.46 13.48
1/7/2022 7:15:00 AM 1.61 34.898 0.113 7.48 0.45 13.5
1/7/2022 7:30:00 AM 1.63 34.934 0.113 7.49 0.5 13.53
1/7/2022 7:45:00 AM 2.23 36.014 0.113 7.52 0.5 13.4
1/7/2022 8:00:00 AM 1.7 35.06 0.113 7.51 0.51 13.58
1/7/2022 8:15:00 AM 1.7 35.06 0.113 7.48 0.46 13.5
1/7/2022 8:30:00 AM 1.63 34.934 0.113 7.54 0.5 13.71
1/7/2022 8:45:00 AM 1.68 35.024 0.113 7.55 0.49 13.66
1/7/2022 9:00:00 AM 1.65 34.97 0.113 7.59 0.48 13.87
1/7/2022 9:15:00 AM 1.72 35.096 0.113 7.57 0.48 13.85
1/7/2022 9:30:00 AM 1.83 35.294 0.113 7.58 0.47 13.88
1/7/2022 9:45:00 AM 1.76 35.168 0.113 7.62 0.52 13.97
1/7/2022 10:00:00 AM 1.87 35.366 0.112 7.62 0.52 14.01
1/7/2022 10:15:00 AM 1.88 35.384 0.112 7.67 0.49 14.11
1/7/2022 10:30:00 AM 2.01 35.618 0.112 7.63 0.53 13.97
1/7/2022 10:45:00 AM 1.97 35.546 0.112 7.64 0.44 14.15
1/7/2022 11:00:00 AM 2.04 35.672 0.112 7.67 0.46 14.14
1/7/2022 11:15:00 AM 2.07 35.726 0.112 7.68 0.49 14.09
1/7/2022 11:30:00 AM 2.19 35.942 0.111 7.7 0.5 14.08
1/7/2022 11:45:00 AM 2.34 36.212 0.112 7.68 0.65 13.69
1/7/2022 12:00:00 PM 2.21 35.978 0.112 7.69 0.55 14.06
1/7/2022 12:15:00 PM 2.28 36.104 0.111 7.66 0.5 14.03
1/7/2022 12:30:00 PM 2.32 36.176 0.111 7.62 0.53 13.99
1/7/2022 12:45:00 PM 2.28 36.104 0.111 7.72 0.51 14.07
1/7/2022 1:00:00 PM 2.44 36.392 0.112 7.61 0.54 13.95
1/7/2022 1:15:00 PM 2.3 36.14 0.112 7.7 0.56 14.08
1/7/2022 1:30:00 PM 2.3 36.14 0.111 7.69 0.5 13.95
1/7/2022 1:45:00 PM 2.35 36.23 0.111 7.66 0.57 13.93
1/7/2022 2:00:00 PM 2.34 36.212 0.111 7.63 0.53 13.93
1/7/2022 2:15:00 PM 2.3 36.14 0.111 7.61 0.59 13.82
1/7/2022 2:30:00 PM 2.24 36.032 0.111 7.53 0.53 13.9
1/7/2022 2:45:00 PM 2.11 35.798 0.112 7.72 0.55 13.99
1/7/2022 3:00:00 PM 2.12 35.816 0.111 7.62 0.54 13.87
1/7/2022 3:15:00 PM 2.19 35.942 0.111 7.62 0.57 13.79
1/7/2022 3:30:00 PM 2.1 35.78 0.112 7.66 0.59 13.93
1/7/2022 3:45:00 PM 2.08 35.744 0.111 7.64 0.51 13.87
1/7/2022 4:00:00 PM 2.1 35.78 0.112 7.59 0.84 13.95
1/7/2022 4:15:00 PM 2.11 35.798 0.112 7.62 0.56 13.82
1/7/2022 4:30:00 PM 2.04 35.672 0.113 7.63 0.64 13.77
1/7/2022 4:45:00 PM 1.94 35.492 0.113 7.61 0.58 13.77
1/7/2022 5:00:00 PM 1.91 35.438 0.113 7.56 0.52 13.65
1/7/2022 5:15:00 PM 1.78 35.204 0.113 7.57 0.56 13.66
1/7/2022 5:30:00 PM 1.78 35.204 0.113 7.56 0.51 13.62
1/7/2022 5:45:00 PM 1.69 35.042 0.113 7.56 0.56 13.69
1/7/2022 6:00:00 PM 1.68 35.024 0.113 7.51 0.61 13.64
1/7/2022 6:15:00 PM 1.64 34.952 0.113 7.53 0.59 13.55
1/7/2022 6:30:00 PM 1.57 34.826 0.113 7.54 0.55 13.65
1/7/2022 6:45:00 PM 1.55 34.79 0.113 7.5 0.64 13.59
1/7/2022 7:00:00 PM 1.5 34.7 0.114 7.54 0.52 13.7
1/7/2022 7:15:00 PM 1.65 34.97 0.114 7.47 0.6 13.46
1/7/2022 7:30:00 PM 1.48 34.664 0.114 7.5 0.58 13.66
1/7/2022 7:45:00 PM 1.38 34.484 0.114 7.52 0.52 13.74
1/7/2022 8:00:00 PM 1.3 34.34 0.114 7.54 0.59 13.82
1/7/2022 8:15:00 PM 1.43 34.574 0.114 7.47 0.59 13.54
1/7/2022 8:30:00 PM 1.31 34.358 0.114 7.49 0.51 13.71
1/7/2022 8:45:00 PM 1.3 34.34 0.114 7.52 0.57 13.76
1/7/2022 9:00:00 PM 1.24 34.232 0.114 7.49 0.57 13.78
1/7/2022 9:15:00 PM 1.2 34.16 0.115 7.51 0.56 13.84
1/7/2022 9:30:00 PM 1.17 34.106 0.114 7.47 0.56 13.76
1/7/2022 9:45:00 PM 1.24 34.232 0.114 7.41 0.54 13.71
1/7/2022 10:00:00 PM 1.08 33.944 0.115 7.55 0.57 13.91
1/7/2022 10:15:00 PM 1.03 33.854 0.115 7.56 0.51 13.93
1/7/2022 10:30:00 PM 0.97 33.746 0.115 7.53 0.58 13.93
1/7/2022 10:45:00 PM 0.92 33.656 0.115 7.56 0.49 13.98
1/7/2022 11:00:00 PM 0.89 33.602 0.115 7.55 0.59 13.99
1/7/2022 11:15:00 PM 1.02 33.836 0.115 7.53 0.52 14.05
1/7/2022 11:30:00 PM 0.9 33.62 0.115 7.5 0.52 13.65
1/7/2022 11:45:00 PM 0.79 33.422 0.115 7.48 0.68 14.01
1/8/2022 12:00:00 AM 0.67 33.206 0.115 7.5 0.56 14.09
1/8/2022 12:15:00 AM 0.75 33.35 0.115 7.48 0.57 14.02
1/8/2022 12:30:00 AM 0.67 33.206 0.115 7.44 0.53 14.08
1/8/2022 12:45:00 AM 0.59 33.062 0.115 7.47 0.54 13.98
1/8/2022 1:00:00 AM 0.5 32.9 0.115 7.52 0.52 14.14
1/8/2022 1:15:00 AM 0.48 32.864 0.115 7.49 0.47 14.12
1/8/2022 1:30:00 AM 0.39 32.702 0.115 7.53 0.48 14.2
1/8/2022 1:45:00 AM 0.36 32.648 0.115 7.55 0.5 14.25
1/8/2022 2:00:00 AM 0.37 32.666 0.115 7.48 0.49 14.22
1/8/2022 2:15:00 AM 0.36 32.648 0.115 7.51 0.5 14.27
1/8/2022 2:30:00 AM 0.29 32.522 0.115 7.5 0.46 14.26
1/8/2022 2:45:00 AM 0.2 32.36 0.115 7.56 0.49 14.41
1/8/2022 3:00:00 AM 0.16 32.288 0.115 7.57 0.46 14.44
1/8/2022 3:15:00 AM 0.24 32.432 0.115 7.47 0.47 14.26
1/8/2022 3:30:00 AM 0.28 32.504 0.115 7.51 0.48 14.38
1/8/2022 3:45:00 AM 0.19 32.342 0.115 7.5 0.46 14.3
1/8/2022 4:00:00 AM 0.15 32.27 0.115 7.49 0.57 14.34
1/8/2022 4:15:00 AM 0.03 32.054 0.115 7.58 0.49 14.51
1/8/2022 4:30:00 AM 0.04 32.072 0.116 7.6 0.5 14.55
1/8/2022 4:45:00 AM 0.05 32.09 0.115 7.61 0.84 14.59
1/8/2022 5:00:00 AM 0.08 32.144 0.116 7.61 0.56 14.58
1/8/2022 5:15:00 AM 0.09 32.162 0.116 7.61 0.57 14.59
1/8/2022 5:30:00 AM 0.06 32.108 0.116 7.61 0.59 14.58
1/8/2022 5:45:00 AM 0.03 32.054 0.116 7.62 0.56 14.63
1/8/2022 6:00:00 AM 0.03 32.054 0.116 7.61 0.49 14.6
1/8/2022 6:15:00 AM 0.04 32.072 0.116 7.61 0.54 14.6
1/8/2022 6:30:00 AM 0.07 32.126 0.116 7.6 0.58 14.59
1/8/2022 6:45:00 AM 0.06 32.108 0.117 7.6 0.62 14.62
1/8/2022 7:00:00 AM 0.08 32.144 0.117 7.6 0.7 14.58
1/8/2022 7:15:00 AM 0.13 32.234 0.117 7.6 0.57 14.58
1/8/2022 7:30:00 AM 0.02 32.036 0.117 7.58 1 14.66
1/8/2022 7:45:00 AM -0.02 31.964 0.117 7.63 0.59 14.73
1/8/2022 8:00:00 AM 0 32 0.117 7.64 0.65 14.76
1/8/2022 8:15:00 AM 0.04 32.072 0.117 7.63 0.61 14.76
1/8/2022 8:30:00 AM 0.08 32.144 0.117 7.64 0.59 14.78
1/8/2022 8:45:00 AM 0.02 32.036 0.117 7.66 0.64 14.85
1/8/2022 9:00:00 AM -0.03 31.946 0.117 7.67 0.64 14.94
1/8/2022 9:15:00 AM 0.05 32.09 0.117 7.67 0.66 14.91
1/8/2022 9:30:00 AM 0.03 32.054 0.117 7.68 0.61 14.95
1/8/2022 9:45:00 AM 0.05 32.09 0.117 7.69 1.4 14.99
1/8/2022 10:00:00 AM 0.12 32.216 0.117 7.7 2.56 14.93
1/8/2022 10:15:00 AM 0.06 32.108 0.117 7.72 1.01 15.03
1/8/2022 10:30:00 AM 0.12 32.216 0.117 7.69 0.69 14.98
1/8/2022 10:45:00 AM 0.15 32.27 0.117 7.69 0.95 14.97
1/8/2022 11:00:00 AM 0.19 32.342 0.117 7.68 0.71 14.94
1/8/2022 11:15:00 AM 0.18 32.324 0.117 7.71 0.75 14.98
1/8/2022 11:30:00 AM 0.19 32.342 0.116 7.69 0.95 14.96
1/8/2022 11:45:00 AM 0.19 32.342 0.116 7.69 0.74 14.93
1/8/2022 12:00:00 PM 0.19 32.342 0.116 7.69 1.03 14.93
1/8/2022 12:15:00 PM 0.13 32.234 0.115 7.73 1.38 14.96
1/8/2022 12:30:00 PM 0.17 32.306 0.115 7.72 1.86 14.92
1/8/2022 12:45:00 PM 0.2 32.36 0.115 7.71 1.13 14.87
1/8/2022 1:00:00 PM 0.31 32.558 0.115 7.65 1.08 14.79
1/8/2022 1:15:00 PM 0.41 32.738 0.114 7.6 0.84 14.8
1/8/2022 1:30:00 PM 0.58 33.044 0.114 7.63 1.01 14.72
1/8/2022 1:45:00 PM 0.61 33.098 0.114 7.53 1.21 14.62
1/8/2022 2:00:00 PM 0.52 32.936 0.114 7.52 1.58 14.65
1/8/2022 2:15:00 PM 0.51 32.918 0.114 7.65 0.82 14.68
1/8/2022 2:30:00 PM 0.58 33.044 0.114 7.62 0.96 14.63
1/8/2022 2:45:00 PM 0.61 33.098 0.113 7.61 0.72 14.64
1/8/2022 3:00:00 PM 0.65 33.17 0.113 7.59 0.59 14.55
1/8/2022 3:15:00 PM 0.74 33.332 0.113 7.58 0.75 14.55
1/8/2022 3:30:00 PM 0.68 33.224 0.113 7.6 0.76 14.5
1/8/2022 3:45:00 PM 0.76 33.368 0.113 7.63 0.73 14.47
1/8/2022 4:00:00 PM 0.79 33.422 0.113 7.53 0.76 14.37
1/8/2022 4:15:00 PM 0.75 33.35 0.113 7.53 0.66 14.25
1/8/2022 4:30:00 PM 0.75 33.35 0.114 7.56 0.63 14.31
1/8/2022 4:45:00 PM 0.89 33.602 0.114 7.54 0.59 14.3
1/8/2022 5:00:00 PM 0.75 33.35 0.114 7.53 0.63 14.3
1/8/2022 5:15:00 PM 0.66 33.188 0.114 7.58 0.78 14.32
1/8/2022 5:30:00 PM 0.65 33.17 0.114 7.53 0.71 14.33
1/8/2022 5:45:00 PM 0.62 33.116 0.114 7.56 0.62 14.31
1/8/2022 6:00:00 PM 0.68 33.224 0.114 7.51 0.73 13.98
1/8/2022 6:15:00 PM 0.58 33.044 0.115 7.48 0.59 14.18
1/8/2022 6:30:00 PM 0.57 33.026 0.115 7.51 0.67 14.13
1/8/2022 6:45:00 PM 0.51 32.918 0.115 7.5 0.7 14.2
1/8/2022 7:00:00 PM 0.45 32.81 0.115 7.54 0.56 14.3
1/8/2022 7:15:00 PM 0.47 32.846 0.115 7.51 0.71 14.25
1/8/2022 7:30:00 PM 0.39 32.702 0.115 7.54 0.65 14.3
1/8/2022 7:45:00 PM 0.41 32.738 0.115 7.53 0.93 14.32
1/8/2022 8:00:00 PM 0.38 32.684 0.115 7.52 0.67 14.29
1/8/2022 8:15:00 PM 0.4 32.72 0.115 7.52 0.68 14.32
1/8/2022 8:30:00 PM 0.42 32.756 0.116 7.49 0.61 14.27
1/8/2022 8:45:00 PM 0.39 32.702 0.116 7.53 0.77 14.35
1/8/2022 9:00:00 PM 0.36 32.648 0.116 7.48 0.66 14.31
1/8/2022 9:15:00 PM 0.36 32.648 0.116 7.52 0.73 14.28
1/8/2022 9:30:00 PM 0.41 32.738 0.116 7.53 0.7 14.26
1/8/2022 9:45:00 PM 0.36 32.648 0.116 7.54 0.71 14.3
1/8/2022 10:00:00 PM 0.4 32.72 0.116 7.54 0.63 14.25
1/8/2022 10:15:00 PM 0.44 32.792 0.116 7.52 0.66 14.11
1/8/2022 10:30:00 PM 0.45 32.81 0.116 7.52 0.58 14.23
1/8/2022 10:45:00 PM 0.59 33.062 0.116 7.51 0.92 14.17
1/8/2022 11:00:00 PM 0.54 32.972 0.116 7.51 0.7 14.22
1/8/2022 11:15:00 PM 0.5 32.9 0.116 7.54 0.8 14.24
1/8/2022 11:30:00 PM 0.59 33.062 0.116 7.51 0.53 14.19
1/8/2022 11:45:00 PM 0.62 33.116 0.116 7.51 1.19 14.1
1/9/2022 12:00:00 AM 0.66 33.188 0.116 7.44 1.67 14.15
1/9/2022 12:15:00 AM 0.72 33.296 0.116 7.51 1.01 14.1
1/9/2022 12:30:00 AM 0.74 33.332 0.117 7.52 0.94 14.09
1/9/2022 12:45:00 AM 0.71 33.278 0.116 7.55 1.27 14.18
1/9/2022 1:00:00 AM 0.74 33.332 0.116 7.47 1.69 14.1
1/9/2022 1:15:00 AM 0.72 33.296 0.116 7.53 1.46 14.14
1/9/2022 1:30:00 AM 0.82 33.476 0.116 7.52 1.45 14.07
1/9/2022 1:45:00 AM 0.83 33.494 0.116 7.49 0.94 14.05
1/9/2022 2:00:00 AM 0.83 33.494 0.116 7.53 1.16 14.09
1/9/2022 2:15:00 AM 0.88 33.584 0.116 7.54 1.58 14.05
1/9/2022 2:30:00 AM 0.96 33.728 0.116 7.55 0.96 14.01
1/9/2022 2:45:00 AM 0.94 33.692 0.116 7.54 1.91 14
1/9/2022 3:00:00 AM 0.98 33.764 0.116 7.54 0.91 13.99
1/9/2022 3:15:00 AM 1.06 33.908 0.116 7.51 0.86 13.93
1/9/2022 3:30:00 AM 1.05 33.89 0.116 7.54 1.05 13.92
1/9/2022 3:45:00 AM 1.08 33.944 0.116 7.55 0.92 13.9
1/9/2022 4:00:00 AM 1.28 34.304 0.116 7.41 1.09 13.5
1/9/2022 4:15:00 AM 1.14 34.052 0.116 7.55 0.88 13.9
1/9/2022 4:30:00 AM 1.24 34.232 0.116 7.49 0.81 13.64
1/9/2022 4:45:00 AM 1.29 34.322 0.116 7.49 0.84 13.72
1/9/2022 5:00:00 AM 1.26 34.268 0.116 7.52 1.3 13.83
1/9/2022 5:15:00 AM 1.24 34.232 0.116 7.48 1.43 13.78
1/9/2022 5:30:00 AM 1.29 34.322 0.116 7.54 2.2 13.83
1/9/2022 5:45:00 AM 1.45 34.61 0.116 7.48 1.7 13.62
1/9/2022 6:00:00 AM 1.35 34.43 0.116 7.47 1.12 13.74
1/9/2022 6:15:00 AM 1.35 34.43 0.116 7.54 0.89 13.76
1/9/2022 6:30:00 AM 1.4 34.52 0.116 7.54 1.63 13.72
1/9/2022 6:45:00 AM 1.43 34.574 0.116 7.54 0.86 13.73
1/9/2022 7:00:00 AM 1.53 34.754 0.116 7.47 0.9 13.46
1/9/2022 7:15:00 AM 1.53 34.754 0.116 7.51 0.75 13.62
1/9/2022 7:30:00 AM 1.46 34.628 0.116 7.51 1.03 13.63
1/9/2022 7:45:00 AM 1.46 34.628 0.116 7.54 1.12 13.75
1/9/2022 8:00:00 AM 1.58 34.844 0.116 7.49 0.81 13.5
1/9/2022 8:15:00 AM 1.56 34.808 0.116 7.51 0.91 13.62
1/9/2022 8:30:00 AM 1.52 34.736 0.115 7.56 1.8 13.78
1/9/2022 8:45:00 AM 1.6 34.88 0.115 7.53 1.83 13.66
1/9/2022 9:00:00 AM 1.67 35.006 0.115 7.52 0.71 13.77
1/9/2022 9:15:00 AM 1.65 34.97 0.115 7.59 1.26 13.91
1/9/2022 9:30:00 AM 1.73 35.114 0.115 7.54 1.18 13.82
1/9/2022 9:45:00 AM 2.14 35.852 0.117 7.53 1.45 13.3
1/9/2022 10:00:00 AM 1.84 35.312 0.115 7.6 1.71 13.86
1/9/2022 10:15:00 AM 1.94 35.492 0.115 7.6 1.9 13.96
1/9/2022 10:30:00 AM 1.92 35.456 0.114 7.56 2.02 13.9
1/9/2022 10:45:00 AM 1.95 35.51 0.114 7.67 1.18 14.09
1/9/2022 11:00:00 AM 2.08 35.744 0.114 7.63 1.99 13.96
1/9/2022 11:15:00 AM 2.13 35.834 0.114 7.65 2.18 14.02
1/9/2022 11:30:00 AM 2.22 35.996 0.114 7.64 0.94 13.61
1/9/2022 11:45:00 AM 2.21 35.978 0.114 7.64 0.76 14
1/9/2022 12:00:00 PM 2.34 36.212 0.114 7.51 1.09 13.7
1/9/2022 12:15:00 PM 2.42 36.356 0.113 7.56 1.39 13.72
1/9/2022 12:30:00 PM 2.45 36.41 0.114 7.72 0.82 13.98
1/9/2022 12:45:00 PM 2.49 36.482 0.113 7.62 1.38 13.62
1/9/2022 1:00:00 PM 2.52 36.536 0.113 7.68 1.3 13.82
1/9/2022 1:15:00 PM 2.56 36.608 0.113 7.65 0.79 13.79
1/9/2022 1:30:00 PM 2.61 36.698 0.113 7.68 1.42 13.76
1/9/2022 1:45:00 PM 2.64 36.752 0.114 7.69 1.36 13.83
1/9/2022 2:00:00 PM 2.67 36.806 0.113 7.59 1.7 13.51
1/9/2022 2:15:00 PM 2.68 36.824 0.113 7.58 0.79 13.69
1/9/2022 2:30:00 PM 2.7 36.86 0.113 7.66 1.28 13.65
1/9/2022 2:45:00 PM 2.71 36.878 0.113 7.68 0.98 13.64
1/9/2022 3:00:00 PM 2.72 36.896 0.114 7.64 0.81 13.56
1/9/2022 3:15:00 PM 2.76 36.968 0.114 7.57 0.83 13.48
1/9/2022 3:30:00 PM 2.75 36.95 0.114 7.64 1.33 13.4
1/9/2022 3:45:00 PM 2.78 37.004 0.114 7.62 0.97 13.4
1/9/2022 4:00:00 PM 2.73 36.914 0.114 7.63 1.11 13.37
1/9/2022 4:15:00 PM 2.76 36.968 0.114 7.6 0.95 13.38
1/9/2022 4:30:00 PM 2.82 37.076 0.114 7.54 0.76 13.16
1/9/2022 4:45:00 PM 2.71 36.878 0.115 7.58 1.55 13.24
1/9/2022 5:00:00 PM 2.72 36.896 0.115 7.61 1.27 13.27
1/9/2022 5:15:00 PM 2.75 36.95 0.115 7.59 1.92 13.21
1/9/2022 5:30:00 PM 2.82 37.076 0.116 7.55 1.1 13.2
1/9/2022 5:45:00 PM 2.75 36.95 0.115 7.59 1.4 13.18
1/9/2022 6:00:00 PM 2.74 36.932 0.115 7.58 1.32 13.19
1/9/2022 6:15:00 PM 2.73 36.914 0.115 7.58 1.48 13.19
1/9/2022 6:30:00 PM 2.73 36.914 0.116 7.53 1.81 13.17
1/9/2022 6:45:00 PM 2.73 36.914 0.116 7.56 1.78 13.14
1/9/2022 7:00:00 PM 2.77 36.986 0.116 7.57 0.81 13.11
1/9/2022 7:15:00 PM 2.74 36.932 0.116 7.57 1.78 13.16
1/9/2022 7:30:00 PM 2.77 36.986 0.116 7.55 1.03 13.13
1/9/2022 7:45:00 PM 2.73 36.914 0.116 7.56 1.4 13.17
1/9/2022 8:00:00 PM 2.74 36.932 0.116 7.59 1.15 13.23
1/9/2022 8:15:00 PM 2.76 36.968 0.116 7.52 1.21 12.96
1/9/2022 8:30:00 PM 2.78 37.004 0.115 7.57 1.04 13.15
1/9/2022 8:45:00 PM 2.74 36.932 0.116 7.57 1.37 13.18
1/9/2022 9:00:00 PM 2.91 37.238 0.116 7.54 1.88 13.16
1/9/2022 9:15:00 PM 2.82 37.076 0.116 7.53 1.3 13.1
1/9/2022 9:30:00 PM 2.83 37.094 0.116 7.55 0.81 12.98
1/9/2022 9:45:00 PM 2.88 37.184 0.116 7.51 0.83 12.97
1/9/2022 10:00:00 PM 2.83 37.094 0.116 7.52 1.07 13.15
1/9/2022 10:15:00 PM 2.8 37.04 0.116 7.57 1.36 13.17
1/9/2022 10:30:00 PM 2.85 37.13 0.116 7.56 0.76 13.08
1/9/2022 10:45:00 PM 2.81 37.058 0.116 7.55 1.51 13.1
1/9/2022 11:00:00 PM 2.84 37.112 0.116 7.55 0.72 13.11
1/9/2022 11:15:00 PM 2.79 37.022 0.116 7.54 0.74 13.17
1/9/2022 11:30:00 PM 2.72 36.896 0.116 7.62 0.53 13.26
1/9/2022 11:45:00 PM 2.71 36.878 0.116 7.57 0.83 13.22
1/10/2022 12:00:00 AM 2.69 36.842 0.116 7.57 0.46 13.23
1/10/2022 12:15:00 AM 2.63 36.734 0.116 7.59 0.46 13.23
1/10/2022 12:30:00 AM 2.6 36.68 0.116 7.57 0.7 13.26
1/10/2022 12:45:00 AM 2.59 36.662 0.116 7.56 0.49 13.22
1/10/2022 1:00:00 AM 2.5 36.5 0.116 7.59 0.48 13.31
1/10/2022 1:15:00 AM 2.46 36.428 0.116 7.58 0.48 13.29
1/10/2022 1:30:00 AM 2.4 36.32 0.116 7.58 0.43 13.28
1/10/2022 1:45:00 AM 2.4 36.32 0.116 7.5 0.46 13.19
1/10/2022 2:00:00 AM 2.3 36.14 0.116 7.57 0.48 13.37
1/10/2022 2:15:00 AM 2.21 35.978 0.116 7.58 0.72 13.42
1/10/2022 2:30:00 AM 2.12 35.816 0.116 7.59 0.45 13.46
1/10/2022 2:45:00 AM 2.07 35.726 0.116 7.54 0.47 13.37
1/10/2022 3:00:00 AM 2.04 35.672 0.116 7.55 0.46 13.41
1/10/2022 3:15:00 AM 1.97 35.546 0.116 7.58 0.46 13.51
1/10/2022 3:30:00 AM 2.02 35.636 0.116 7.51 0.43 13.3
1/10/2022 3:45:00 AM 1.89 35.402 0.116 7.55 0.47 13.47
1/10/2022 4:00:00 AM 1.85 35.33 0.117 7.57 0.57 13.55
1/10/2022 4:15:00 AM 1.72 35.096 0.116 7.53 0.81 13.52
1/10/2022 4:30:00 AM 1.65 34.97 0.116 7.53 0.44 13.5
1/10/2022 4:45:00 AM 1.57 34.826 0.116 7.57 0.44 13.6
1/10/2022 5:00:00 AM 1.55 34.79 0.116 7.54 0.6 13.65
1/10/2022 5:15:00 AM 1.46 34.628 0.116 7.57 1.06 13.69
1/10/2022 5:30:00 AM 1.42 34.556 0.116 7.57 0.53 13.71
1/10/2022 5:45:00 AM 1.33 34.394 0.117 7.57 0.64 13.74
1/10/2022 6:00:00 AM 1.28 34.304 0.117 7.53 0.54 13.71
1/10/2022 6:15:00 AM 1.18 34.124 0.116 7.56 0.85 13.84
1/10/2022 6:30:00 AM 1.14 34.052 0.117 7.58 0.48 13.85
1/10/2022 6:45:00 AM 1.2 34.16 0.117 7.52 0.53 13.79
1/10/2022 7:00:00 AM 0.99 33.782 0.117 7.56 0.47 13.88
1/10/2022 7:15:00 AM 1.08 33.944 0.117 7.47 0.6 13.75
1/10/2022 7:30:00 AM 0.89 33.602 0.117 7.53 0.65 13.86
1/10/2022 7:45:00 AM 1.05 33.89 0.117 7.53 0.7 13.68
1/10/2022 8:00:00 AM 0.79 33.422 0.117 7.49 0.53 13.95
1/10/2022 8:15:00 AM 0.74 33.332 0.117 7.56 0.6 14.11
1/10/2022 8:30:00 AM 0.77 33.386 0.117 7.51 0.47 14.09
1/10/2022 8:45:00 AM 0.73 33.314 0.116 7.6 0.52 14.29
1/10/2022 9:00:00 AM 0.7 33.26 0.116 7.6 0.52 14.37
1/10/2022 9:15:00 AM 0.72 33.296 0.116 7.64 0.49 14.44
1/10/2022 9:30:00 AM 0.76 33.368 0.116 7.64 0.48 14.48
1/10/2022 9:45:00 AM 0.86 33.548 0.116 7.63 0.5 14.54
1/10/2022 10:00:00 AM 0.74 33.332 0.116 7.67 0.46 14.59
1/10/2022 10:15:00 AM 0.79 33.422 0.116 7.69 0.53 14.58
1/10/2022 10:30:00 AM 0.9 33.62 0.116 7.67 0.49 14.56
1/10/2022 10:45:00 AM 0.81 33.458 0.115 7.68 0.59 14.63
1/10/2022 11:00:00 AM 0.85 33.53 0.116 7.63 0.6 14.62
1/10/2022 11:15:00 AM 0.91 33.638 0.115 7.6 0.49 14.55
1/10/2022 11:30:00 AM 0.9 33.62 0.115 7.67 0.57 14.59
1/10/2022 11:45:00 AM 0.93 33.674 0.115 7.72 0.47 14.62
1/10/2022 12:00:00 PM 1.1 33.98 0.115 7.68 0.48 14.58
1/10/2022 12:15:00 PM 1.25 34.25 0.114 7.63 0.84 14.42
1/10/2022 12:30:00 PM 1.18 34.124 0.114 7.65 0.63 14.53
1/10/2022 12:45:00 PM 1.32 34.376 0.114 7.67 0.5 14.39
1/10/2022 1:00:00 PM 1.31 34.358 0.114 7.74 0.49 14.51
1/10/2022 1:15:00 PM 1.25 34.25 0.114 7.7 0.58 14.47
1/10/2022 1:30:00 PM 1.31 34.358 0.114 7.72 0.67 14.44
1/10/2022 1:45:00 PM 1.32 34.376 0.114 7.73 0.47 14.42
1/10/2022 2:00:00 PM 1.44 34.592 0.114 7.74 0.56 14.36
1/10/2022 2:15:00 PM 1.39 34.502 0.114 7.74 0.56 14.37
1/10/2022 2:30:00 PM 1.38 34.484 0.114 7.7 0.49 14.33
1/10/2022 2:45:00 PM 1.32 34.376 0.114 7.7 0.55 14.21
1/10/2022 3:00:00 PM 1.35 34.43 0.114 7.67 0.84 14.2
1/10/2022 3:15:00 PM 1.37 34.466 0.114 7.68 0.46 14.19
1/10/2022 3:30:00 PM 1.29 34.322 0.114 7.66 0.58 14.25
1/10/2022 3:45:00 PM 1.29 34.322 0.114 7.61 0.48 14.17
1/10/2022 4:00:00 PM 1.25 34.25 0.114 7.6 0.5 14.12
1/10/2022 4:15:00 PM 1.28 34.304 0.115 7.67 0.97 14.16
1/10/2022 4:30:00 PM 1.27 34.286 0.115 7.64 0.61 14.08
1/10/2022 4:45:00 PM 1.22 34.196 0.115 7.59 0.45 14.01
1/10/2022 5:00:00 PM 1.11 33.998 0.115 7.63 0.53 14.08
1/10/2022 5:15:00 PM 1.13 34.034 0.115 7.58 0.47 14.01
1/10/2022 5:30:00 PM 1.12 34.016 0.116 7.59 0.57 13.92
1/10/2022 5:45:00 PM 1.02 33.836 0.116 7.57 0.45 13.89
1/10/2022 6:00:00 PM 1 33.8 0.116 7.58 0.51 13.93
1/10/2022 6:15:00 PM 0.98 33.764 0.116 7.56 0.58 13.94
1/10/2022 6:30:00 PM 0.94 33.692 0.116 7.56 219.96 13.92
1/10/2022 6:45:00 PM 0.92 33.656 0.117 7.57 11097.31 13.91
1/10/2022 7:00:00 PM 0.82 33.476 0.118 7.5 8191.33 13.98
1/10/2022 7:15:00 PM 0.83 33.494 0.117 7.54 7191.39 13.87
1/10/2022 7:30:00 PM 0.85 33.53 0.117 7.52 6722.45 13.91
1/10/2022 7:45:00 PM 0.77 33.386 0.117 7.54 11092.15 14
1/10/2022 8:00:00 PM 0.75 33.35 0.117 7.54 11293.71 14.01
1/10/2022 8:15:00 PM 0.69 33.242 0.117 7.57 11178.92 14.04
1/10/2022 8:30:00 PM 0.67 33.206 0.117 7.5 11308.8 13.92
1/10/2022 8:45:00 PM 0.61 33.098 0.117 7.53 11760.21 13.98
1/10/2022 9:00:00 PM 0.62 33.116 0.118 7.51 11795.68 13.92
1/10/2022 9:15:00 PM 0.53 32.954 0.118 7.53 11803.71 14.05
1/10/2022 9:30:00 PM 0.45 32.81 0.118 7.53 12160.99 14.1
1/10/2022 9:45:00 PM 0.4 32.72 0.118 7.55 11914.22 14.1
1/10/2022 10:00:00 PM 0.25 32.45 0.118 7.56 11741.48 14.18
1/10/2022 10:15:00 PM 0.12 32.216 0.118 7.58 11731 14.26
1/10/2022 10:30:00 PM 0.26 32.468 0.118 7.57 11796.09 14.2
1/10/2022 10:45:00 PM 0.15 32.27 0.118 7.54 11589.23 14.3
1/10/2022 11:00:00 PM 0.04 32.072 0.118 7.6 11421.05 14.4
1/10/2022 11:15:00 PM 0.04 32.072 0.118 7.62 11656.25 14.42
1/10/2022 11:30:00 PM 0.06 32.108 0.118 7.62 11651.23 14.43
1/10/2022 11:45:00 PM 0.04 32.072 0.118 7.62 11607.39 14.45
1/11/2022 12:00:00 AM 0.03 32.054 0.118 7.63 11610.26 14.48
1/11/2022 12:15:00 AM 0 32 0.118 7.62 11571.95 14.49
1/11/2022 12:30:00 AM 0 32 0.119 7.62 11677.39 14.48
1/11/2022 12:45:00 AM 0.02 32.036 0.119 7.63 11561.75 14.51
1/11/2022 1:00:00 AM 0.06 32.108 0.119 7.63 11673.68 14.45
1/11/2022 1:15:00 AM 0.04 32.072 0.119 7.63 11750.35 14.53
1/11/2022 1:30:00 AM 0.04 32.072 0.119 7.63 12127.76 14.5
1/11/2022 1:45:00 AM 0.01 32.018 0.119 7.62 11778.03 14.51
1/11/2022 2:00:00 AM 0.02 32.036 0.119 7.62 11796.84 14.48
1/11/2022 2:15:00 AM 0.05 32.09 0.119 7.61 11835.32 14.48
1/11/2022 2:30:00 AM 0.04 32.072 0.119 7.61 11706.23 14.49
1/11/2022 2:45:00 AM 0.06 32.108 0.12 7.61 11753.79 14.45
1/11/2022 3:00:00 AM 0.08 32.144 0.12 7.61 11830.48 14.47
1/11/2022 3:15:00 AM 0.03 32.054 0.12 7.61 11848.27 14.5
1/11/2022 3:30:00 AM 0.02 32.036 0.12 7.6 4637.55 14.49
1/11/2022 3:45:00 AM -0.01 31.982 0.12 7.62 4178.36 14.54
1/11/2022 4:00:00 AM 0.05 32.09 0.12 7.6 4226.33 14.52
1/11/2022 4:15:00 AM 0.04 32.072 0.12 7.6 4138.86 14.51
1/11/2022 4:30:00 AM 0.08 32.144 0.121 7.54 3803.42 14.49
1/11/2022 4:45:00 AM 0.05 32.09 0.121 7.61 4309.89 14.49
1/11/2022 5:00:00 AM 0.01 32.018 0.121 7.6 4290.14 14.5
1/11/2022 5:15:00 AM 0.06 32.108 0.121 7.6 4320.81 14.53
1/11/2022 5:30:00 AM 0.12 32.216 0.121 7.54 4286.34 14.49
1/11/2022 5:45:00 AM 0.01 32.018 0.121 7.55 4249.18 14.48
1/11/2022 6:00:00 AM 0.07 32.126 0.121 7.59 4280.42 14.53
1/11/2022 6:15:00 AM 0.03 32.054 0.121 7.56 3805.41 14.51
1/11/2022 6:30:00 AM 0.36 32.648 0.121 7.5 4042.39 14.28
1/11/2022 6:45:00 AM 0.08 32.144 0.121 7.56 4121.3 14.5
1/11/2022 7:00:00 AM 0.07 32.126 0.121 7.48 4110.61 14.29
1/11/2022 7:15:00 AM 0.14 32.252 0.122 7.54 4115.51 14.5
1/11/2022 7:30:00 AM 0.16 32.288 0.122 7.49 4162.13 14.32
1/11/2022 7:45:00 AM 0.4 32.72 0.123 7.48 3995.95 14.22
1/11/2022 8:00:00 AM 0.48 32.864 0.122 7.42 3934.65 14.1
1/11/2022 8:15:00 AM 0.27 32.486 0.122 7.4 3977.3 13.82
1/11/2022 8:30:00 AM 0.28 32.504 0.122 7.43 3941.48 14.28
1/11/2022 8:45:00 AM 0.31 32.558 0.122 7.48 3999.85 14.48
1/11/2022 9:00:00 AM 0.2 32.36 0.123 7.49 4001.17 14.55
1/11/2022 9:15:00 AM 0.22 32.396 0.122 7.54 3948.44 14.71
1/11/2022 9:30:00 AM -0.05 31.91 0.122 7.74 64.38 15.05
1/11/2022 9:45:00 AM 0.01 32.018 0.122 7.74 63.49 15.09
1/11/2022 10:00:00 AM -0.01 31.982 0.122 7.76 128.93 15.06
1/11/2022 10:15:00 AM -0.06 31.892 0.122 7.8 91.51 15.15
1/11/2022 10:30:00 AM -0.01 31.982 0.122 7.76 1.98 15.07
1/11/2022 10:45:00 AM 0.01 32.018 0.122 7.78 0.55 15.06
1/11/2022 11:00:00 AM -0.04 31.928 0.122 7.81 3.98 15.15
1/11/2022 11:15:00 AM 0.02 32.036 0.122 7.77 14.16 15.08
1/11/2022 11:30:00 AM 0.03 32.054 0.122 7.76 13.46 15.08
1/11/2022 11:45:00 AM 0.09 32.162 0.122 7.73 16.48 15.04
1/11/2022 12:00:00 PM 0.09 32.162 0.122 7.73 17.1 15.06
1/11/2022 12:15:00 PM 0.12 32.216 0.122 7.73 17.74 15.02
1/11/2022 12:30:00 PM 0.12 32.216 0.122 7.71 18.44 14.96
1/11/2022 12:45:00 PM 0.11 32.198 0.122 7.7 19.22 14.98
1/11/2022 1:00:00 PM 0.09 32.162 0.122 7.72 20.52 15.01
1/11/2022 1:15:00 PM 0.1 32.18 0.121 7.71 19.76 14.97
1/11/2022 1:30:00 PM 0.1 32.18 0.121 7.72 20.54 14.99
1/11/2022 1:45:00 PM 0.09 32.162 0.121 7.72 20.45 14.97
1/11/2022 2:00:00 PM 0.11 32.198 0.121 7.7 24.93 14.96
1/11/2022 2:15:00 PM 0.08 32.144 0.12 7.71 19.87 14.91
1/11/2022 2:30:00 PM 0.06 32.108 0.12 7.71 22.6 14.93
1/11/2022 2:45:00 PM 0.05 32.09 0.12 7.7 22.62 14.92
1/11/2022 3:00:00 PM 0.06 32.108 0.12 7.69 23.5 14.91
1/11/2022 3:15:00 PM 0.06 32.108 0.12 7.7 21.72 14.89
1/11/2022 3:30:00 PM 0.07 32.126 0.12 7.69 21.62 14.86
1/11/2022 3:45:00 PM 0.05 32.09 0.119 7.69 20.48 14.81
1/11/2022 4:00:00 PM 0.06 32.108 0.12 7.68 24.58 14.84
1/11/2022 4:15:00 PM 0.05 32.09 0.119 7.68 20.72 14.8
1/11/2022 4:30:00 PM 0.07 32.126 0.119 7.67 21.83 14.74
1/11/2022 4:45:00 PM 0.12 32.216 0.12 7.65 19.63 14.69
1/11/2022 5:00:00 PM 0.04 32.072 0.12 7.66 24.69 14.71
1/11/2022 5:15:00 PM 0.05 32.09 0.12 7.64 25.48 14.68
1/11/2022 5:30:00 PM 0.13 32.234 0.12 7.64 23.5 14.57
1/11/2022 5:45:00 PM 0.05 32.09 0.121 7.63 22.33 14.61
1/11/2022 6:00:00 PM 0.12 32.216 0.121 7.61 21.44 14.5
1/11/2022 6:15:00 PM 0.07 32.126 0.121 7.61 21.89 14.54
1/11/2022 6:30:00 PM 0.05 32.09 0.121 7.61 21.12 14.55
1/11/2022 6:45:00 PM 0.1 32.18 0.122 7.61 23.03 14.52
1/11/2022 7:00:00 PM 0.09 32.162 0.122 7.6 23.27 14.51
1/11/2022 7:15:00 PM 0.05 32.09 0.122 7.61 22.47 14.53
1/11/2022 7:30:00 PM 0.08 32.144 0.122 7.6 22.96 14.52
1/11/2022 7:45:00 PM 0.08 32.144 0.122 7.6 25.82 14.51
1/11/2022 8:00:00 PM 0.08 32.144 0.123 7.6 23.69 14.51
1/11/2022 8:15:00 PM 0.08 32.144 0.123 7.6 25.79 14.49
1/11/2022 8:30:00 PM 0.11 32.198 0.122 7.59 158.83 14.44
1/11/2022 8:45:00 PM 0.09 32.162 0.123 7.58 114.37 14.46
1/11/2022 9:00:00 PM 0.06 32.108 0.123 7.58 77.08 14.5
1/11/2022 9:15:00 PM 0.06 32.108 0.123 7.59 61.93 14.49
1/11/2022 9:30:00 PM 0.04 32.072 0.123 7.58 50.91 14.5
1/11/2022 9:45:00 PM 0.05 32.09 0.123 7.58 46.79 14.5
1/11/2022 10:00:00 PM 0.06 32.108 0.123 7.59 39.98 14.47
1/11/2022 10:15:00 PM 0.05 32.09 0.123 7.58 36.95 14.48
1/11/2022 10:30:00 PM 0.14 32.252 0.123 7.58 38.67 14.35
1/11/2022 10:45:00 PM 0.09 32.162 0.123 7.58 38.62 14.42
1/11/2022 11:00:00 PM 0.12 32.216 0.123 7.57 32.67 14.39
1/11/2022 11:15:00 PM 0.04 32.072 0.123 7.58 35.48 14.46
1/11/2022 11:30:00 PM 0.08 32.144 0.123 7.57 32.58 14.43
1/11/2022 11:45:00 PM 0.05 32.09 0.123 7.58 33.22 14.41
1/12/2022 12:00:00 AM 0.04 32.072 0.123 7.58 30.52 14.4
1/12/2022 12:15:00 AM 0.06 32.108 0.124 7.57 32.53 14.44
1/12/2022 12:30:00 AM 0.05 32.09 0.124 7.58 30.57 14.44
1/12/2022 12:45:00 AM 0.09 32.162 0.124 7.58 30.7 14.35
1/12/2022 1:00:00 AM 0.02 32.036 0.124 7.58 32.9 14.44
1/12/2022 1:15:00 AM 0.06 32.108 0.123 7.58 30.43 14.4
1/12/2022 1:30:00 AM 0.04 32.072 0.124 7.59 29.98 14.41
1/12/2022 1:45:00 AM 0.04 32.072 0.123 7.58 30.31 14.4
1/12/2022 2:00:00 AM 0.04 32.072 0.123 7.58 30.69 14.39
1/12/2022 2:15:00 AM 0.07 32.126 0.123 7.59 29.47 14.38
1/12/2022 2:30:00 AM 0.05 32.09 0.123 7.59 25.01 14.38
1/12/2022 2:45:00 AM 0.06 32.108 0.123 7.59 25.7 14.36
1/12/2022 3:00:00 AM 0.04 32.072 0.123 7.59 25.22 14.38
1/12/2022 3:15:00 AM 0.04 32.072 0.123 7.6 25.62 14.39
1/12/2022 3:30:00 AM 0.08 32.144 0.123 7.58 25.91 14.32
1/12/2022 3:45:00 AM 0.05 32.09 0.123 7.58 22.45 14.37
1/12/2022 4:00:00 AM 0.05 32.09 0.123 7.57 22.82 14.33
1/12/2022 4:15:00 AM 0.05 32.09 0.123 7.58 23.42 14.34
1/12/2022 4:30:00 AM 0.08 32.144 0.123 7.58 23.7 14.27
1/12/2022 4:45:00 AM 0.07 32.126 0.123 7.57 23.07 14.33
1/12/2022 5:00:00 AM 0.08 32.144 0.123 7.58 20.46 14.31
1/12/2022 5:15:00 AM 0.06 32.108 0.123 7.57 21.38 14.31
1/12/2022 5:30:00 AM 0.06 32.108 0.123 7.58 22.49 14.27
1/12/2022 5:45:00 AM 0.09 32.162 0.123 7.58 20.82 14.31
1/12/2022 6:00:00 AM 0.07 32.126 0.123 7.58 19.9 14.32
1/12/2022 6:15:00 AM 0.04 32.072 0.123 7.59 22.75 14.37
1/12/2022 6:30:00 AM 0.04 32.072 0.123 7.58 21.5 14.34
1/12/2022 6:45:00 AM 0.13 32.234 0.123 7.58 22.9 14.27
1/12/2022 7:00:00 AM 0.06 32.108 0.123 7.58 22.38 14.34
1/12/2022 7:15:00 AM 0.06 32.108 0.123 7.59 24.03 14.32
1/12/2022 7:30:00 AM 0.07 32.126 0.123 7.57 21.43 14.3
1/12/2022 7:45:00 AM 0.03 32.054 0.123 7.59 19.54 14.39
1/12/2022 8:00:00 AM 0.05 32.09 0.123 7.59 19.53 14.39
1/12/2022 8:15:00 AM 0.05 32.09 0.123 7.59 21.4 14.39
1/12/2022 8:30:00 AM 0.07 32.126 0.123 7.6 21.26 14.43
1/12/2022 8:45:00 AM 0.09 32.162 0.122 7.61 18.29 14.47
1/12/2022 9:00:00 AM 0.1 32.18 0.122 7.61 18.72 14.48
1/12/2022 9:15:00 AM 0.06 32.108 0.122 7.63 18.82 14.6
1/12/2022 9:30:00 AM 0.08 32.144 0.122 7.62 18.93 14.64
1/12/2022 9:45:00 AM 0.11 32.198 0.121 7.66 17.18 14.65
1/12/2022 10:00:00 AM 0.1 32.18 0.121 7.68 18.51 14.71
1/12/2022 10:15:00 AM 0.07 32.126 0.121 7.67 6.05 14.77
1/12/2022 10:30:00 AM 0.1 32.18 0.12 7.7 5.35 14.79
1/12/2022 10:45:00 AM 0.11 32.198 0.12 7.69 6.34 14.77
1/12/2022 11:00:00 AM 0.09 32.162 0.12 7.71 5.13 14.78
1/12/2022 11:15:00 AM 0.1 32.18 0.119 7.71 5.27 14.75
1/12/2022 11:30:00 AM 0.1 32.18 0.119 7.72 5.1 14.76
1/12/2022 11:45:00 AM 0.1 32.18 0.119 7.72 4.98 14.78
1/12/2022 12:00:00 PM 0.12 32.216 0.118 7.73 5.25 14.73
1/12/2022 12:15:00 PM 0.13 32.234 0.118 7.72 5.22 14.74
1/12/2022 12:30:00 PM 0.11 32.198 0.118 7.72 5.15 14.74
1/12/2022 12:45:00 PM 0.1 32.18 0.118 7.74 5.26 14.74
1/12/2022 1:00:00 PM 0.11 32.198 0.117 7.74 5.41 14.73
1/12/2022 1:15:00 PM 0.09 32.162 0.117 7.75 5.46 14.72
1/12/2022 1:30:00 PM 0.09 32.162 0.117 7.75 5.21 14.72
1/12/2022 1:45:00 PM 0.08 32.144 0.117 7.75 5.08 14.7
1/12/2022 2:00:00 PM 0.11 32.198 0.116 7.76 4.88 14.68
1/12/2022 2:15:00 PM 0.08 32.144 0.116 7.76 4.81 14.69
1/12/2022 2:30:00 PM 0.14 32.252 0.116 7.75 5.36 14.64
1/12/2022 2:45:00 PM 0.09 32.162 0.115 7.76 5.88 14.69
1/12/2022 3:00:00 PM 0.06 32.108 0.115 7.77 6.9 14.66
1/12/2022 3:15:00 PM 0.1 32.18 0.115 7.77 7.49 14.63
1/12/2022 3:30:00 PM 0.08 32.144 0.115 7.77 5.44 14.63
1/12/2022 3:45:00 PM 0.09 32.162 0.115 7.77 5.97 14.62
1/12/2022 4:00:00 PM 0.1 32.18 0.115 7.77 7.49 14.55
1/12/2022 4:15:00 PM 0.12 32.216 0.115 7.76 7.79 14.53
1/12/2022 4:30:00 PM 0.16 32.288 0.115 7.74 5.63 14.44
1/12/2022 4:45:00 PM 0.17 32.306 0.115 7.72 5.9 14.38
1/12/2022 5:00:00 PM 0.18 32.324 0.115 7.72 7.5 14.3
1/12/2022 5:15:00 PM 0.17 32.306 0.115 7.7 6.16 14.29
1/12/2022 5:30:00 PM 0.16 32.288 0.115 7.68 6.15 14.28
1/12/2022 5:45:00 PM 0.2 32.36 0.116 7.68 7.78 14.24
1/12/2022 6:00:00 PM 0.23 32.414 0.116 7.66 9.34 14.21
1/12/2022 6:15:00 PM 0.25 32.45 0.116 7.65 5.88 14.13
1/12/2022 6:30:00 PM 0.25 32.45 0.116 7.64 5.79 14.19
1/12/2022 6:45:00 PM 0.3 32.54 0.116 7.63 7.22 14.12
1/12/2022 7:00:00 PM 0.29 32.522 0.116 7.63 6.16 14.14
1/12/2022 7:15:00 PM 0.37 32.666 0.116 7.6 5.56 14.01
1/12/2022 7:30:00 PM 0.39 32.702 0.116 7.58 22.52 14.04
1/12/2022 7:45:00 PM 0.4 32.72 0.117 7.6 0.59 14.06
1/12/2022 8:00:00 PM 0.38 32.684 0.117 7.61 0.57 14.07
1/12/2022 8:15:00 PM 0.45 32.81 0.117 7.6 0.61 14.01
1/12/2022 8:30:00 PM 0.54 32.972 0.117 7.59 0.6 13.99
1/12/2022 8:45:00 PM 0.53 32.954 0.117 7.51 0.53 13.74
1/12/2022 9:00:00 PM 0.51 32.918 0.117 7.52 0.59 13.87
1/12/2022 9:15:00 PM 0.61 33.098 0.117 7.55 0.55 13.94
1/12/2022 9:30:00 PM 0.53 32.954 0.117 7.58 0.61 14.02
1/12/2022 9:45:00 PM 0.63 33.134 0.117 7.51 0.55 13.84
1/12/2022 10:00:00 PM 0.54 32.972 0.117 7.57 0.57 13.98
1/12/2022 10:15:00 PM 0.57 33.026 0.117 7.56 0.57 13.93
1/12/2022 10:30:00 PM 0.62 33.116 0.117 7.55 0.55 13.93
1/12/2022 10:45:00 PM 0.68 33.224 0.117 7.52 0.52 13.88
1/12/2022 11:00:00 PM 0.66 33.188 0.117 7.52 0.49 13.78
1/12/2022 11:15:00 PM 0.69 33.242 0.117 7.52 0.52 13.89
1/12/2022 11:30:00 PM 0.65 33.17 0.117 7.54 0.56 13.87
1/12/2022 11:45:00 PM 0.65 33.17 0.117 7.57 0.51 13.94
1/13/2022 12:00:00 AM 0.67 33.206 0.117 7.56 0.51 13.89
1/13/2022 12:15:00 AM 0.71 33.278 0.117 7.54 0.55 13.89
1/13/2022 12:30:00 AM 0.72 33.296 0.117 7.51 0.51 13.72
1/13/2022 12:45:00 AM 0.75 33.35 0.117 7.48 0.49 13.78
1/13/2022 1:00:00 AM 0.73 33.314 0.117 7.55 0.48 13.85
1/13/2022 1:15:00 AM 0.71 33.278 0.117 7.55 0.49 13.86
1/13/2022 1:30:00 AM 0.71 33.278 0.118 7.55 0.46 13.91
1/13/2022 1:45:00 AM 0.73 33.314 0.118 7.52 0.49 13.83
1/13/2022 2:00:00 AM 0.83 33.494 0.118 7.47 0.48 13.66
1/13/2022 2:15:00 AM 0.73 33.314 0.118 7.54 0.43 13.84
1/13/2022 2:30:00 AM 0.87 33.566 0.118 7.5 0.5 13.71
1/13/2022 2:45:00 AM 0.77 33.386 0.118 7.55 0.46 13.89
1/13/2022 3:00:00 AM 0.78 33.404 0.117 7.54 0.47 13.79
1/13/2022 3:15:00 AM 0.8 33.44 0.118 7.56 0.41 13.88
1/13/2022 3:30:00 AM 0.77 33.386 0.118 7.58 0.43 13.87
1/13/2022 3:45:00 AM 0.77 33.386 0.118 7.57 0.48 13.95
1/13/2022 4:00:00 AM 0.81 33.458 0.118 7.57 0.42 13.78
1/13/2022 4:15:00 AM 0.8 33.44 0.118 7.57 0.45 13.83
1/13/2022 4:30:00 AM 0.82 33.476 0.118 7.54 0.45 13.85
1/13/2022 4:45:00 AM 0.83 33.494 0.118 7.57 0.43 13.9
1/13/2022 5:00:00 AM 0.83 33.494 0.118 7.58 0.43 13.83
1/13/2022 5:15:00 AM 0.87 33.566 0.118 7.55 0.4 13.75
1/13/2022 5:30:00 AM 0.86 33.548 0.118 7.59 0.45 13.91
1/13/2022 5:45:00 AM 0.84 33.512 0.118 7.59 0.41 13.88
1/13/2022 6:00:00 AM 0.87 33.566 0.118 7.57 0.43 13.86
1/13/2022 6:15:00 AM 0.89 33.602 0.118 7.53 0.45 13.8
1/13/2022 6:30:00 AM 0.87 33.566 0.118 7.56 0.46 13.78
1/13/2022 6:45:00 AM 0.86 33.548 0.118 7.58 0.4 13.86
1/13/2022 7:00:00 AM 0.84 33.512 0.118 7.57 0.45 13.84
1/13/2022 7:15:00 AM 0.86 33.548 0.118 7.56 0.45 13.77
1/13/2022 7:30:00 AM 0.88 33.584 0.118 7.57 0.44 13.72
1/13/2022 7:45:00 AM 0.9 33.62 0.118 7.55 0.41 13.79
1/13/2022 8:00:00 AM 0.85 33.53 0.118 7.56 0.41 13.89
1/13/2022 8:15:00 AM 0.88 33.584 0.118 7.58 0.36 13.92
1/13/2022 8:30:00 AM 0.91 33.638 0.118 7.59 0.36 13.95
1/13/2022 8:45:00 AM 0.93 33.674 0.118 7.57 0.39 13.96
1/13/2022 9:00:00 AM 0.96 33.728 0.118 7.62 0.43 14.09
1/13/2022 9:15:00 AM 1 33.8 0.118 7.62 0.39 14.17
1/13/2022 9:30:00 AM 1.11 33.998 0.117 7.59 0.37 14.06
1/13/2022 9:45:00 AM 1.2 34.16 0.117 7.64 0.36 14.17
1/13/2022 10:00:00 AM 1.3 34.34 0.117 7.62 0.38 14.09
1/13/2022 10:15:00 AM 1.3 34.34 0.117 7.66 0.41 14.11
1/13/2022 10:30:00 AM 1.36 34.448 0.117 7.69 0.36 14.22
1/13/2022 10:45:00 AM 1.38 34.484 0.117 7.69 0.38 14.15
1/13/2022 11:00:00 AM 1.45 34.61 0.117 7.66 0.39 14.16
1/13/2022 11:15:00 AM 1.5 34.7 0.117 7.73 0.38 14.1
1/13/2022 11:30:00 AM 1.54 34.772 0.117 7.69 0.36 14.08
1/13/2022 11:45:00 AM 1.58 34.844 0.116 7.69 0.45 14.09
1/13/2022 12:00:00 PM 1.72 35.096 0.116 7.72 0.42 13.97
1/13/2022 12:15:00 PM 1.76 35.168 0.116 7.71 0.38 13.91
1/13/2022 12:30:00 PM 1.81 35.258 0.116 7.71 0.39 14.06
1/13/2022 12:45:00 PM 1.9 35.42 0.116 7.62 0.42 13.99
1/13/2022 1:00:00 PM 1.95 35.51 0.116 7.66 0.41 13.94
1/13/2022 1:15:00 PM 2.06 35.708 0.116 7.63 0.36 13.84
1/13/2022 1:30:00 PM 2.14 35.852 0.116 7.7 0.35 13.88
1/13/2022 1:45:00 PM 2.13 35.834 0.116 7.69 0.4 13.8
1/13/2022 2:00:00 PM 2.2 35.96 0.116 7.75 0.41 13.87
1/13/2022 2:15:00 PM 2.26 36.068 0.116 7.74 0.39 13.78
1/13/2022 2:30:00 PM 2.23 36.014 0.116 7.77 0.41 13.79
1/13/2022 2:45:00 PM 2.29 36.122 0.116 7.75 0.41 13.64
1/13/2022 3:00:00 PM 2.35 36.23 0.116 7.67 0.45 13.56
1/13/2022 3:15:00 PM 2.37 36.266 0.115 7.72 0.39 13.64
1/13/2022 3:30:00 PM 2.42 36.356 0.115 7.73 0.4 13.6
1/13/2022 3:45:00 PM 2.45 36.41 0.115 7.73 0.33 13.59
1/13/2022 4:00:00 PM 2.46 36.428 0.115 7.74 0.35 13.57
1/13/2022 4:15:00 PM 2.47 36.446 0.115 7.75 0.45 13.57
1/13/2022 4:30:00 PM 2.49 36.482 0.116 7.71 0.38 13.44
1/13/2022 4:45:00 PM 2.45 36.41 0.116 7.74 0.38 13.48
1/13/2022 5:00:00 PM 2.45 36.41 0.116 7.7 0.39 13.37
1/13/2022 5:15:00 PM 2.41 36.338 0.116 7.67 0.37 13.35
1/13/2022 5:30:00 PM 2.32 36.176 0.116 7.69 0.4 13.39
1/13/2022 5:45:00 PM 2.32 36.176 0.116 7.66 0.41 13.34
1/13/2022 6:00:00 PM 2.26 36.068 0.117 7.65 0.46 13.28
1/13/2022 6:15:00 PM 2.23 36.014 0.117 7.65 0.4 13.32
1/13/2022 6:30:00 PM 2.13 35.834 0.117 7.66 0.39 13.42
1/13/2022 6:45:00 PM 2.13 35.834 0.117 7.64 0.4 13.39
1/13/2022 7:00:00 PM 2.09 35.762 0.117 7.64 0.35 13.33
1/13/2022 7:15:00 PM 2.04 35.672 0.117 7.61 0.43 13.37
1/13/2022 7:30:00 PM 2.04 35.672 0.117 7.64 0.38 13.39
1/13/2022 7:45:00 PM 2.02 35.636 0.117 7.62 0.38 13.43
1/13/2022 8:00:00 PM 1.98 35.564 0.117 7.63 0.38 13.4
1/13/2022 8:15:00 PM 1.98 35.564 0.118 7.61 0.43 13.37
1/13/2022 8:30:00 PM 1.97 35.546 0.117 7.59 0.35 13.34
1/13/2022 8:45:00 PM 1.97 35.546 0.118 7.62 0.38 13.38
1/13/2022 9:00:00 PM 1.97 35.546 0.118 7.59 0.32 13.39
1/13/2022 9:15:00 PM 1.93 35.474 0.118 7.63 0.37 13.42
1/13/2022 9:30:00 PM 1.95 35.51 0.118 7.55 0.37 13.42
1/13/2022 9:45:00 PM 1.95 35.51 0.118 7.62 0.39 13.42
1/13/2022 10:00:00 PM 1.94 35.492 0.118 7.6 0.42 13.41
1/13/2022 10:15:00 PM 1.93 35.474 0.118 7.62 0.41 13.44
1/13/2022 10:30:00 PM 1.95 35.51 0.118 7.6 0.43 13.39
1/13/2022 10:45:00 PM 1.91 35.438 0.118 7.59 0.4 13.43
1/13/2022 11:00:00 PM 1.88 35.384 0.118 7.64 0.41 13.48
1/13/2022 11:15:00 PM 1.94 35.492 0.118 7.6 0.4 13.34
1/13/2022 11:30:00 PM 1.92 35.456 0.118 7.61 0.55 13.32
1/13/2022 11:45:00 PM 1.91 35.438 0.118 7.61 0.44 13.43
1/14/2022 12:00:00 AM 1.96 35.528 0.118 7.62 0.41 13.38
1/14/2022 12:15:00 AM 1.95 35.51 0.118 7.63 0.37 13.41
1/14/2022 12:30:00 AM 1.95 35.51 0.118 7.59 0.36 13.43
1/14/2022 12:45:00 AM 1.98 35.564 0.118 7.62 0.38 13.42
1/14/2022 1:00:00 AM 1.97 35.546 0.118 7.6 0.39 13.46
1/14/2022 1:15:00 AM 2 35.6 0.118 7.61 0.41 13.38
1/14/2022 1:30:00 AM 2.01 35.618 0.118 7.61 0.38 13.4
1/14/2022 1:45:00 AM 2.08 35.744 0.118 7.58 0.44 13.37
1/14/2022 2:00:00 AM 2.03 35.654 0.118 7.62 0.39 13.43
1/14/2022 2:15:00 AM 2.06 35.708 0.118 7.63 0.43 13.37
1/14/2022 2:30:00 AM 2.09 35.762 0.118 7.61 0.39 13.32
1/14/2022 2:45:00 AM 2.13 35.834 0.118 7.63 0.4 13.36
1/14/2022 3:00:00 AM 2.12 35.816 0.118 7.63 0.36 13.36
1/14/2022 3:15:00 AM 2.12 35.816 0.118 7.62 0.39 13.35
1/14/2022 3:30:00 AM 2.15 35.87 0.118 7.61 0.35 13.31
1/14/2022 3:45:00 AM 2.16 35.888 0.118 7.62 0.34 13.32
1/14/2022 4:00:00 AM 2.2 35.96 0.118 7.61 0.37 13.26
1/14/2022 4:15:00 AM 2.21 35.978 0.118 7.62 0.38 13.34
1/14/2022 4:30:00 AM 2.18 35.924 0.118 7.6 0.38 13.32
1/14/2022 4:45:00 AM 2.21 35.978 0.118 7.55 0.36 13.31
1/14/2022 5:00:00 AM 2.19 35.942 0.118 7.62 0.42 13.35
1/14/2022 5:15:00 AM 2.21 35.978 0.118 7.64 0.35 13.36
1/14/2022 5:30:00 AM 2.23 36.014 0.118 7.63 0.38 13.31
1/14/2022 5:45:00 AM 2.23 36.014 0.118 7.64 0.38 13.35
1/14/2022 6:00:00 AM 2.28 36.104 0.118 7.63 0.35 13.32
1/14/2022 6:15:00 AM 2.3 36.14 0.118 7.62 0.36 13.28
1/14/2022 6:30:00 AM 2.27 36.086 0.118 7.63 0.36 13.29
1/14/2022 6:45:00 AM 2.32 36.176 0.118 7.62 0.35 13.26
1/14/2022 7:00:00 AM 2.36 36.248 0.118 7.65 0.37 13.25
1/14/2022 7:15:00 AM 2.33 36.194 0.118 7.67 0.31 13.35
1/14/2022 7:30:00 AM 2.33 36.194 0.118 7.66 0.33 13.31
1/14/2022 7:45:00 AM 2.33 36.194 0.118 7.66 0.37 13.33
1/14/2022 8:00:00 AM 2.33 36.194 0.118 7.66 0.34 13.34
1/14/2022 8:15:00 AM 2.31 36.158 0.118 7.67 0.33 13.38
1/14/2022 8:30:00 AM 2.31 36.158 0.118 7.67 0.32 13.38
1/14/2022 8:45:00 AM 2.31 36.158 0.118 7.69 0.34 13.44
1/14/2022 9:00:00 AM 2.3 36.14 0.118 7.7 0.33 13.55
1/14/2022 9:15:00 AM 2.36 36.248 0.117 7.73 0.34 13.62
1/14/2022 9:30:00 AM 2.36 36.248 0.117 7.74 0.29 13.64
1/14/2022 9:45:00 AM 2.37 36.266 0.117 7.75 0.34 13.74
1/14/2022 10:00:00 AM 2.36 36.248 0.117 7.77 0.33 13.74
1/14/2022 10:15:00 AM 2.38 36.284 0.117 7.77 0.36 13.73
1/14/2022 10:30:00 AM 2.38 36.284 0.117 7.78 0.36 13.78
1/14/2022 10:45:00 AM 2.43 36.374 0.117 7.77 0.35 13.75
1/14/2022 11:00:00 AM 2.44 36.392 0.116 7.79 0.34 13.75
1/14/2022 11:15:00 AM 2.42 36.356 0.116 7.8 0.33 13.78
1/14/2022 11:30:00 AM 2.42 36.356 0.116 7.8 0.35 13.73
1/14/2022 11:45:00 AM 2.39 36.302 0.116 7.81 0.34 13.76
1/14/2022 12:00:00 PM 2.43 36.374 0.116 7.81 0.37 13.76
1/14/2022 12:15:00 PM 2.45 36.41 0.116 7.8 0.4 13.77
1/14/2022 12:30:00 PM 2.48 36.464 0.116 7.81 0.33 13.78
1/14/2022 12:45:00 PM 2.5 36.5 0.116 7.84 0.39 13.84
1/14/2022 1:00:00 PM 2.55 36.59 0.116 7.84 0.4 13.8
1/14/2022 1:15:00 PM 2.56 36.608 0.115 7.82 0.35 13.82
1/14/2022 1:30:00 PM 2.59 36.662 0.115 7.83 0.35 13.79
1/14/2022 1:45:00 PM 2.58 36.644 0.115 7.83 0.35 13.84
1/14/2022 2:00:00 PM 2.58 36.644 0.115 7.84 0.35 13.81
1/14/2022 2:15:00 PM 2.55 36.59 0.115 7.84 0.34 13.74
1/14/2022 2:30:00 PM 2.5 36.5 0.115 7.84 0.37 13.74
1/14/2022 2:45:00 PM 2.51 36.518 0.115 7.83 0.39 13.77
1/14/2022 3:00:00 PM 2.51 36.518 0.115 7.82 0.36 13.74
1/14/2022 3:15:00 PM 2.46 36.428 0.115 7.83 0.36 13.76
1/14/2022 3:30:00 PM 2.39 36.302 0.115 7.81 0.33 13.78
1/14/2022 3:45:00 PM 2.34 36.212 0.115 7.8 0.38 13.76
1/14/2022 4:00:00 PM 2.32 36.176 0.115 7.81 0.4 13.76
1/14/2022 4:15:00 PM 2.28 36.104 0.115 7.77 0.33 13.7
1/14/2022 4:30:00 PM 2.19 35.942 0.116 7.79 0.38 13.74
1/14/2022 4:45:00 PM 2.14 35.852 0.116 7.77 0.35 13.72
1/14/2022 5:00:00 PM 2.03 35.654 0.116 7.77 0.36 13.69
1/14/2022 5:15:00 PM 1.94 35.492 0.116 7.74 0.34 13.66
1/14/2022 5:30:00 PM 1.84 35.312 0.116 7.72 0.38 13.63
1/14/2022 5:45:00 PM 1.76 35.168 0.116 7.72 0.34 13.66
1/14/2022 6:00:00 PM 1.68 35.024 0.116 7.7 0.38 13.63
1/14/2022 6:15:00 PM 1.58 34.844 0.117 7.7 0.38 13.66
1/14/2022 6:30:00 PM 1.47 34.646 0.117 7.69 0.41 13.7
1/14/2022 6:45:00 PM 1.34 34.412 0.117 7.69 0.34 13.76
1/14/2022 7:00:00 PM 1.23 34.214 0.117 7.69 0.39 13.81
1/14/2022 7:15:00 PM 1.16 34.088 0.118 7.66 0.36 13.8
1/14/2022 7:30:00 PM 1.06 33.908 0.118 7.68 0.4 13.85
1/14/2022 7:45:00 PM 0.94 33.692 0.118 7.66 0.38 13.88
1/14/2022 8:00:00 PM 0.84 33.512 0.118 7.67 0.37 13.96
1/14/2022 8:15:00 PM 0.76 33.368 0.118 7.65 0.39 13.95
1/14/2022 8:30:00 PM 0.64 33.152 0.118 7.66 0.4 14.01
1/14/2022 8:45:00 PM 0.56 33.008 0.118 7.65 0.4 14.07
1/14/2022 9:00:00 PM 0.51 32.918 0.118 7.6 0.4 14.01
1/14/2022 9:15:00 PM 0.41 32.738 0.119 7.64 0.4 14.14
1/14/2022 9:30:00 PM 0.39 32.702 0.119 7.61 0.4 14.07
1/14/2022 9:45:00 PM 0.21 32.378 0.119 7.65 0.4 14.25
1/14/2022 10:00:00 PM 0.15 32.27 0.119 7.64 0.36 14.25
1/14/2022 10:15:00 PM 0.12 32.216 0.119 7.61 0.39 14.17
1/14/2022 10:30:00 PM 0.01 32.018 0.119 7.65 0.41 14.34
1/14/2022 10:45:00 PM -0.04 31.928 0.119 7.68 0.43 14.44
1/14/2022 11:00:00 PM -0.03 31.946 0.119 7.69 0.4 14.48
1/14/2022 11:15:00 PM -0.04 31.928 0.12 7.69 0.42 14.52
1/14/2022 11:30:00 PM -0.03 31.946 0.12 7.69 0.42 14.51
1/14/2022 11:45:00 PM -0.02 31.964 0.12 7.68 0.39 14.49
1/15/2022 12:00:00 AM -0.04 31.928 0.121 7.69 0.39 14.53
1/15/2022 12:15:00 AM -0.01 31.982 0.121 7.68 0.39 14.5
1/15/2022 12:30:00 AM -0.03 31.946 0.121 7.68 0.38 14.49
1/15/2022 12:45:00 AM -0.03 31.946 0.121 7.68 0.35 14.52
1/15/2022 1:00:00 AM -0.03 31.946 0.122 7.68 0.39 14.5
1/15/2022 1:15:00 AM -0.02 31.964 0.122 7.68 0.38 14.48
1/15/2022 1:30:00 AM -0.01 31.982 0.122 7.67 0.48 14.45
1/15/2022 1:45:00 AM -0.03 31.946 0.122 7.68 0.43 14.51
1/15/2022 2:00:00 AM -0.04 31.928 0.123 7.67 0.43 14.5
1/15/2022 2:15:00 AM -0.02 31.964 0.123 7.66 0.39 14.5
1/15/2022 2:30:00 AM -0.03 31.946 0.123 7.65 0.4 14.5
1/15/2022 2:45:00 AM -0.01 31.982 0.123 7.66 0.4 14.49
1/15/2022 3:00:00 AM 0.02 32.036 0.124 7.65 0.39 14.46
1/15/2022 3:15:00 AM 0.01 32.018 0.124 7.63 0.38 14.42
1/15/2022 3:30:00 AM 0.02 32.036 0.124 7.63 0.35 14.43
1/15/2022 3:45:00 AM 0.01 32.018 0.125 7.64 0.38 14.45
1/15/2022 4:00:00 AM 0.03 32.054 0.125 7.64 0.37 14.44
1/15/2022 4:15:00 AM 0.2 32.36 0.125 7.57 0.29 14.28
1/15/2022 4:30:00 AM 0.17 32.306 0.125 7.51 0.3 14.15
1/15/2022 4:45:00 AM 0.37 32.666 0.126 7.51 0.31 14.21
1/15/2022 5:00:00 AM 0.22 32.396 0.126 7.43 0.32 13.96
1/15/2022 5:15:00 AM 0.38 32.684 0.126 7.51 0.34 13.76
1/15/2022 5:30:00 AM 0.6 33.08 0.126 7.55 0.31 13.95
1/15/2022 5:45:00 AM 0.22 32.396 0.126 7.55 0.3 14.14
1/15/2022 6:00:00 AM 0.19 32.342 0.127 7.52 0.31 14.19
1/15/2022 6:15:00 AM 0.15 32.27 0.127 7.58 0.27 14.37
1/15/2022 6:30:00 AM -0.02 31.964 0.128 7.64 0.34 14.53
1/15/2022 6:45:00 AM 0.05 32.09 0.128 7.6 0.35 14.33
1/15/2022 7:00:00 AM 0.06 32.108 0.128 7.6 0.42 14.41
1/15/2022 7:15:00 AM 0.13 32.234 0.128 7.56 0.32 14.2
1/15/2022 7:30:00 AM -0.02 31.964 0.129 7.63 0.32 14.52
1/15/2022 7:45:00 AM -0.04 31.928 0.129 7.64 0.32 14.57
1/15/2022 8:00:00 AM -0.03 31.946 0.129 7.64 0.29 14.57
1/15/2022 8:15:00 AM 0 32 0.129 7.65 0.32 14.62
1/15/2022 8:30:00 AM 0 32 0.129 7.65 0.36 14.61
1/15/2022 8:45:00 AM -0.04 31.928 0.129 7.67 0.37 14.71
1/15/2022 9:00:00 AM -0.04 31.928 0.129 7.68 0.28 14.76
1/15/2022 9:15:00 AM -0.01 31.982 0.129 7.66 0.36 14.79
1/15/2022 9:30:00 AM 0.04 32.072 0.129 7.68 0.27 14.79
1/15/2022 9:45:00 AM 0.06 32.108 0.129 7.68 0.31 14.84
1/15/2022 10:00:00 AM 0 32 0.129 7.71 0.4 14.88
1/15/2022 10:15:00 AM 0.02 32.036 0.129 7.71 0.34 14.98
1/15/2022 10:30:00 AM -0.01 31.982 0.128 7.74 0.75 14.99
1/15/2022 10:45:00 AM -0.02 31.964 0.128 7.76 0.31 15.03
1/15/2022 11:00:00 AM -0.03 31.946 0.128 7.77 0.35 15.02
1/15/2022 11:15:00 AM 0.19 32.342 0.128 7.68 0.41 14.82
1/15/2022 11:30:00 AM 0.1 32.18 0.128 7.73 0.43 14.93
1/15/2022 11:45:00 AM 0 32 0.127 7.78 0.5 15.05
1/15/2022 12:00:00 PM 0.02 32.036 0.127 7.79 0.44 15.06
1/15/2022 12:15:00 PM 0.03 32.054 0.127 7.78 0.38 15.04
1/15/2022 12:30:00 PM 0.02 32.036 0.126 7.79 0.38 15.07
1/15/2022 12:45:00 PM 0.01 32.018 0.126 7.8 0.39 15.07
1/15/2022 1:00:00 PM 0.01 32.018 0.125 7.8 0.39 15.07
1/15/2022 1:15:00 PM 0.02 32.036 0.125 7.81 0.39 15.08
1/15/2022 1:30:00 PM 0.01 32.018 0.124 7.82 0.38 15.09
1/15/2022 1:45:00 PM 0 32 0.124 7.82 0.45 15.08
1/15/2022 2:00:00 PM -0.01 31.982 0.123 7.82 0.38 15.09
1/15/2022 2:15:00 PM -0.01 31.982 0.123 7.82 0.47 15.08
1/15/2022 2:30:00 PM -0.01 31.982 0.123 7.83 0.45 15.09
1/15/2022 2:45:00 PM -0.02 31.964 0.123 7.83 0.47 15.06
1/15/2022 3:00:00 PM -0.03 31.946 0.122 7.83 0.46 15.07
1/15/2022 3:15:00 PM -0.05 31.91 0.122 7.85 0.45 15.07
1/15/2022 3:30:00 PM -0.05 31.91 0.122 7.84 0.57 15.06
1/15/2022 3:45:00 PM -0.06 31.892 0.122 7.84 0.79 15.05
1/15/2022 4:00:00 PM -0.06 31.892 0.122 7.84 0.59 15.04
1/15/2022 4:15:00 PM -0.07 31.874 0.121 7.83 0.58 15.01
1/15/2022 4:30:00 PM -0.07 31.874 0.121 7.82 0.49 14.97
1/15/2022 4:45:00 PM -0.08 31.856 0.122 7.81 0.53 14.93
1/15/2022 5:00:00 PM -0.08 31.856 0.122 7.79 0.63 14.87
1/15/2022 5:15:00 PM -0.08 31.856 0.122 7.77 0.5 14.82
1/15/2022 5:30:00 PM -0.08 31.856 0.122 7.75 0.49 14.77
1/15/2022 5:45:00 PM -0.08 31.856 0.122 7.74 0.45 14.74
1/15/2022 6:00:00 PM -0.07 31.874 0.122 7.72 0.48 14.69
1/15/2022 6:15:00 PM -0.06 31.892 0.123 7.7 0.46 14.65
1/15/2022 6:30:00 PM -0.06 31.892 0.123 7.7 0.48 14.64
1/15/2022 6:45:00 PM -0.05 31.91 0.123 7.68 0.43 14.62
1/15/2022 7:00:00 PM -0.05 31.91 0.123 7.68 0.44 14.6
1/15/2022 7:15:00 PM -0.04 31.928 0.124 7.67 0.44 14.59
1/15/2022 7:30:00 PM -0.04 31.928 0.124 7.67 0.44 14.58
1/15/2022 7:45:00 PM -0.04 31.928 0.124 7.66 0.44 14.56
1/15/2022 8:00:00 PM -0.03 31.946 0.124 7.65 0.42 14.56
1/15/2022 8:15:00 PM -0.03 31.946 0.124 7.65 0.38 14.55
1/15/2022 8:30:00 PM -0.03 31.946 0.125 7.65 0.41 14.55
1/15/2022 8:45:00 PM -0.03 31.946 0.125 7.64 0.38 14.55
1/15/2022 9:00:00 PM -0.03 31.946 0.125 7.64 0.38 14.55
1/15/2022 9:15:00 PM -0.04 31.928 0.125 7.64 0.38 14.55
1/15/2022 9:30:00 PM -0.03 31.946 0.125 7.63 0.42 14.53
1/15/2022 9:45:00 PM -0.04 31.928 0.126 7.64 0.37 14.54
1/15/2022 10:00:00 PM -0.02 31.964 0.126 7.63 0.38 14.53
1/15/2022 10:15:00 PM -0.03 31.946 0.126 7.63 0.35 14.55
1/15/2022 10:30:00 PM -0.02 31.964 0.126 7.63 0.37 14.55
1/15/2022 10:45:00 PM -0.03 31.946 0.126 7.63 0.37 14.54
1/15/2022 11:00:00 PM -0.04 31.928 0.126 7.63 0.36 14.54
1/15/2022 11:15:00 PM -0.03 31.946 0.126 7.62 0.33 14.53
1/15/2022 11:30:00 PM -0.03 31.946 0.127 7.62 0.36 14.54
1/15/2022 11:45:00 PM -0.04 31.928 0.127 7.62 0.36 14.53
1/16/2022 12:00:00 AM -0.04 31.928 0.127 7.62 0.36 14.53
1/16/2022 12:15:00 AM -0.03 31.946 0.127 7.62 0.35 14.52
1/16/2022 12:30:00 AM -0.03 31.946 0.127 7.62 0.39 14.51
1/16/2022 12:45:00 AM -0.02 31.964 0.127 7.61 0.31 14.51
1/16/2022 1:00:00 AM -0.04 31.928 0.128 7.61 0.38 14.52
1/16/2022 1:15:00 AM -0.04 31.928 0.128 7.61 0.28 14.51
1/16/2022 1:30:00 AM -0.03 31.946 0.128 7.61 0.35 14.5
1/16/2022 1:45:00 AM -0.02 31.964 0.128 7.61 0.34 14.49
1/16/2022 2:00:00 AM -0.02 31.964 0.128 7.61 0.33 14.51
1/16/2022 2:15:00 AM -0.04 31.928 0.128 7.6 0.41 14.5
1/16/2022 2:30:00 AM -0.05 31.91 0.128 7.6 0.33 14.47
1/16/2022 2:45:00 AM 0.01 32.018 0.129 7.59 0.32 14.44
1/16/2022 3:00:00 AM -0.01 31.982 0.129 7.58 0.36 14.44
1/16/2022 3:15:00 AM -0.02 31.964 0.129 7.6 0.37 14.46
1/16/2022 3:30:00 AM 0 32 0.129 7.57 0.33 14.46
1/16/2022 3:45:00 AM -0.02 31.964 0.129 7.59 0.36 14.48
1/16/2022 4:00:00 AM -0.01 31.982 0.129 7.58 0.39 14.46
1/16/2022 4:15:00 AM 0.02 32.036 0.129 7.57 0.33 14.43
1/16/2022 4:30:00 AM 0.01 32.018 0.13 7.59 0.33 14.45
1/16/2022 4:45:00 AM -0.02 31.964 0.13 7.58 0.35 14.44
1/16/2022 5:00:00 AM -0.01 31.982 0.13 7.57 0.34 14.41
1/16/2022 5:15:00 AM 0 32 0.13 7.53 0.33 14.33
1/16/2022 5:30:00 AM -0.02 31.964 0.13 7.58 0.3 14.42
1/16/2022 5:45:00 AM -0.01 31.982 0.13 7.56 0.32 14.41
1/16/2022 6:00:00 AM -0.02 31.964 0.13 7.58 0.35 14.43
1/16/2022 6:15:00 AM -0.02 31.964 0.131 7.58 0.29 14.41
1/16/2022 6:30:00 AM -0.01 31.982 0.131 7.57 0.32 14.4
1/16/2022 6:45:00 AM -0.03 31.946 0.131 7.57 0.35 14.41
1/16/2022 7:00:00 AM -0.01 31.982 0.131 7.57 0.28 14.38
1/16/2022 7:15:00 AM -0.05 31.91 0.131 7.58 0.34 14.4
1/16/2022 7:30:00 AM -0.04 31.928 0.131 7.57 0.34 14.4
1/16/2022 7:45:00 AM -0.03 31.946 0.131 7.57 0.29 14.4
1/16/2022 8:00:00 AM -0.02 31.964 0.131 7.57 0.31 14.4
1/16/2022 8:15:00 AM -0.02 31.964 0.131 7.58 0.33 14.45
1/16/2022 8:30:00 AM -0.03 31.946 0.131 7.59 0.26 14.5
1/16/2022 8:45:00 AM -0.03 31.946 0.131 7.6 0.28 14.54
1/16/2022 9:00:00 AM -0.02 31.964 0.131 7.6 0.28 14.58
1/16/2022 9:15:00 AM -0.02 31.964 0.131 7.62 0.3 14.67
1/16/2022 9:30:00 AM -0.03 31.946 0.131 7.64 0.34 14.74
1/16/2022 9:45:00 AM -0.03 31.946 0.131 7.65 0.34 14.78
1/16/2022 10:00:00 AM 0 32 0.13 7.66 0.29 14.8